<?xml version="1.0" encoding="UTF-8" standalone="no" ?>
<gpx xmlns="http://www.topografix.com/GPX/1/1" xmlns:xsi="http://www.w3.org/2001/XMLSchema-instance" xsi:schemaLocation="http://www.topografix.com/GPX/1/1 http://www.topografix.com/GPX/1/1/gpx.xsd" version="1.1" creator="VisuGPX - https://www.visugpx.com">
  <metadata>
    <name>Proto Dimanche VAE</name>
  </metadata>
  <trk>
    <name><![CDATA[Petit Luberon - Lauris longues]]></name>
    <extensions>
      <line xmlns="http://www.topografix.com/GPX/gpx_style/0/2">
        <color>FF0000</color>
        <width>4</width>
      </line>
    </extensions>
    <trkseg>
      <trkpt lat="43.76168" lon="5.25862">
        <ele>205.1</ele>
        <time>2020-02-23T07:27:07Z</time>
        <extensions>
          <visugpx:TrkExtension xmlns:visugpx="https://www.visugpx.com/editgpx/">
            <visugpx:node>4</visugpx:node>
            </visugpx:TrkExtension>
        </extensions>
      </trkpt>
      <trkpt lat="43.76176" lon="5.2587">
        <ele>205.3</ele>
        <time>2020-02-23T07:27:12Z</time>
      </trkpt>
      <trkpt lat="43.76203" lon="5.25856">
        <ele>205.6</ele>
        <time>2020-02-23T07:27:23Z</time>
      </trkpt>
      <trkpt lat="43.76316" lon="5.25854">
        <ele>211</ele>
        <time>2020-02-23T07:28:04Z</time>
      </trkpt>
      <trkpt lat="43.76388" lon="5.25868">
        <ele>212.3</ele>
        <time>2020-02-23T07:28:28Z</time>
      </trkpt>
      <trkpt lat="43.76415" lon="5.25867">
        <ele>214.8</ele>
        <time>2020-02-23T07:28:38Z</time>
      </trkpt>
      <trkpt lat="43.76446" lon="5.25853">
        <ele>216.9</ele>
        <time>2020-02-23T07:28:50Z</time>
      </trkpt>
      <trkpt lat="43.7647" lon="5.25856">
        <ele>219.5</ele>
        <time>2020-02-23T07:29:03Z</time>
      </trkpt>
      <trkpt lat="43.76496" lon="5.25876">
        <ele>223.5</ele>
        <time>2020-02-23T07:29:22Z</time>
      </trkpt>
      <trkpt lat="43.76505" lon="5.25874">
        <ele>224.4</ele>
        <time>2020-02-23T07:29:28Z</time>
      </trkpt>
      <trkpt lat="43.76528" lon="5.25884">
        <ele>227.7</ele>
        <time>2020-02-23T07:29:46Z</time>
      </trkpt>
      <trkpt lat="43.76555" lon="5.25904">
        <ele>232.5</ele>
        <time>2020-02-23T07:30:08Z</time>
      </trkpt>
      <trkpt lat="43.76565" lon="5.25906">
        <ele>233.6</ele>
        <time>2020-02-23T07:30:15Z</time>
      </trkpt>
      <trkpt lat="43.76585" lon="5.25893">
        <ele>235.3</ele>
        <time>2020-02-23T07:30:29Z</time>
      </trkpt>
      <trkpt lat="43.7659" lon="5.25878">
        <ele>234.1</ele>
        <time>2020-02-23T07:30:36Z</time>
      </trkpt>
      <trkpt lat="43.76599" lon="5.2588">
        <ele>234.9</ele>
        <time>2020-02-23T07:30:42Z</time>
      </trkpt>
      <trkpt lat="43.76663" lon="5.25955">
        <ele>247</ele>
        <time>2020-02-23T07:31:40Z</time>
      </trkpt>
      <trkpt lat="43.76746" lon="5.26024">
        <ele>260.1</ele>
        <time>2020-02-23T07:32:41Z</time>
      </trkpt>
      <trkpt lat="43.76768" lon="5.2605">
        <ele>263.1</ele>
        <time>2020-02-23T07:33:01Z</time>
      </trkpt>
      <trkpt lat="43.76791" lon="5.26091">
        <ele>266</ele>
        <time>2020-02-23T07:33:23Z</time>
      </trkpt>
      <trkpt lat="43.76802" lon="5.26122">
        <ele>270.3</ele>
        <time>2020-02-23T07:33:38Z</time>
      </trkpt>
      <trkpt lat="43.76833" lon="5.26163">
        <ele>275.6</ele>
        <time>2020-02-23T07:34:05Z</time>
      </trkpt>
      <trkpt lat="43.76824" lon="5.26223">
        <ele>275.3</ele>
        <time>2020-02-23T07:34:24Z</time>
      </trkpt>
      <trkpt lat="43.76813" lon="5.26276">
        <ele>273.2</ele>
        <time>2020-02-23T07:34:36Z</time>
      </trkpt>
      <trkpt lat="43.76799" lon="5.26292">
        <ele>270.2</ele>
        <time>2020-02-23T07:34:44Z</time>
      </trkpt>
      <trkpt lat="43.76798" lon="5.26308">
        <ele>270.2</ele>
        <time>2020-02-23T07:34:48Z</time>
      </trkpt>
      <trkpt lat="43.76788" lon="5.2633">
        <ele>265.6</ele>
        <time>2020-02-23T07:34:53Z</time>
      </trkpt>
      <trkpt lat="43.76784" lon="5.26359">
        <ele>261.8</ele>
        <time>2020-02-23T07:34:57Z</time>
      </trkpt>
      <trkpt lat="43.7677" lon="5.26389">
        <ele>258.9</ele>
        <time>2020-02-23T07:35:03Z</time>
      </trkpt>
      <trkpt lat="43.76776" lon="5.2641">
        <ele>261</ele>
        <time>2020-02-23T07:35:10Z</time>
      </trkpt>
      <trkpt lat="43.76765" lon="5.26464">
        <ele>250.6</ele>
        <time>2020-02-23T07:35:23Z</time>
      </trkpt>
      <trkpt lat="43.76768" lon="5.26478">
        <ele>248.3</ele>
        <time>2020-02-23T07:35:27Z</time>
      </trkpt>
      <trkpt lat="43.76785" lon="5.26492">
        <ele>247.5</ele>
        <time>2020-02-23T07:35:33Z</time>
      </trkpt>
      <trkpt lat="43.76783" lon="5.26504">
        <ele>244.9</ele>
        <time>2020-02-23T07:35:37Z</time>
      </trkpt>
      <trkpt lat="43.76776" lon="5.26505">
        <ele>243.9</ele>
        <time>2020-02-23T07:35:40Z</time>
      </trkpt>
      <trkpt lat="43.76773" lon="5.26524">
        <ele>240.4</ele>
        <time>2020-02-23T07:35:46Z</time>
      </trkpt>
      <trkpt lat="43.76778" lon="5.26542">
        <ele>241.6</ele>
        <time>2020-02-23T07:36:01Z</time>
      </trkpt>
      <trkpt lat="43.76779" lon="5.2658">
        <ele>241.4</ele>
        <time>2020-02-23T07:36:10Z</time>
      </trkpt>
      <trkpt lat="43.76807" lon="5.2662">
        <ele>241.3</ele>
        <time>2020-02-23T07:36:26Z</time>
      </trkpt>
      <trkpt lat="43.76806" lon="5.26646">
        <ele>239.1</ele>
        <time>2020-02-23T07:36:35Z</time>
      </trkpt>
      <trkpt lat="43.76811" lon="5.26664">
        <ele>239.6</ele>
        <time>2020-02-23T07:36:42Z</time>
      </trkpt>
      <trkpt lat="43.76822" lon="5.26674">
        <ele>241.7</ele>
        <time>2020-02-23T07:36:49Z</time>
      </trkpt>
      <trkpt lat="43.7686" lon="5.26685">
        <ele>244.6</ele>
        <time>2020-02-23T07:37:10Z</time>
      </trkpt>
      <trkpt lat="43.76869" lon="5.2671">
        <ele>246.8</ele>
        <time>2020-02-23T07:37:21Z</time>
      </trkpt>
      <trkpt lat="43.76893" lon="5.26739">
        <ele>249.6</ele>
        <time>2020-02-23T07:37:39Z</time>
      </trkpt>
      <trkpt lat="43.76909" lon="5.26779">
        <ele>254.1</ele>
        <time>2020-02-23T07:37:59Z</time>
      </trkpt>
      <trkpt lat="43.76917" lon="5.26811">
        <ele>256.8</ele>
        <time>2020-02-23T07:38:26Z</time>
      </trkpt>
      <trkpt lat="43.76925" lon="5.26826">
        <ele>258.6</ele>
        <time>2020-02-23T07:38:33Z</time>
      </trkpt>
      <trkpt lat="43.76938" lon="5.26866">
        <ele>263.1</ele>
        <time>2020-02-23T07:38:56Z</time>
      </trkpt>
      <trkpt lat="43.76949" lon="5.26871">
        <ele>263.6</ele>
        <time>2020-02-23T07:39:05Z</time>
      </trkpt>
      <trkpt lat="43.76963" lon="5.26891">
        <ele>267.7</ele>
        <time>2020-02-23T07:39:28Z</time>
      </trkpt>
      <trkpt lat="43.76965" lon="5.26911">
        <ele>271.2</ele>
        <time>2020-02-23T07:39:49Z</time>
      </trkpt>
      <trkpt lat="43.76992" lon="5.26977">
        <ele>278.7</ele>
        <time>2020-02-23T07:40:25Z</time>
      </trkpt>
      <trkpt lat="43.76992" lon="5.26991">
        <ele>279.9</ele>
        <time>2020-02-23T07:40:33Z</time>
      </trkpt>
      <trkpt lat="43.76979" lon="5.27004">
        <ele>283.3</ele>
        <time>2020-02-23T07:40:48Z</time>
      </trkpt>
      <trkpt lat="43.76963" lon="5.27003">
        <ele>285.7</ele>
        <time>2020-02-23T07:40:59Z</time>
      </trkpt>
      <trkpt lat="43.76956" lon="5.26994">
        <ele>285.6</ele>
        <time>2020-02-23T07:41:06Z</time>
      </trkpt>
      <trkpt lat="43.7694" lon="5.27002">
        <ele>290.2</ele>
        <time>2020-02-23T07:41:20Z</time>
      </trkpt>
      <trkpt lat="43.76922" lon="5.26999">
        <ele>292.9</ele>
        <time>2020-02-23T07:41:34Z</time>
      </trkpt>
      <trkpt lat="43.76898" lon="5.26985">
        <ele>297.1</ele>
        <time>2020-02-23T07:41:56Z</time>
      </trkpt>
      <trkpt lat="43.7684" lon="5.26991">
        <ele>301</ele>
        <time>2020-02-23T07:42:26Z</time>
      </trkpt>
      <trkpt lat="43.76831" lon="5.26997">
        <ele>298.9</ele>
        <time>2020-02-23T07:42:29Z</time>
      </trkpt>
      <trkpt lat="43.76818" lon="5.27022">
        <ele>296.8</ele>
        <time>2020-02-23T07:42:34Z</time>
      </trkpt>
      <trkpt lat="43.76796" lon="5.27051">
        <ele>292.4</ele>
        <time>2020-02-23T07:42:42Z</time>
      </trkpt>
      <trkpt lat="43.76767" lon="5.27109">
        <ele>283.3</ele>
        <time>2020-02-23T07:42:57Z</time>
      </trkpt>
      <trkpt lat="43.76764" lon="5.27141">
        <ele>281.6</ele>
        <time>2020-02-23T07:43:04Z</time>
      </trkpt>
      <trkpt lat="43.76779" lon="5.27202">
        <ele>287.3</ele>
        <time>2020-02-23T07:43:56Z</time>
      </trkpt>
      <trkpt lat="43.76785" lon="5.27211">
        <ele>290.2</ele>
        <time>2020-02-23T07:44:05Z</time>
      </trkpt>
      <trkpt lat="43.76802" lon="5.27259">
        <ele>298.2</ele>
        <time>2020-02-23T07:44:44Z</time>
      </trkpt>
      <trkpt lat="43.76803" lon="5.27275">
        <ele>299.2</ele>
        <time>2020-02-23T07:44:53Z</time>
      </trkpt>
      <trkpt lat="43.76796" lon="5.27302">
        <ele>298.7</ele>
        <time>2020-02-23T07:45:08Z</time>
      </trkpt>
      <trkpt lat="43.76821" lon="5.27385">
        <ele>295.6</ele>
        <time>2020-02-23T07:45:28Z</time>
      </trkpt>
      <trkpt lat="43.76832" lon="5.27408">
        <ele>294.2</ele>
        <time>2020-02-23T07:45:33Z</time>
      </trkpt>
      <trkpt lat="43.76863" lon="5.2744">
        <ele>294.9</ele>
        <time>2020-02-23T07:45:42Z</time>
      </trkpt>
      <trkpt lat="43.76906" lon="5.27465">
        <ele>299.1</ele>
        <time>2020-02-23T07:46:05Z</time>
      </trkpt>
      <trkpt lat="43.76905" lon="5.27478">
        <ele>298.2</ele>
        <time>2020-02-23T07:46:09Z</time>
      </trkpt>
      <trkpt lat="43.76896" lon="5.275">
        <ele>298.2</ele>
        <time>2020-02-23T07:46:14Z</time>
      </trkpt>
      <trkpt lat="43.76886" lon="5.27508">
        <ele>297.1</ele>
        <time>2020-02-23T07:46:17Z</time>
      </trkpt>
      <trkpt lat="43.76869" lon="5.2751">
        <ele>294.8</ele>
        <time>2020-02-23T07:46:20Z</time>
      </trkpt>
      <trkpt lat="43.76732" lon="5.27573">
        <ele>289.9</ele>
        <time>2020-02-23T07:46:46Z</time>
      </trkpt>
      <trkpt lat="43.76724" lon="5.27584">
        <ele>290.4</ele>
        <time>2020-02-23T07:46:50Z</time>
      </trkpt>
      <trkpt lat="43.76717" lon="5.27608">
        <ele>292.5</ele>
        <time>2020-02-23T07:46:55Z</time>
      </trkpt>
      <trkpt lat="43.76682" lon="5.27673">
        <ele>287.5</ele>
        <time>2020-02-23T07:47:04Z</time>
      </trkpt>
      <trkpt lat="43.76669" lon="5.27689">
        <ele>285.1</ele>
        <time>2020-02-23T07:47:08Z</time>
      </trkpt>
      <trkpt lat="43.76676" lon="5.27706">
        <ele>288.1</ele>
        <time>2020-02-23T07:47:15Z</time>
      </trkpt>
      <trkpt lat="43.76669" lon="5.27728">
        <ele>286.7</ele>
        <time>2020-02-23T07:47:21Z</time>
      </trkpt>
      <trkpt lat="43.7668" lon="5.27749">
        <ele>289.2</ele>
        <time>2020-02-23T07:47:29Z</time>
      </trkpt>
      <trkpt lat="43.76683" lon="5.27775">
        <ele>289.1</ele>
        <time>2020-02-23T07:47:34Z</time>
      </trkpt>
      <trkpt lat="43.76691" lon="5.27781">
        <ele>290.8</ele>
        <time>2020-02-23T07:47:39Z</time>
      </trkpt>
      <trkpt lat="43.76712" lon="5.27808">
        <ele>294.2</ele>
        <time>2020-02-23T07:47:56Z</time>
      </trkpt>
      <trkpt lat="43.76708" lon="5.27824">
        <ele>290.7</ele>
        <time>2020-02-23T07:48:02Z</time>
      </trkpt>
      <trkpt lat="43.76702" lon="5.27829">
        <ele>288.4</ele>
        <time>2020-02-23T07:48:05Z</time>
      </trkpt>
      <trkpt lat="43.76712" lon="5.27864">
        <ele>287.6</ele>
        <time>2020-02-23T07:48:14Z</time>
      </trkpt>
      <trkpt lat="43.76702" lon="5.2788">
        <ele>283.4</ele>
        <time>2020-02-23T07:48:20Z</time>
      </trkpt>
      <trkpt lat="43.76704" lon="5.27898">
        <ele>281.4</ele>
        <time>2020-02-23T07:48:25Z</time>
      </trkpt>
      <trkpt lat="43.76716" lon="5.27904">
        <ele>282</ele>
        <time>2020-02-23T07:48:29Z</time>
      </trkpt>
      <trkpt lat="43.7674" lon="5.27906">
        <ele>284.9</ele>
        <time>2020-02-23T07:48:37Z</time>
      </trkpt>
      <trkpt lat="43.76768" lon="5.27925">
        <ele>281.4</ele>
        <time>2020-02-23T07:48:46Z</time>
      </trkpt>
      <trkpt lat="43.76789" lon="5.27914">
        <ele>283.9</ele>
        <time>2020-02-23T07:48:56Z</time>
      </trkpt>
      <trkpt lat="43.76844" lon="5.27836">
        <ele>290</ele>
        <time>2020-02-23T07:49:32Z</time>
      </trkpt>
      <trkpt lat="43.7686" lon="5.27822">
        <ele>291.7</ele>
        <time>2020-02-23T07:49:41Z</time>
      </trkpt>
      <trkpt lat="43.76888" lon="5.27809">
        <ele>292.5</ele>
        <time>2020-02-23T07:49:52Z</time>
      </trkpt>
      <trkpt lat="43.76899" lon="5.27798">
        <ele>296.1</ele>
        <time>2020-02-23T07:50:01Z</time>
      </trkpt>
      <trkpt lat="43.76933" lon="5.27778">
        <ele>299</ele>
        <time>2020-02-23T07:50:23Z</time>
      </trkpt>
      <trkpt lat="43.76949" lon="5.27775">
        <ele>300.5</ele>
        <time>2020-02-23T07:50:32Z</time>
      </trkpt>
      <trkpt lat="43.76988" lon="5.27796">
        <ele>297.1</ele>
        <time>2020-02-23T07:50:50Z</time>
      </trkpt>
      <trkpt lat="43.77018" lon="5.2779">
        <ele>303.2</ele>
        <time>2020-02-23T07:51:02Z</time>
      </trkpt>
      <trkpt lat="43.77048" lon="5.27801">
        <ele>303.9</ele>
        <time>2020-02-23T07:51:14Z</time>
      </trkpt>
      <trkpt lat="43.77066" lon="5.27826">
        <ele>299.8</ele>
        <time>2020-02-23T07:51:28Z</time>
      </trkpt>
      <trkpt lat="43.77078" lon="5.27835">
        <ele>301.4</ele>
        <time>2020-02-23T07:51:42Z</time>
      </trkpt>
      <trkpt lat="43.77105" lon="5.2789">
        <ele>299.5</ele>
        <time>2020-02-23T07:52:04Z</time>
      </trkpt>
      <trkpt lat="43.77102" lon="5.27896">
        <ele>299.4</ele>
        <time>2020-02-23T07:52:08Z</time>
      </trkpt>
      <trkpt lat="43.77094" lon="5.27894">
        <ele>297.4</ele>
        <time>2020-02-23T07:52:12Z</time>
      </trkpt>
      <trkpt lat="43.77083" lon="5.27881">
        <ele>295</ele>
        <time>2020-02-23T07:52:20Z</time>
      </trkpt>
      <trkpt lat="43.77079" lon="5.27865">
        <ele>295.2</ele>
        <time>2020-02-23T07:52:27Z</time>
      </trkpt>
      <trkpt lat="43.77057" lon="5.27851">
        <ele>287.2</ele>
        <time>2020-02-23T07:52:38Z</time>
      </trkpt>
      <trkpt lat="43.76984" lon="5.2787">
        <ele>270.6</ele>
        <time>2020-02-23T07:52:54Z</time>
      </trkpt>
      <trkpt lat="43.76954" lon="5.27852">
        <ele>270.4</ele>
        <time>2020-02-23T07:53:08Z</time>
      </trkpt>
      <trkpt lat="43.7693" lon="5.27851">
        <ele>269.7</ele>
        <time>2020-02-23T07:53:17Z</time>
      </trkpt>
      <trkpt lat="43.76892" lon="5.27873">
        <ele>264.6</ele>
        <time>2020-02-23T07:53:30Z</time>
      </trkpt>
      <trkpt lat="43.76877" lon="5.27909">
        <ele>259.9</ele>
        <time>2020-02-23T07:53:37Z</time>
      </trkpt>
      <trkpt lat="43.76847" lon="5.27964">
        <ele>254.5</ele>
        <time>2020-02-23T07:53:50Z</time>
      </trkpt>
      <trkpt lat="43.76829" lon="5.27975">
        <ele>253.4</ele>
        <time>2020-02-23T07:53:55Z</time>
      </trkpt>
      <trkpt lat="43.76812" lon="5.27997">
        <ele>251.5</ele>
        <time>2020-02-23T07:54:02Z</time>
      </trkpt>
      <trkpt lat="43.76765" lon="5.28005">
        <ele>251.6</ele>
        <time>2020-02-23T07:54:21Z</time>
      </trkpt>
      <trkpt lat="43.76757" lon="5.28012">
        <ele>249.4</ele>
        <time>2020-02-23T07:54:25Z</time>
      </trkpt>
      <trkpt lat="43.76736" lon="5.28012">
        <ele>248.7</ele>
        <time>2020-02-23T07:54:31Z</time>
      </trkpt>
      <trkpt lat="43.76724" lon="5.28027">
        <ele>242.6</ele>
        <time>2020-02-23T07:54:36Z</time>
      </trkpt>
      <trkpt lat="43.7671" lon="5.2803">
        <ele>242.2</ele>
        <time>2020-02-23T07:54:41Z</time>
      </trkpt>
      <trkpt lat="43.767" lon="5.28039">
        <ele>240.8</ele>
        <time>2020-02-23T07:54:51Z</time>
      </trkpt>
      <trkpt lat="43.76682" lon="5.28038">
        <ele>240</ele>
        <time>2020-02-23T07:54:57Z</time>
      </trkpt>
      <trkpt lat="43.76653" lon="5.28043">
        <ele>237.2</ele>
        <time>2020-02-23T07:55:04Z</time>
      </trkpt>
      <trkpt lat="43.76619" lon="5.28035">
        <ele>238.2</ele>
        <time>2020-02-23T07:55:17Z</time>
      </trkpt>
      <trkpt lat="43.76599" lon="5.2804">
        <ele>236.7</ele>
        <time>2020-02-23T07:55:23Z</time>
      </trkpt>
      <trkpt lat="43.76545" lon="5.28037">
        <ele>239</ele>
        <time>2020-02-23T07:55:42Z</time>
      </trkpt>
      <trkpt lat="43.76536" lon="5.2805">
        <ele>234.7</ele>
        <time>2020-02-23T07:55:47Z</time>
      </trkpt>
      <trkpt lat="43.76524" lon="5.28058">
        <ele>232.9</ele>
        <time>2020-02-23T07:55:53Z</time>
      </trkpt>
      <trkpt lat="43.76513" lon="5.28091">
        <ele>227.4</ele>
        <time>2020-02-23T07:56:02Z</time>
      </trkpt>
      <trkpt lat="43.76479" lon="5.281">
        <ele>225.3</ele>
        <time>2020-02-23T07:56:18Z</time>
      </trkpt>
      <trkpt lat="43.76464" lon="5.28115">
        <ele>223.4</ele>
        <time>2020-02-23T07:56:27Z</time>
      </trkpt>
      <trkpt lat="43.76449" lon="5.28121">
        <ele>223.1</ele>
        <time>2020-02-23T07:56:36Z</time>
      </trkpt>
      <trkpt lat="43.7645" lon="5.28131">
        <ele>221.7</ele>
        <time>2020-02-23T07:56:40Z</time>
      </trkpt>
      <trkpt lat="43.76439" lon="5.28139">
        <ele>220.7</ele>
        <time>2020-02-23T07:56:46Z</time>
      </trkpt>
      <trkpt lat="43.76437" lon="5.28145">
        <ele>220.8</ele>
        <time>2020-02-23T07:56:48Z</time>
      </trkpt>
      <trkpt lat="43.7643" lon="5.28147">
        <ele>221.2</ele>
        <time>2020-02-23T07:56:51Z</time>
      </trkpt>
      <trkpt lat="43.76428" lon="5.28179">
        <ele>221</ele>
        <time>2020-02-23T07:57:09Z</time>
      </trkpt>
      <trkpt lat="43.76407" lon="5.28237">
        <ele>223.3</ele>
        <time>2020-02-23T07:57:35Z</time>
      </trkpt>
      <trkpt lat="43.76408" lon="5.28262">
        <ele>226.8</ele>
        <time>2020-02-23T07:57:47Z</time>
      </trkpt>
      <trkpt lat="43.76415" lon="5.28265">
        <ele>229.3</ele>
        <time>2020-02-23T07:57:54Z</time>
      </trkpt>
      <trkpt lat="43.76428" lon="5.2826">
        <ele>231.9</ele>
        <time>2020-02-23T07:58:08Z</time>
      </trkpt>
      <trkpt lat="43.76443" lon="5.28263">
        <ele>235.2</ele>
        <time>2020-02-23T07:58:25Z</time>
      </trkpt>
      <trkpt lat="43.76463" lon="5.2825">
        <ele>239</ele>
        <time>2020-02-23T07:58:45Z</time>
      </trkpt>
      <trkpt lat="43.76478" lon="5.28232">
        <ele>241.5</ele>
        <time>2020-02-23T07:59:00Z</time>
      </trkpt>
      <trkpt lat="43.76498" lon="5.28225">
        <ele>245.3</ele>
        <time>2020-02-23T07:59:14Z</time>
      </trkpt>
      <trkpt lat="43.76515" lon="5.2821">
        <ele>246.6</ele>
        <time>2020-02-23T07:59:28Z</time>
      </trkpt>
      <trkpt lat="43.76552" lon="5.28196">
        <ele>251.4</ele>
        <time>2020-02-23T07:59:52Z</time>
      </trkpt>
      <trkpt lat="43.76568" lon="5.28195">
        <ele>253.3</ele>
        <time>2020-02-23T07:59:59Z</time>
      </trkpt>
      <trkpt lat="43.7659" lon="5.28173">
        <ele>256.9</ele>
        <time>2020-02-23T08:00:17Z</time>
      </trkpt>
      <trkpt lat="43.76595" lon="5.28178">
        <ele>257.3</ele>
        <time>2020-02-23T08:00:23Z</time>
      </trkpt>
      <trkpt lat="43.76604" lon="5.28169">
        <ele>260</ele>
        <time>2020-02-23T08:00:40Z</time>
      </trkpt>
      <trkpt lat="43.7662" lon="5.28167">
        <ele>262.6</ele>
        <time>2020-02-23T08:00:53Z</time>
      </trkpt>
      <trkpt lat="43.76629" lon="5.2816">
        <ele>263</ele>
        <time>2020-02-23T08:01:00Z</time>
      </trkpt>
      <trkpt lat="43.76669" lon="5.28157">
        <ele>266.8</ele>
        <time>2020-02-23T08:01:22Z</time>
      </trkpt>
      <trkpt lat="43.76679" lon="5.28149">
        <ele>267.5</ele>
        <time>2020-02-23T08:01:28Z</time>
      </trkpt>
      <trkpt lat="43.76732" lon="5.2815">
        <ele>270.8</ele>
        <time>2020-02-23T08:01:58Z</time>
      </trkpt>
      <trkpt lat="43.76786" lon="5.28169">
        <ele>279.3</ele>
        <time>2020-02-23T08:02:34Z</time>
      </trkpt>
      <trkpt lat="43.76804" lon="5.2814">
        <ele>280.4</ele>
        <time>2020-02-23T08:02:49Z</time>
      </trkpt>
      <trkpt lat="43.76822" lon="5.28121">
        <ele>281</ele>
        <time>2020-02-23T08:03:01Z</time>
      </trkpt>
      <trkpt lat="43.76884" lon="5.28093">
        <ele>288.4</ele>
        <time>2020-02-23T08:03:34Z</time>
      </trkpt>
      <trkpt lat="43.76898" lon="5.28083">
        <ele>289.8</ele>
        <time>2020-02-23T08:03:43Z</time>
      </trkpt>
      <trkpt lat="43.76923" lon="5.28037">
        <ele>289.7</ele>
        <time>2020-02-23T08:04:04Z</time>
      </trkpt>
      <trkpt lat="43.76944" lon="5.27981">
        <ele>287.6</ele>
        <time>2020-02-23T08:04:18Z</time>
      </trkpt>
      <trkpt lat="43.76975" lon="5.27968">
        <ele>291.9</ele>
        <time>2020-02-23T08:04:35Z</time>
      </trkpt>
      <trkpt lat="43.76983" lon="5.27973">
        <ele>294.8</ele>
        <time>2020-02-23T08:04:43Z</time>
      </trkpt>
      <trkpt lat="43.77005" lon="5.27968">
        <ele>299.6</ele>
        <time>2020-02-23T08:05:03Z</time>
      </trkpt>
      <trkpt lat="43.77025" lon="5.27943">
        <ele>299.9</ele>
        <time>2020-02-23T08:05:21Z</time>
      </trkpt>
      <trkpt lat="43.7705" lon="5.27948">
        <ele>304.7</ele>
        <time>2020-02-23T08:05:37Z</time>
      </trkpt>
      <trkpt lat="43.77063" lon="5.27944">
        <ele>305.1</ele>
        <time>2020-02-23T08:05:48Z</time>
      </trkpt>
      <trkpt lat="43.77071" lon="5.27969">
        <ele>309.1</ele>
        <time>2020-02-23T08:06:03Z</time>
      </trkpt>
      <trkpt lat="43.77063" lon="5.27984">
        <ele>311.4</ele>
        <time>2020-02-23T08:06:12Z</time>
      </trkpt>
      <trkpt lat="43.77048" lon="5.27983">
        <ele>310.2</ele>
        <time>2020-02-23T08:06:19Z</time>
      </trkpt>
      <trkpt lat="43.77015" lon="5.28018">
        <ele>311</ele>
        <time>2020-02-23T08:06:40Z</time>
      </trkpt>
      <trkpt lat="43.77003" lon="5.28056">
        <ele>315.1</ele>
        <time>2020-02-23T08:07:01Z</time>
      </trkpt>
      <trkpt lat="43.76979" lon="5.28075">
        <ele>309.7</ele>
        <time>2020-02-23T08:07:11Z</time>
      </trkpt>
      <trkpt lat="43.76973" lon="5.28135">
        <ele>313.2</ele>
        <time>2020-02-23T08:07:34Z</time>
      </trkpt>
      <trkpt lat="43.76977" lon="5.28141">
        <ele>315.1</ele>
        <time>2020-02-23T08:07:38Z</time>
      </trkpt>
      <trkpt lat="43.76978" lon="5.28179">
        <ele>314</ele>
        <time>2020-02-23T08:07:53Z</time>
      </trkpt>
      <trkpt lat="43.76993" lon="5.28259">
        <ele>311.5</ele>
        <time>2020-02-23T08:08:14Z</time>
      </trkpt>
      <trkpt lat="43.7699" lon="5.28271">
        <ele>309.2</ele>
        <time>2020-02-23T08:08:17Z</time>
      </trkpt>
      <trkpt lat="43.76999" lon="5.28308">
        <ele>306.4</ele>
        <time>2020-02-23T08:08:26Z</time>
      </trkpt>
      <trkpt lat="43.7702" lon="5.28342">
        <ele>306.4</ele>
        <time>2020-02-23T08:08:39Z</time>
      </trkpt>
      <trkpt lat="43.77036" lon="5.28357">
        <ele>307.6</ele>
        <time>2020-02-23T08:08:50Z</time>
      </trkpt>
      <trkpt lat="43.77049" lon="5.28363">
        <ele>309.3</ele>
        <time>2020-02-23T08:08:58Z</time>
      </trkpt>
      <trkpt lat="43.77063" lon="5.28391">
        <ele>309.2</ele>
        <time>2020-02-23T08:09:08Z</time>
      </trkpt>
      <trkpt lat="43.7707" lon="5.28395">
        <ele>309.6</ele>
        <time>2020-02-23T08:09:11Z</time>
      </trkpt>
      <trkpt lat="43.77077" lon="5.28427">
        <ele>305.4</ele>
        <time>2020-02-23T08:09:23Z</time>
      </trkpt>
      <trkpt lat="43.77078" lon="5.28455">
        <ele>303</ele>
        <time>2020-02-23T08:09:30Z</time>
      </trkpt>
      <trkpt lat="43.77062" lon="5.28501">
        <ele>295.1</ele>
        <time>2020-02-23T08:09:43Z</time>
      </trkpt>
      <trkpt lat="43.77042" lon="5.28537">
        <ele>288.3</ele>
        <time>2020-02-23T08:09:58Z</time>
      </trkpt>
      <trkpt lat="43.77047" lon="5.28553">
        <ele>288.6</ele>
        <time>2020-02-23T08:10:03Z</time>
      </trkpt>
      <trkpt lat="43.77046" lon="5.28568">
        <ele>288.2</ele>
        <time>2020-02-23T08:10:08Z</time>
      </trkpt>
      <trkpt lat="43.77056" lon="5.28586">
        <ele>290.1</ele>
        <time>2020-02-23T08:10:17Z</time>
      </trkpt>
      <trkpt lat="43.77067" lon="5.28584">
        <ele>292.1</ele>
        <time>2020-02-23T08:10:24Z</time>
      </trkpt>
      <trkpt lat="43.77071" lon="5.28588">
        <ele>292.9</ele>
        <time>2020-02-23T08:10:27Z</time>
      </trkpt>
      <trkpt lat="43.77074" lon="5.28603">
        <ele>293.9</ele>
        <time>2020-02-23T08:10:34Z</time>
      </trkpt>
      <trkpt lat="43.77083" lon="5.28619">
        <ele>295</ele>
        <time>2020-02-23T08:10:43Z</time>
      </trkpt>
      <trkpt lat="43.77081" lon="5.28623">
        <ele>294.3</ele>
        <time>2020-02-23T08:10:45Z</time>
      </trkpt>
      <trkpt lat="43.77059" lon="5.28636">
        <ele>289.6</ele>
        <time>2020-02-23T08:10:56Z</time>
      </trkpt>
      <trkpt lat="43.77052" lon="5.28647">
        <ele>288.9</ele>
        <time>2020-02-23T08:11:01Z</time>
      </trkpt>
      <trkpt lat="43.77034" lon="5.28697">
        <ele>285.9</ele>
        <time>2020-02-23T08:11:10Z</time>
      </trkpt>
      <trkpt lat="43.77035" lon="5.28793">
        <ele>281.9</ele>
        <time>2020-02-23T08:11:30Z</time>
      </trkpt>
      <trkpt lat="43.77028" lon="5.28864">
        <ele>280.2</ele>
        <time>2020-02-23T08:11:45Z</time>
      </trkpt>
      <trkpt lat="43.77015" lon="5.28893">
        <ele>279.1</ele>
        <time>2020-02-23T08:11:56Z</time>
      </trkpt>
      <trkpt lat="43.77007" lon="5.28987">
        <ele>280.1</ele>
        <time>2020-02-23T08:12:16Z</time>
      </trkpt>
      <trkpt lat="43.77011" lon="5.28995">
        <ele>281.1</ele>
        <time>2020-02-23T08:12:20Z</time>
      </trkpt>
      <trkpt lat="43.77019" lon="5.28998">
        <ele>283</ele>
        <time>2020-02-23T08:12:25Z</time>
      </trkpt>
      <trkpt lat="43.77025" lon="5.28991">
        <ele>284</ele>
        <time>2020-02-23T08:12:30Z</time>
      </trkpt>
      <trkpt lat="43.77029" lon="5.28965">
        <ele>284.5</ele>
        <time>2020-02-23T08:12:41Z</time>
      </trkpt>
      <trkpt lat="43.77032" lon="5.2896">
        <ele>285.8</ele>
        <time>2020-02-23T08:12:44Z</time>
      </trkpt>
      <trkpt lat="43.77038" lon="5.28969">
        <ele>287.6</ele>
        <time>2020-02-23T08:12:50Z</time>
      </trkpt>
      <trkpt lat="43.77042" lon="5.29006">
        <ele>289.8</ele>
        <time>2020-02-23T08:13:08Z</time>
      </trkpt>
      <trkpt lat="43.77035" lon="5.29042">
        <ele>288.5</ele>
        <time>2020-02-23T08:13:19Z</time>
      </trkpt>
      <trkpt lat="43.77037" lon="5.29066">
        <ele>290.5</ele>
        <time>2020-02-23T08:13:28Z</time>
      </trkpt>
      <trkpt lat="43.77024" lon="5.29065">
        <ele>287.2</ele>
        <time>2020-02-23T08:13:36Z</time>
      </trkpt>
      <trkpt lat="43.77015" lon="5.29076">
        <ele>286.3</ele>
        <time>2020-02-23T08:13:41Z</time>
      </trkpt>
      <trkpt lat="43.77016" lon="5.29111">
        <ele>289.1</ele>
        <time>2020-02-23T08:13:49Z</time>
      </trkpt>
      <trkpt lat="43.76998" lon="5.29165">
        <ele>287.6</ele>
        <time>2020-02-23T08:14:05Z</time>
      </trkpt>
      <trkpt lat="43.76987" lon="5.29185">
        <ele>287</ele>
        <time>2020-02-23T08:14:10Z</time>
      </trkpt>
      <trkpt lat="43.76982" lon="5.29215">
        <ele>287.8</ele>
        <time>2020-02-23T08:14:20Z</time>
      </trkpt>
      <trkpt lat="43.76932" lon="5.29216">
        <ele>284.6</ele>
        <time>2020-02-23T08:14:33Z</time>
      </trkpt>
      <trkpt lat="43.76891" lon="5.29206">
        <ele>280.1</ele>
        <time>2020-02-23T08:14:40Z</time>
      </trkpt>
      <trkpt lat="43.76851" lon="5.29208">
        <ele>276.9</ele>
        <time>2020-02-23T08:14:48Z</time>
      </trkpt>
      <trkpt lat="43.76848" lon="5.29216">
        <ele>276.9</ele>
        <time>2020-02-23T08:14:50Z</time>
      </trkpt>
      <trkpt lat="43.76858" lon="5.29234">
        <ele>276.4</ele>
        <time>2020-02-23T08:14:54Z</time>
      </trkpt>
      <trkpt lat="43.7693" lon="5.29306">
        <ele>272.4</ele>
        <time>2020-02-23T08:15:15Z</time>
      </trkpt>
      <trkpt lat="43.7694" lon="5.29323">
        <ele>271.7</ele>
        <time>2020-02-23T08:15:18Z</time>
      </trkpt>
      <trkpt lat="43.76967" lon="5.29341">
        <ele>273.5</ele>
        <time>2020-02-23T08:15:25Z</time>
      </trkpt>
      <trkpt lat="43.76994" lon="5.29368">
        <ele>274.4</ele>
        <time>2020-02-23T08:15:35Z</time>
      </trkpt>
      <trkpt lat="43.77012" lon="5.29374">
        <ele>275.7</ele>
        <time>2020-02-23T08:15:41Z</time>
      </trkpt>
      <trkpt lat="43.77022" lon="5.29383">
        <ele>275.4</ele>
        <time>2020-02-23T08:15:45Z</time>
      </trkpt>
      <trkpt lat="43.77038" lon="5.29449">
        <ele>272.2</ele>
        <time>2020-02-23T08:20:00Z</time>
      </trkpt>
      <trkpt lat="43.77038" lon="5.29497">
        <ele>271</ele>
        <time>2020-02-23T08:20:12Z</time>
      </trkpt>
      <trkpt lat="43.77035" lon="5.29529">
        <ele>270.7</ele>
        <time>2020-02-23T08:20:19Z</time>
      </trkpt>
      <trkpt lat="43.77037" lon="5.2955">
        <ele>270.4</ele>
        <time>2020-02-23T08:20:24Z</time>
      </trkpt>
      <trkpt lat="43.77029" lon="5.29564">
        <ele>270.9</ele>
        <time>2020-02-23T08:20:28Z</time>
      </trkpt>
      <trkpt lat="43.77011" lon="5.29574">
        <ele>273.5</ele>
        <time>2020-02-23T08:20:38Z</time>
      </trkpt>
      <trkpt lat="43.77001" lon="5.29594">
        <ele>276.3</ele>
        <time>2020-02-23T08:20:47Z</time>
      </trkpt>
      <trkpt lat="43.76985" lon="5.29651">
        <ele>277</ele>
        <time>2020-02-23T08:21:10Z</time>
      </trkpt>
      <trkpt lat="43.76986" lon="5.29669">
        <ele>275.3</ele>
        <time>2020-02-23T08:21:14Z</time>
      </trkpt>
      <trkpt lat="43.76974" lon="5.29703">
        <ele>274.8</ele>
        <time>2020-02-23T08:21:22Z</time>
      </trkpt>
      <trkpt lat="43.76972" lon="5.29719">
        <ele>272.6</ele>
        <time>2020-02-23T08:21:28Z</time>
      </trkpt>
      <trkpt lat="43.76977" lon="5.29729">
        <ele>268.9</ele>
        <time>2020-02-23T08:21:32Z</time>
      </trkpt>
      <trkpt lat="43.76974" lon="5.29748">
        <ele>266.6</ele>
        <time>2020-02-23T08:21:37Z</time>
      </trkpt>
      <trkpt lat="43.76977" lon="5.29778">
        <ele>265.1</ele>
        <time>2020-02-23T08:21:52Z</time>
      </trkpt>
      <trkpt lat="43.76973" lon="5.298">
        <ele>266</ele>
        <time>2020-02-23T08:22:07Z</time>
      </trkpt>
      <trkpt lat="43.76977" lon="5.29839">
        <ele>260.6</ele>
        <time>2020-02-23T08:22:20Z</time>
      </trkpt>
      <trkpt lat="43.7697" lon="5.29858">
        <ele>260.9</ele>
        <time>2020-02-23T08:22:29Z</time>
      </trkpt>
      <trkpt lat="43.76959" lon="5.29864">
        <ele>261.8</ele>
        <time>2020-02-23T08:22:35Z</time>
      </trkpt>
      <trkpt lat="43.76961" lon="5.29903">
        <ele>254.1</ele>
        <time>2020-02-23T08:22:45Z</time>
      </trkpt>
      <trkpt lat="43.76957" lon="5.29912">
        <ele>253.9</ele>
        <time>2020-02-23T08:22:48Z</time>
      </trkpt>
      <trkpt lat="43.76958" lon="5.29927">
        <ele>252</ele>
        <time>2020-02-23T08:22:52Z</time>
      </trkpt>
      <trkpt lat="43.76954" lon="5.2994">
        <ele>251.6</ele>
        <time>2020-02-23T08:22:55Z</time>
      </trkpt>
      <trkpt lat="43.76945" lon="5.29953">
        <ele>252.1</ele>
        <time>2020-02-23T08:23:00Z</time>
      </trkpt>
      <trkpt lat="43.76911" lon="5.29976">
        <ele>251.2</ele>
        <time>2020-02-23T08:23:15Z</time>
      </trkpt>
      <trkpt lat="43.76872" lon="5.30017">
        <ele>248.7</ele>
        <time>2020-02-23T08:23:32Z</time>
      </trkpt>
      <trkpt lat="43.76862" lon="5.30033">
        <ele>247.5</ele>
        <time>2020-02-23T08:23:37Z</time>
      </trkpt>
      <trkpt lat="43.7685" lon="5.30042">
        <ele>245.7</ele>
        <time>2020-02-23T08:23:41Z</time>
      </trkpt>
      <trkpt lat="43.76827" lon="5.3005">
        <ele>246</ele>
        <time>2020-02-23T08:23:51Z</time>
      </trkpt>
      <trkpt lat="43.76796" lon="5.30071">
        <ele>243.9</ele>
        <time>2020-02-23T08:24:04Z</time>
      </trkpt>
      <trkpt lat="43.76769" lon="5.30081">
        <ele>243.8</ele>
        <time>2020-02-23T08:24:13Z</time>
      </trkpt>
      <trkpt lat="43.76679" lon="5.30165">
        <ele>237.5</ele>
        <time>2020-02-23T08:24:35Z</time>
      </trkpt>
      <trkpt lat="43.76672" lon="5.30181">
        <ele>236.7</ele>
        <time>2020-02-23T08:24:39Z</time>
      </trkpt>
      <trkpt lat="43.76671" lon="5.30198">
        <ele>236</ele>
        <time>2020-02-23T08:24:42Z</time>
      </trkpt>
      <trkpt lat="43.76681" lon="5.30255">
        <ele>227.5</ele>
        <time>2020-02-23T08:24:54Z</time>
      </trkpt>
      <trkpt lat="43.7669" lon="5.30264">
        <ele>226</ele>
        <time>2020-02-23T08:24:58Z</time>
      </trkpt>
      <trkpt lat="43.76701" lon="5.30299">
        <ele>222.6</ele>
        <time>2020-02-23T08:25:04Z</time>
      </trkpt>
      <trkpt lat="43.76708" lon="5.3031">
        <ele>222.5</ele>
        <time>2020-02-23T08:25:06Z</time>
      </trkpt>
      <trkpt lat="43.76719" lon="5.30314">
        <ele>223.1</ele>
        <time>2020-02-23T08:25:10Z</time>
      </trkpt>
      <trkpt lat="43.76738" lon="5.30308">
        <ele>223.6</ele>
        <time>2020-02-23T08:25:17Z</time>
      </trkpt>
      <trkpt lat="43.76803" lon="5.30267">
        <ele>226.9</ele>
        <time>2020-02-23T08:25:39Z</time>
      </trkpt>
      <trkpt lat="43.76814" lon="5.30273">
        <ele>227.3</ele>
        <time>2020-02-23T08:25:43Z</time>
      </trkpt>
      <trkpt lat="43.76947" lon="5.30416">
        <ele>229.2</ele>
        <time>2020-02-23T08:26:28Z</time>
      </trkpt>
      <trkpt lat="43.76958" lon="5.30414">
        <ele>230</ele>
        <time>2020-02-23T08:26:32Z</time>
      </trkpt>
      <trkpt lat="43.76985" lon="5.30389">
        <ele>231</ele>
        <time>2020-02-23T08:26:42Z</time>
      </trkpt>
      <trkpt lat="43.77003" lon="5.30387">
        <ele>232.5</ele>
        <time>2020-02-23T08:26:50Z</time>
      </trkpt>
      <trkpt lat="43.7703" lon="5.30357">
        <ele>235.4</ele>
        <time>2020-02-23T08:27:05Z</time>
      </trkpt>
      <trkpt lat="43.77137" lon="5.30152">
        <ele>243.2</ele>
        <time>2020-02-23T08:28:09Z</time>
      </trkpt>
      <trkpt lat="43.77166" lon="5.30117">
        <ele>245.9</ele>
        <time>2020-02-23T08:28:27Z</time>
      </trkpt>
      <trkpt lat="43.77207" lon="5.30087">
        <ele>246.8</ele>
        <time>2020-02-23T08:28:44Z</time>
      </trkpt>
      <trkpt lat="43.77216" lon="5.30073">
        <ele>247.7</ele>
        <time>2020-02-23T08:28:49Z</time>
      </trkpt>
      <trkpt lat="43.77245" lon="5.30056">
        <ele>248.3</ele>
        <time>2020-02-23T08:29:01Z</time>
      </trkpt>
      <trkpt lat="43.77293" lon="5.3">
        <ele>252.4</ele>
        <time>2020-02-23T08:29:22Z</time>
      </trkpt>
      <trkpt lat="43.7731" lon="5.29991">
        <ele>252.7</ele>
        <time>2020-02-23T08:29:28Z</time>
      </trkpt>
      <trkpt lat="43.77325" lon="5.29991">
        <ele>254.9</ele>
        <time>2020-02-23T08:29:33Z</time>
      </trkpt>
      <trkpt lat="43.77391" lon="5.30039">
        <ele>256.9</ele>
        <time>2020-02-23T08:29:58Z</time>
      </trkpt>
      <trkpt lat="43.77403" lon="5.30058">
        <ele>259.8</ele>
        <time>2020-02-23T08:30:04Z</time>
      </trkpt>
      <trkpt lat="43.77435" lon="5.30137">
        <ele>261.6</ele>
        <time>2020-02-23T08:30:26Z</time>
      </trkpt>
      <trkpt lat="43.77479" lon="5.3023">
        <ele>264.7</ele>
        <time>2020-02-23T08:30:53Z</time>
      </trkpt>
      <trkpt lat="43.77479" lon="5.30254">
        <ele>265.2</ele>
        <time>2020-02-23T08:30:59Z</time>
      </trkpt>
      <trkpt lat="43.77466" lon="5.30307">
        <ele>265.1</ele>
        <time>2020-02-23T08:31:13Z</time>
      </trkpt>
      <trkpt lat="43.77468" lon="5.30342">
        <ele>265.5</ele>
        <time>2020-02-23T08:31:22Z</time>
      </trkpt>
      <trkpt lat="43.77478" lon="5.30381">
        <ele>266.6</ele>
        <time>2020-02-23T08:31:33Z</time>
      </trkpt>
      <trkpt lat="43.77516" lon="5.30436">
        <ele>270.1</ele>
        <time>2020-02-23T08:31:53Z</time>
      </trkpt>
      <trkpt lat="43.77546" lon="5.30491">
        <ele>271.1</ele>
        <time>2020-02-23T08:32:10Z</time>
      </trkpt>
      <trkpt lat="43.7757" lon="5.30522">
        <ele>272.6</ele>
        <time>2020-02-23T08:32:21Z</time>
      </trkpt>
      <trkpt lat="43.77601" lon="5.30546">
        <ele>274.2</ele>
        <time>2020-02-23T08:32:33Z</time>
      </trkpt>
      <trkpt lat="43.77634" lon="5.30583">
        <ele>275.6</ele>
        <time>2020-02-23T08:32:49Z</time>
      </trkpt>
      <trkpt lat="43.77674" lon="5.30605">
        <ele>279.9</ele>
        <time>2020-02-23T08:33:06Z</time>
      </trkpt>
      <trkpt lat="43.77786" lon="5.30616">
        <ele>284.8</ele>
        <time>2020-02-23T08:33:47Z</time>
      </trkpt>
      <trkpt lat="43.77829" lon="5.30637">
        <ele>286</ele>
        <time>2020-02-23T08:34:03Z</time>
      </trkpt>
      <trkpt lat="43.77867" lon="5.30606">
        <ele>284.2</ele>
        <time>2020-02-23T08:34:13Z</time>
      </trkpt>
      <trkpt lat="43.77891" lon="5.30592">
        <ele>285.2</ele>
        <time>2020-02-23T08:34:19Z</time>
      </trkpt>
      <trkpt lat="43.77918" lon="5.30587">
        <ele>288</ele>
        <time>2020-02-23T08:34:28Z</time>
      </trkpt>
      <trkpt lat="43.7796" lon="5.30627">
        <ele>289.6</ele>
        <time>2020-02-23T08:34:42Z</time>
      </trkpt>
      <trkpt lat="43.78031" lon="5.30677">
        <ele>291.8</ele>
        <time>2020-02-23T08:35:08Z</time>
      </trkpt>
      <trkpt lat="43.78092" lon="5.30692">
        <ele>296.8</ele>
        <time>2020-02-23T08:35:30Z</time>
      </trkpt>
      <trkpt lat="43.78121" lon="5.30719">
        <ele>297.5</ele>
        <time>2020-02-23T08:35:43Z</time>
      </trkpt>
      <trkpt lat="43.78153" lon="5.30734">
        <ele>301.6</ele>
        <time>2020-02-23T08:35:55Z</time>
      </trkpt>
      <trkpt lat="43.78237" lon="5.30789">
        <ele>305.4</ele>
        <time>2020-02-23T08:36:28Z</time>
      </trkpt>
      <trkpt lat="43.78255" lon="5.30786">
        <ele>306.3</ele>
        <time>2020-02-23T08:36:35Z</time>
      </trkpt>
      <trkpt lat="43.78275" lon="5.30772">
        <ele>306.2</ele>
        <time>2020-02-23T08:36:43Z</time>
      </trkpt>
      <trkpt lat="43.78303" lon="5.30721">
        <ele>309.1</ele>
        <time>2020-02-23T08:37:00Z</time>
      </trkpt>
      <trkpt lat="43.78339" lon="5.30675">
        <ele>313.9</ele>
        <time>2020-02-23T08:37:18Z</time>
      </trkpt>
      <trkpt lat="43.78412" lon="5.30623">
        <ele>319.1</ele>
        <time>2020-02-23T08:37:50Z</time>
      </trkpt>
      <trkpt lat="43.78454" lon="5.30559">
        <ele>323.5</ele>
        <time>2020-02-23T08:38:15Z</time>
      </trkpt>
      <trkpt lat="43.78473" lon="5.30548">
        <ele>324.9</ele>
        <time>2020-02-23T08:38:24Z</time>
      </trkpt>
      <trkpt lat="43.78516" lon="5.30509">
        <ele>328.2</ele>
        <time>2020-02-23T08:38:46Z</time>
      </trkpt>
      <trkpt lat="43.78547" lon="5.30449">
        <ele>331.6</ele>
        <time>2020-02-23T08:39:06Z</time>
      </trkpt>
      <trkpt lat="43.7856" lon="5.3044">
        <ele>331.5</ele>
        <time>2020-02-23T08:39:11Z</time>
      </trkpt>
      <trkpt lat="43.78595" lon="5.30435">
        <ele>335.3</ele>
        <time>2020-02-23T08:39:24Z</time>
      </trkpt>
      <trkpt lat="43.78636" lon="5.30451">
        <ele>336.1</ele>
        <time>2020-02-23T08:39:39Z</time>
      </trkpt>
      <trkpt lat="43.78651" lon="5.30449">
        <ele>337</ele>
        <time>2020-02-23T08:39:45Z</time>
      </trkpt>
      <trkpt lat="43.78665" lon="5.3044">
        <ele>337.7</ele>
        <time>2020-02-23T08:39:52Z</time>
      </trkpt>
      <trkpt lat="43.78689" lon="5.30393">
        <ele>343.9</ele>
        <time>2020-02-23T08:40:14Z</time>
      </trkpt>
      <trkpt lat="43.78687" lon="5.30348">
        <ele>345.3</ele>
        <time>2020-02-23T08:40:26Z</time>
      </trkpt>
      <trkpt lat="43.78668" lon="5.30295">
        <ele>344</ele>
        <time>2020-02-23T08:40:39Z</time>
      </trkpt>
      <trkpt lat="43.7867" lon="5.30269">
        <ele>346.7</ele>
        <time>2020-02-23T08:40:46Z</time>
      </trkpt>
      <trkpt lat="43.78721" lon="5.30213">
        <ele>348</ele>
        <time>2020-02-23T08:41:08Z</time>
      </trkpt>
      <trkpt lat="43.78765" lon="5.30125">
        <ele>353.6</ele>
        <time>2020-02-23T08:41:35Z</time>
      </trkpt>
      <trkpt lat="43.78779" lon="5.30112">
        <ele>351.1</ele>
        <time>2020-02-23T08:41:41Z</time>
      </trkpt>
      <trkpt lat="43.7881" lon="5.30096">
        <ele>354.8</ele>
        <time>2020-02-23T08:41:54Z</time>
      </trkpt>
      <trkpt lat="43.78831" lon="5.30095">
        <ele>355.5</ele>
        <time>2020-02-23T08:42:02Z</time>
      </trkpt>
      <trkpt lat="43.78862" lon="5.30082">
        <ele>357.5</ele>
        <time>2020-02-23T08:42:16Z</time>
      </trkpt>
      <trkpt lat="43.78896" lon="5.3005">
        <ele>359.4</ele>
        <time>2020-02-23T08:42:32Z</time>
      </trkpt>
      <trkpt lat="43.78908" lon="5.30046">
        <ele>361</ele>
        <time>2020-02-23T08:42:38Z</time>
      </trkpt>
      <trkpt lat="43.78919" lon="5.30049">
        <ele>361.6</ele>
        <time>2020-02-23T08:42:43Z</time>
      </trkpt>
      <trkpt lat="43.78951" lon="5.30077">
        <ele>364.5</ele>
        <time>2020-02-23T08:42:58Z</time>
      </trkpt>
      <trkpt lat="43.78984" lon="5.30092">
        <ele>367.5</ele>
        <time>2020-02-23T08:43:14Z</time>
      </trkpt>
      <trkpt lat="43.79" lon="5.30093">
        <ele>369.9</ele>
        <time>2020-02-23T08:43:21Z</time>
      </trkpt>
      <trkpt lat="43.79051" lon="5.30111">
        <ele>366.3</ele>
        <time>2020-02-23T08:43:37Z</time>
      </trkpt>
      <trkpt lat="43.79074" lon="5.30105">
        <ele>368.3</ele>
        <time>2020-02-23T08:43:42Z</time>
      </trkpt>
      <trkpt lat="43.79118" lon="5.30116">
        <ele>370.3</ele>
        <time>2020-02-23T08:43:55Z</time>
      </trkpt>
      <trkpt lat="43.79141" lon="5.30111">
        <ele>370</ele>
        <time>2020-02-23T08:44:04Z</time>
      </trkpt>
      <trkpt lat="43.7916" lon="5.30116">
        <ele>371.1</ele>
        <time>2020-02-23T08:44:10Z</time>
      </trkpt>
      <trkpt lat="43.79179" lon="5.30114">
        <ele>371.9</ele>
        <time>2020-02-23T08:44:15Z</time>
      </trkpt>
      <trkpt lat="43.79194" lon="5.30118">
        <ele>374.1</ele>
        <time>2020-02-23T08:44:21Z</time>
      </trkpt>
      <trkpt lat="43.79249" lon="5.30155">
        <ele>377.6</ele>
        <time>2020-02-23T08:44:43Z</time>
      </trkpt>
      <trkpt lat="43.7928" lon="5.3016">
        <ele>378.6</ele>
        <time>2020-02-23T08:44:56Z</time>
      </trkpt>
      <trkpt lat="43.79294" lon="5.30148">
        <ele>381.3</ele>
        <time>2020-02-23T08:45:05Z</time>
      </trkpt>
      <trkpt lat="43.79313" lon="5.30155">
        <ele>382.5</ele>
        <time>2020-02-23T08:45:18Z</time>
      </trkpt>
      <trkpt lat="43.79341" lon="5.30119">
        <ele>392.8</ele>
        <time>2020-02-23T08:45:45Z</time>
      </trkpt>
      <trkpt lat="43.7938" lon="5.30096">
        <ele>402.8</ele>
        <time>2020-02-23T08:46:22Z</time>
      </trkpt>
      <trkpt lat="43.7939" lon="5.30095">
        <ele>404.3</ele>
        <time>2020-02-23T08:46:33Z</time>
      </trkpt>
      <trkpt lat="43.79398" lon="5.301">
        <ele>403.3</ele>
        <time>2020-02-23T08:46:39Z</time>
      </trkpt>
      <trkpt lat="43.7941" lon="5.30095">
        <ele>406.7</ele>
        <time>2020-02-23T08:46:47Z</time>
      </trkpt>
      <trkpt lat="43.79433" lon="5.30094">
        <ele>411.6</ele>
        <time>2020-02-23T08:47:09Z</time>
      </trkpt>
      <trkpt lat="43.79436" lon="5.30086">
        <ele>412</ele>
        <time>2020-02-23T08:47:16Z</time>
      </trkpt>
      <trkpt lat="43.79428" lon="5.3007">
        <ele>417.8</ele>
        <time>2020-02-23T08:47:28Z</time>
      </trkpt>
      <trkpt lat="43.79407" lon="5.30056">
        <ele>420.5</ele>
        <time>2020-02-23T08:47:57Z</time>
      </trkpt>
      <trkpt lat="43.79397" lon="5.30057">
        <ele>419.9</ele>
        <time>2020-02-23T08:48:09Z</time>
      </trkpt>
      <trkpt lat="43.79375" lon="5.30038">
        <ele>429.8</ele>
        <time>2020-02-23T08:48:28Z</time>
      </trkpt>
      <trkpt lat="43.79354" lon="5.3004">
        <ele>431.8</ele>
        <time>2020-02-23T08:48:45Z</time>
      </trkpt>
      <trkpt lat="43.79355" lon="5.30034">
        <ele>433.9</ele>
        <time>2020-02-23T08:48:48Z</time>
      </trkpt>
      <trkpt lat="43.79373" lon="5.30023">
        <ele>438.3</ele>
        <time>2020-02-23T08:49:02Z</time>
      </trkpt>
      <trkpt lat="43.79419" lon="5.30021">
        <ele>438.5</ele>
        <time>2020-02-23T08:49:30Z</time>
      </trkpt>
      <trkpt lat="43.79434" lon="5.30028">
        <ele>439.1</ele>
        <time>2020-02-23T08:49:37Z</time>
      </trkpt>
      <trkpt lat="43.7946" lon="5.30067">
        <ele>435.7</ele>
        <time>2020-02-23T08:49:58Z</time>
      </trkpt>
      <trkpt lat="43.79471" lon="5.3007">
        <ele>440.9</ele>
        <time>2020-02-23T08:50:02Z</time>
      </trkpt>
      <trkpt lat="43.79492" lon="5.30045">
        <ele>442.6</ele>
        <time>2020-02-23T08:50:08Z</time>
      </trkpt>
      <trkpt lat="43.79516" lon="5.30037">
        <ele>441</ele>
        <time>2020-02-23T08:50:14Z</time>
      </trkpt>
      <trkpt lat="43.79524" lon="5.30041">
        <ele>440.9</ele>
        <time>2020-02-23T08:50:18Z</time>
      </trkpt>
      <trkpt lat="43.79538" lon="5.30087">
        <ele>447.6</ele>
        <time>2020-02-23T08:50:36Z</time>
      </trkpt>
      <trkpt lat="43.79546" lon="5.30097">
        <ele>448.4</ele>
        <time>2020-02-23T08:50:41Z</time>
      </trkpt>
      <trkpt lat="43.7957" lon="5.30096">
        <ele>448.5</ele>
        <time>2020-02-23T08:50:54Z</time>
      </trkpt>
      <trkpt lat="43.79589" lon="5.30069">
        <ele>454.8</ele>
        <time>2020-02-23T08:51:08Z</time>
      </trkpt>
      <trkpt lat="43.79628" lon="5.30041">
        <ele>461.5</ele>
        <time>2020-02-23T08:51:37Z</time>
      </trkpt>
      <trkpt lat="43.7966" lon="5.30035">
        <ele>465.5</ele>
        <time>2020-02-23T08:52:00Z</time>
      </trkpt>
      <trkpt lat="43.79675" lon="5.30052">
        <ele>465.4</ele>
        <time>2020-02-23T08:52:12Z</time>
      </trkpt>
      <trkpt lat="43.79686" lon="5.30099">
        <ele>467.4</ele>
        <time>2020-02-23T08:52:29Z</time>
      </trkpt>
      <trkpt lat="43.79695" lon="5.3011">
        <ele>464.2</ele>
        <time>2020-02-23T08:52:35Z</time>
      </trkpt>
      <trkpt lat="43.79745" lon="5.30118">
        <ele>472.7</ele>
        <time>2020-02-23T08:53:03Z</time>
      </trkpt>
      <trkpt lat="43.79786" lon="5.30131">
        <ele>475.4</ele>
        <time>2020-02-23T08:53:26Z</time>
      </trkpt>
      <trkpt lat="43.79807" lon="5.30131">
        <ele>476.8</ele>
        <time>2020-02-23T08:53:36Z</time>
      </trkpt>
      <trkpt lat="43.79853" lon="5.30104">
        <ele>480.5</ele>
        <time>2020-02-23T08:54:02Z</time>
      </trkpt>
      <trkpt lat="43.7987" lon="5.30079">
        <ele>484.4</ele>
        <time>2020-02-23T08:54:14Z</time>
      </trkpt>
      <trkpt lat="43.79884" lon="5.30028">
        <ele>485.7</ele>
        <time>2020-02-23T08:54:34Z</time>
      </trkpt>
      <trkpt lat="43.7993" lon="5.29984">
        <ele>491.8</ele>
        <time>2020-02-23T08:55:02Z</time>
      </trkpt>
      <trkpt lat="43.7996" lon="5.29973">
        <ele>491.7</ele>
        <time>2020-02-23T08:55:17Z</time>
      </trkpt>
      <trkpt lat="43.79983" lon="5.29975">
        <ele>494.8</ele>
        <time>2020-02-23T08:55:30Z</time>
      </trkpt>
      <trkpt lat="43.8" lon="5.29983">
        <ele>498</ele>
        <time>2020-02-23T08:55:40Z</time>
      </trkpt>
      <trkpt lat="43.80032" lon="5.30021">
        <ele>502.2</ele>
        <time>2020-02-23T08:56:04Z</time>
      </trkpt>
      <trkpt lat="43.80048" lon="5.30027">
        <ele>504.8</ele>
        <time>2020-02-23T08:56:14Z</time>
      </trkpt>
      <trkpt lat="43.80106" lon="5.30023">
        <ele>514.3</ele>
        <time>2020-02-23T08:56:49Z</time>
      </trkpt>
      <trkpt lat="43.80188" lon="5.30048">
        <ele>520.3</ele>
        <time>2020-02-23T08:57:32Z</time>
      </trkpt>
      <trkpt lat="43.80207" lon="5.30062">
        <ele>523</ele>
        <time>2020-02-23T08:57:42Z</time>
      </trkpt>
      <trkpt lat="43.80233" lon="5.30092">
        <ele>525.9</ele>
        <time>2020-02-23T08:57:59Z</time>
      </trkpt>
      <trkpt lat="43.80246" lon="5.30099">
        <ele>527.8</ele>
        <time>2020-02-23T08:58:06Z</time>
      </trkpt>
      <trkpt lat="43.80262" lon="5.30096">
        <ele>528.5</ele>
        <time>2020-02-23T08:58:15Z</time>
      </trkpt>
      <trkpt lat="43.80265" lon="5.30104">
        <ele>528.5</ele>
        <time>2020-02-23T08:58:19Z</time>
      </trkpt>
      <trkpt lat="43.80254" lon="5.30119">
        <ele>529.5</ele>
        <time>2020-02-23T08:58:28Z</time>
      </trkpt>
      <trkpt lat="43.80225" lon="5.30127">
        <ele>533.3</ele>
        <time>2020-02-23T08:58:47Z</time>
      </trkpt>
      <trkpt lat="43.80193" lon="5.30109">
        <ele>536.4</ele>
        <time>2020-02-23T08:59:11Z</time>
      </trkpt>
      <trkpt lat="43.80139" lon="5.30113">
        <ele>542.7</ele>
        <time>2020-02-23T08:59:48Z</time>
      </trkpt>
      <trkpt lat="43.80076" lon="5.30155">
        <ele>555.7</ele>
        <time>2020-02-23T09:00:46Z</time>
      </trkpt>
      <trkpt lat="43.80016" lon="5.30176">
        <ele>562.5</ele>
        <time>2020-02-23T09:01:29Z</time>
      </trkpt>
      <trkpt lat="43.80011" lon="5.30181">
        <ele>562.9</ele>
        <time>2020-02-23T09:01:33Z</time>
      </trkpt>
      <trkpt lat="43.79998" lon="5.3023">
        <ele>567.3</ele>
        <time>2020-02-23T09:01:53Z</time>
      </trkpt>
      <trkpt lat="43.79998" lon="5.30258">
        <ele>569.5</ele>
        <time>2020-02-23T09:02:06Z</time>
      </trkpt>
      <trkpt lat="43.79994" lon="5.30265">
        <ele>569.9</ele>
        <time>2020-02-23T09:05:02Z</time>
      </trkpt>
      <trkpt lat="43.79979" lon="5.30271">
        <ele>570.2</ele>
        <time>2020-02-23T09:05:48Z</time>
      </trkpt>
      <trkpt lat="43.79964" lon="5.30289">
        <ele>571.2</ele>
        <time>2020-02-23T09:05:58Z</time>
      </trkpt>
      <trkpt lat="43.79964" lon="5.30295">
        <ele>571.6</ele>
        <time>2020-02-23T09:06:02Z</time>
      </trkpt>
      <trkpt lat="43.79946" lon="5.30301">
        <ele>572.3</ele>
        <time>2020-02-23T09:06:13Z</time>
      </trkpt>
      <trkpt lat="43.79926" lon="5.30332">
        <ele>574.5</ele>
        <time>2020-02-23T09:06:27Z</time>
      </trkpt>
      <trkpt lat="43.79906" lon="5.30344">
        <ele>574.4</ele>
        <time>2020-02-23T09:06:36Z</time>
      </trkpt>
      <trkpt lat="43.79882" lon="5.30368">
        <ele>574</ele>
        <time>2020-02-23T09:06:47Z</time>
      </trkpt>
      <trkpt lat="43.7984" lon="5.30431">
        <ele>573.1</ele>
        <time>2020-02-23T09:07:05Z</time>
      </trkpt>
      <trkpt lat="43.79828" lon="5.30465">
        <ele>571.5</ele>
        <time>2020-02-23T09:07:11Z</time>
      </trkpt>
      <trkpt lat="43.79822" lon="5.30508">
        <ele>567.5</ele>
        <time>2020-02-23T09:07:18Z</time>
      </trkpt>
      <trkpt lat="43.79825" lon="5.30519">
        <ele>566.3</ele>
        <time>2020-02-23T09:07:20Z</time>
      </trkpt>
      <trkpt lat="43.79837" lon="5.30534">
        <ele>564.3</ele>
        <time>2020-02-23T09:07:24Z</time>
      </trkpt>
      <trkpt lat="43.79834" lon="5.30542">
        <ele>563.5</ele>
        <time>2020-02-23T09:07:27Z</time>
      </trkpt>
      <trkpt lat="43.79823" lon="5.30544">
        <ele>563.8</ele>
        <time>2020-02-23T09:07:31Z</time>
      </trkpt>
      <trkpt lat="43.79813" lon="5.30554">
        <ele>563.6</ele>
        <time>2020-02-23T09:07:34Z</time>
      </trkpt>
      <trkpt lat="43.79791" lon="5.3055">
        <ele>564.5</ele>
        <time>2020-02-23T09:07:40Z</time>
      </trkpt>
      <trkpt lat="43.79749" lon="5.30571">
        <ele>563.8</ele>
        <time>2020-02-23T09:07:52Z</time>
      </trkpt>
      <trkpt lat="43.7969" lon="5.30618">
        <ele>563.5</ele>
        <time>2020-02-23T09:08:06Z</time>
      </trkpt>
      <trkpt lat="43.79683" lon="5.30635">
        <ele>562.6</ele>
        <time>2020-02-23T09:08:09Z</time>
      </trkpt>
      <trkpt lat="43.7968" lon="5.30683">
        <ele>561</ele>
        <time>2020-02-23T09:08:16Z</time>
      </trkpt>
      <trkpt lat="43.79681" lon="5.30756">
        <ele>560.2</ele>
        <time>2020-02-23T09:08:27Z</time>
      </trkpt>
      <trkpt lat="43.79694" lon="5.30804">
        <ele>557.1</ele>
        <time>2020-02-23T09:08:34Z</time>
      </trkpt>
      <trkpt lat="43.7969" lon="5.30853">
        <ele>555.3</ele>
        <time>2020-02-23T09:08:41Z</time>
      </trkpt>
      <trkpt lat="43.79675" lon="5.30875">
        <ele>555.4</ele>
        <time>2020-02-23T09:08:45Z</time>
      </trkpt>
      <trkpt lat="43.79657" lon="5.30894">
        <ele>555.6</ele>
        <time>2020-02-23T09:08:51Z</time>
      </trkpt>
      <trkpt lat="43.79645" lon="5.30916">
        <ele>554.6</ele>
        <time>2020-02-23T09:08:55Z</time>
      </trkpt>
      <trkpt lat="43.79633" lon="5.30966">
        <ele>550.1</ele>
        <time>2020-02-23T09:09:02Z</time>
      </trkpt>
      <trkpt lat="43.79631" lon="5.30991">
        <ele>547.5</ele>
        <time>2020-02-23T09:09:06Z</time>
      </trkpt>
      <trkpt lat="43.79617" lon="5.31021">
        <ele>545.3</ele>
        <time>2020-02-23T09:09:11Z</time>
      </trkpt>
      <trkpt lat="43.7959" lon="5.31057">
        <ele>542.6</ele>
        <time>2020-02-23T09:09:17Z</time>
      </trkpt>
      <trkpt lat="43.79586" lon="5.31087">
        <ele>539.5</ele>
        <time>2020-02-23T09:09:22Z</time>
      </trkpt>
      <trkpt lat="43.79579" lon="5.31096">
        <ele>538.9</ele>
        <time>2020-02-23T09:09:24Z</time>
      </trkpt>
      <trkpt lat="43.79552" lon="5.31113">
        <ele>539.2</ele>
        <time>2020-02-23T09:09:31Z</time>
      </trkpt>
      <trkpt lat="43.79527" lon="5.31138">
        <ele>539.2</ele>
        <time>2020-02-23T09:09:40Z</time>
      </trkpt>
      <trkpt lat="43.7952" lon="5.31169">
        <ele>536.7</ele>
        <time>2020-02-23T09:09:45Z</time>
      </trkpt>
      <trkpt lat="43.79525" lon="5.31182">
        <ele>535.8</ele>
        <time>2020-02-23T09:09:48Z</time>
      </trkpt>
      <trkpt lat="43.79473" lon="5.31209">
        <ele>539</ele>
        <time>2020-02-23T09:10:10Z</time>
      </trkpt>
      <trkpt lat="43.79458" lon="5.31211">
        <ele>539.8</ele>
        <time>2020-02-23T09:10:16Z</time>
      </trkpt>
      <trkpt lat="43.79448" lon="5.31208">
        <ele>540.8</ele>
        <time>2020-02-23T09:10:20Z</time>
      </trkpt>
      <trkpt lat="43.79439" lon="5.31153">
        <ele>546.7</ele>
        <time>2020-02-23T09:10:46Z</time>
      </trkpt>
      <trkpt lat="43.79441" lon="5.31095">
        <ele>552</ele>
        <time>2020-02-23T09:11:13Z</time>
      </trkpt>
      <trkpt lat="43.79436" lon="5.31072">
        <ele>554.9</ele>
        <time>2020-02-23T09:11:25Z</time>
      </trkpt>
      <trkpt lat="43.79415" lon="5.31019">
        <ele>561.7</ele>
        <time>2020-02-23T09:11:55Z</time>
      </trkpt>
      <trkpt lat="43.79421" lon="5.30989">
        <ele>563.3</ele>
        <time>2020-02-23T09:12:09Z</time>
      </trkpt>
      <trkpt lat="43.79412" lon="5.30974">
        <ele>565.2</ele>
        <time>2020-02-23T09:12:18Z</time>
      </trkpt>
      <trkpt lat="43.79374" lon="5.30949">
        <ele>568.5</ele>
        <time>2020-02-23T09:12:38Z</time>
      </trkpt>
      <trkpt lat="43.79343" lon="5.30942">
        <ele>570.5</ele>
        <time>2020-02-23T09:12:52Z</time>
      </trkpt>
      <trkpt lat="43.79299" lon="5.30946">
        <ele>572.7</ele>
        <time>2020-02-23T09:13:10Z</time>
      </trkpt>
      <trkpt lat="43.79287" lon="5.30935">
        <ele>574.4</ele>
        <time>2020-02-23T09:13:17Z</time>
      </trkpt>
      <trkpt lat="43.79278" lon="5.30918">
        <ele>576</ele>
        <time>2020-02-23T09:13:26Z</time>
      </trkpt>
      <trkpt lat="43.79243" lon="5.30944">
        <ele>578</ele>
        <time>2020-02-23T09:13:51Z</time>
      </trkpt>
      <trkpt lat="43.79192" lon="5.31052">
        <ele>565.1</ele>
        <time>2020-02-23T09:14:22Z</time>
      </trkpt>
      <trkpt lat="43.79187" lon="5.31071">
        <ele>561.6</ele>
        <time>2020-02-23T09:14:27Z</time>
      </trkpt>
      <trkpt lat="43.79171" lon="5.31106">
        <ele>555.8</ele>
        <time>2020-02-23T09:14:38Z</time>
      </trkpt>
      <trkpt lat="43.79134" lon="5.31213">
        <ele>538.8</ele>
        <time>2020-02-23T09:15:01Z</time>
      </trkpt>
      <trkpt lat="43.79101" lon="5.31285">
        <ele>542</ele>
        <time>2020-02-23T09:15:19Z</time>
      </trkpt>
      <trkpt lat="43.79083" lon="5.31338">
        <ele>549.3</ele>
        <time>2020-02-23T09:15:43Z</time>
      </trkpt>
      <trkpt lat="43.79062" lon="5.31382">
        <ele>549.3</ele>
        <time>2020-02-23T09:16:01Z</time>
      </trkpt>
      <trkpt lat="43.7906" lon="5.31426">
        <ele>552.4</ele>
        <time>2020-02-23T09:16:11Z</time>
      </trkpt>
      <trkpt lat="43.79062" lon="5.31459">
        <ele>552.6</ele>
        <time>2020-02-23T09:16:17Z</time>
      </trkpt>
      <trkpt lat="43.79075" lon="5.31484">
        <ele>551.1</ele>
        <time>2020-02-23T09:16:22Z</time>
      </trkpt>
      <trkpt lat="43.79104" lon="5.31513">
        <ele>547.7</ele>
        <time>2020-02-23T09:16:29Z</time>
      </trkpt>
      <trkpt lat="43.79109" lon="5.31524">
        <ele>547.4</ele>
        <time>2020-02-23T09:16:31Z</time>
      </trkpt>
      <trkpt lat="43.79112" lon="5.3155">
        <ele>545.9</ele>
        <time>2020-02-23T09:16:35Z</time>
      </trkpt>
      <trkpt lat="43.79093" lon="5.31709">
        <ele>540.6</ele>
        <time>2020-02-23T09:16:55Z</time>
      </trkpt>
      <trkpt lat="43.79057" lon="5.31796">
        <ele>540.1</ele>
        <time>2020-02-23T09:17:10Z</time>
      </trkpt>
      <trkpt lat="43.79057" lon="5.31825">
        <ele>540.4</ele>
        <time>2020-02-23T09:17:14Z</time>
      </trkpt>
      <trkpt lat="43.79061" lon="5.31837">
        <ele>540.2</ele>
        <time>2020-02-23T09:17:16Z</time>
      </trkpt>
      <trkpt lat="43.79087" lon="5.31868">
        <ele>539.1</ele>
        <time>2020-02-23T09:17:23Z</time>
      </trkpt>
      <trkpt lat="43.79142" lon="5.31915">
        <ele>533.4</ele>
        <time>2020-02-23T09:17:35Z</time>
      </trkpt>
      <trkpt lat="43.79147" lon="5.31924">
        <ele>532.4</ele>
        <time>2020-02-23T09:17:37Z</time>
      </trkpt>
      <trkpt lat="43.79171" lon="5.32067">
        <ele>525.7</ele>
        <time>2020-02-23T09:17:55Z</time>
      </trkpt>
      <trkpt lat="43.7917" lon="5.3208">
        <ele>525.6</ele>
        <time>2020-02-23T09:17:57Z</time>
      </trkpt>
      <trkpt lat="43.79137" lon="5.3209">
        <ele>523.1</ele>
        <time>2020-02-23T09:18:05Z</time>
      </trkpt>
      <trkpt lat="43.79041" lon="5.32086">
        <ele>515.9</ele>
        <time>2020-02-23T09:18:20Z</time>
      </trkpt>
      <trkpt lat="43.78998" lon="5.32074">
        <ele>514.3</ele>
        <time>2020-02-23T09:18:26Z</time>
      </trkpt>
      <trkpt lat="43.78972" lon="5.32076">
        <ele>513.5</ele>
        <time>2020-02-23T09:18:31Z</time>
      </trkpt>
      <trkpt lat="43.78965" lon="5.3208">
        <ele>512.6</ele>
        <time>2020-02-23T09:18:35Z</time>
      </trkpt>
      <trkpt lat="43.78991" lon="5.32145">
        <ele>518.3</ele>
        <time>2020-02-23T09:18:57Z</time>
      </trkpt>
      <trkpt lat="43.79012" lon="5.32238">
        <ele>525.2</ele>
        <time>2020-02-23T09:19:33Z</time>
      </trkpt>
      <trkpt lat="43.79011" lon="5.32259">
        <ele>525.2</ele>
        <time>2020-02-23T09:19:39Z</time>
      </trkpt>
      <trkpt lat="43.78998" lon="5.32271">
        <ele>525.1</ele>
        <time>2020-02-23T09:19:44Z</time>
      </trkpt>
      <trkpt lat="43.7894" lon="5.32301">
        <ele>524.4</ele>
        <time>2020-02-23T09:19:58Z</time>
      </trkpt>
      <trkpt lat="43.78918" lon="5.32322">
        <ele>523.4</ele>
        <time>2020-02-23T09:20:03Z</time>
      </trkpt>
      <trkpt lat="43.78895" lon="5.32362">
        <ele>520.1</ele>
        <time>2020-02-23T09:20:10Z</time>
      </trkpt>
      <trkpt lat="43.78863" lon="5.32458">
        <ele>518.3</ele>
        <time>2020-02-23T09:20:25Z</time>
      </trkpt>
      <trkpt lat="43.78836" lon="5.32483">
        <ele>518.1</ele>
        <time>2020-02-23T09:20:31Z</time>
      </trkpt>
      <trkpt lat="43.78815" lon="5.32492">
        <ele>518.5</ele>
        <time>2020-02-23T09:20:35Z</time>
      </trkpt>
      <trkpt lat="43.78794" lon="5.32491">
        <ele>519.2</ele>
        <time>2020-02-23T09:20:39Z</time>
      </trkpt>
      <trkpt lat="43.7874" lon="5.32467">
        <ele>514.3</ele>
        <time>2020-02-23T09:20:50Z</time>
      </trkpt>
      <trkpt lat="43.78703" lon="5.3248">
        <ele>510.7</ele>
        <time>2020-02-23T09:20:58Z</time>
      </trkpt>
      <trkpt lat="43.78676" lon="5.325">
        <ele>510</ele>
        <time>2020-02-23T09:21:04Z</time>
      </trkpt>
      <trkpt lat="43.78645" lon="5.32529">
        <ele>511.5</ele>
        <time>2020-02-23T09:21:12Z</time>
      </trkpt>
      <trkpt lat="43.78633" lon="5.32561">
        <ele>517</ele>
        <time>2020-02-23T09:21:29Z</time>
      </trkpt>
      <trkpt lat="43.78617" lon="5.32585">
        <ele>521.4</ele>
        <time>2020-02-23T09:21:50Z</time>
      </trkpt>
      <trkpt lat="43.78577" lon="5.3261">
        <ele>530.4</ele>
        <time>2020-02-23T09:22:34Z</time>
      </trkpt>
      <trkpt lat="43.78565" lon="5.32612">
        <ele>533.2</ele>
        <time>2020-02-23T09:22:47Z</time>
      </trkpt>
      <trkpt lat="43.78565" lon="5.32625">
        <ele>536.2</ele>
        <time>2020-02-23T09:22:55Z</time>
      </trkpt>
      <trkpt lat="43.78585" lon="5.3263">
        <ele>535.3</ele>
        <time>2020-02-23T09:23:09Z</time>
      </trkpt>
      <trkpt lat="43.78615" lon="5.32626">
        <ele>536.9</ele>
        <time>2020-02-23T09:23:27Z</time>
      </trkpt>
      <trkpt lat="43.78643" lon="5.32613">
        <ele>538.3</ele>
        <time>2020-02-23T09:23:40Z</time>
      </trkpt>
      <trkpt lat="43.78712" lon="5.32543">
        <ele>539.8</ele>
        <time>2020-02-23T09:24:16Z</time>
      </trkpt>
      <trkpt lat="43.78727" lon="5.32535">
        <ele>540.8</ele>
        <time>2020-02-23T09:24:22Z</time>
      </trkpt>
      <trkpt lat="43.78757" lon="5.32536">
        <ele>542</ele>
        <time>2020-02-23T09:24:34Z</time>
      </trkpt>
      <trkpt lat="43.78797" lon="5.32573">
        <ele>545.3</ele>
        <time>2020-02-23T09:24:54Z</time>
      </trkpt>
      <trkpt lat="43.78814" lon="5.32609">
        <ele>546.5</ele>
        <time>2020-02-23T09:25:08Z</time>
      </trkpt>
      <trkpt lat="43.78817" lon="5.32631">
        <ele>547</ele>
        <time>2020-02-23T09:25:15Z</time>
      </trkpt>
      <trkpt lat="43.78815" lon="5.32668">
        <ele>547.6</ele>
        <time>2020-02-23T09:25:26Z</time>
      </trkpt>
      <trkpt lat="43.78805" lon="5.32716">
        <ele>546.3</ele>
        <time>2020-02-23T09:25:39Z</time>
      </trkpt>
      <trkpt lat="43.7878" lon="5.3277">
        <ele>545.9</ele>
        <time>2020-02-23T09:25:55Z</time>
      </trkpt>
      <trkpt lat="43.78741" lon="5.32841">
        <ele>546.2</ele>
        <time>2020-02-23T09:26:13Z</time>
      </trkpt>
      <trkpt lat="43.78671" lon="5.32938">
        <ele>543.9</ele>
        <time>2020-02-23T09:26:42Z</time>
      </trkpt>
      <trkpt lat="43.78639" lon="5.32967">
        <ele>544.5</ele>
        <time>2020-02-23T09:26:53Z</time>
      </trkpt>
      <trkpt lat="43.78631" lon="5.32985">
        <ele>545.1</ele>
        <time>2020-02-23T09:26:58Z</time>
      </trkpt>
      <trkpt lat="43.78632" lon="5.32993">
        <ele>544.5</ele>
        <time>2020-02-23T09:27:03Z</time>
      </trkpt>
      <trkpt lat="43.78655" lon="5.33003">
        <ele>536.3</ele>
        <time>2020-02-23T09:27:14Z</time>
      </trkpt>
      <trkpt lat="43.78698" lon="5.32996">
        <ele>522.6</ele>
        <time>2020-02-23T09:27:29Z</time>
      </trkpt>
      <trkpt lat="43.78716" lon="5.33001">
        <ele>515.6</ele>
        <time>2020-02-23T09:27:36Z</time>
      </trkpt>
      <trkpt lat="43.78758" lon="5.32993">
        <ele>503.1</ele>
        <time>2020-02-23T09:27:49Z</time>
      </trkpt>
      <trkpt lat="43.78766" lon="5.32998">
        <ele>500.8</ele>
        <time>2020-02-23T09:27:52Z</time>
      </trkpt>
      <trkpt lat="43.78801" lon="5.32993">
        <ele>493.6</ele>
        <time>2020-02-23T09:28:01Z</time>
      </trkpt>
      <trkpt lat="43.7885" lon="5.32954">
        <ele>479.2</ele>
        <time>2020-02-23T09:28:15Z</time>
      </trkpt>
      <trkpt lat="43.78889" lon="5.32913">
        <ele>464.5</ele>
        <time>2020-02-23T09:28:26Z</time>
      </trkpt>
      <trkpt lat="43.78913" lon="5.32897">
        <ele>459.2</ele>
        <time>2020-02-23T09:28:35Z</time>
      </trkpt>
      <trkpt lat="43.78971" lon="5.32873">
        <ele>442.4</ele>
        <time>2020-02-23T09:28:53Z</time>
      </trkpt>
      <trkpt lat="43.78987" lon="5.32851">
        <ele>433.7</ele>
        <time>2020-02-23T09:29:02Z</time>
      </trkpt>
      <trkpt lat="43.79043" lon="5.32809">
        <ele>411.4</ele>
        <time>2020-02-23T09:29:30Z</time>
      </trkpt>
      <trkpt lat="43.79075" lon="5.32771">
        <ele>400.3</ele>
        <time>2020-02-23T09:29:44Z</time>
      </trkpt>
      <trkpt lat="43.79101" lon="5.3276">
        <ele>394.3</ele>
        <time>2020-02-23T09:29:52Z</time>
      </trkpt>
      <trkpt lat="43.79165" lon="5.32799">
        <ele>379.9</ele>
        <time>2020-02-23T09:30:09Z</time>
      </trkpt>
      <trkpt lat="43.79193" lon="5.32801">
        <ele>371.8</ele>
        <time>2020-02-23T09:30:17Z</time>
      </trkpt>
      <trkpt lat="43.79196" lon="5.32809">
        <ele>369.4</ele>
        <time>2020-02-23T09:30:21Z</time>
      </trkpt>
      <trkpt lat="43.79208" lon="5.32814">
        <ele>367.9</ele>
        <time>2020-02-23T09:30:26Z</time>
      </trkpt>
      <trkpt lat="43.7922" lon="5.32812">
        <ele>365.2</ele>
        <time>2020-02-23T09:30:30Z</time>
      </trkpt>
      <trkpt lat="43.79249" lon="5.32827">
        <ele>359.5</ele>
        <time>2020-02-23T09:30:40Z</time>
      </trkpt>
      <trkpt lat="43.79292" lon="5.32836">
        <ele>349.3</ele>
        <time>2020-02-23T09:30:52Z</time>
      </trkpt>
      <trkpt lat="43.79308" lon="5.32846">
        <ele>346.4</ele>
        <time>2020-02-23T09:30:58Z</time>
      </trkpt>
      <trkpt lat="43.79319" lon="5.32836">
        <ele>346.4</ele>
        <time>2020-02-23T09:31:05Z</time>
      </trkpt>
      <trkpt lat="43.79315" lon="5.32826">
        <ele>346.7</ele>
        <time>2020-02-23T09:31:10Z</time>
      </trkpt>
      <trkpt lat="43.79322" lon="5.32828">
        <ele>347.1</ele>
        <time>2020-02-23T09:31:24Z</time>
      </trkpt>
      <trkpt lat="43.79349" lon="5.32881">
        <ele>349.1</ele>
        <time>2020-02-23T09:32:27Z</time>
      </trkpt>
      <trkpt lat="43.79359" lon="5.3288">
        <ele>351.7</ele>
        <time>2020-02-23T09:32:35Z</time>
      </trkpt>
      <trkpt lat="43.79363" lon="5.32873">
        <ele>352.1</ele>
        <time>2020-02-23T09:32:40Z</time>
      </trkpt>
      <trkpt lat="43.7937" lon="5.32888">
        <ele>353.3</ele>
        <time>2020-02-23T09:32:55Z</time>
      </trkpt>
      <trkpt lat="43.79375" lon="5.32917">
        <ele>353.5</ele>
        <time>2020-02-23T09:33:02Z</time>
      </trkpt>
      <trkpt lat="43.79387" lon="5.32938">
        <ele>351.5</ele>
        <time>2020-02-23T09:33:09Z</time>
      </trkpt>
      <trkpt lat="43.79396" lon="5.32941">
        <ele>352.2</ele>
        <time>2020-02-23T09:33:13Z</time>
      </trkpt>
      <trkpt lat="43.79407" lon="5.32939">
        <ele>353.8</ele>
        <time>2020-02-23T09:33:21Z</time>
      </trkpt>
      <trkpt lat="43.79403" lon="5.3307">
        <ele>349.1</ele>
        <time>2020-02-23T09:33:52Z</time>
      </trkpt>
      <trkpt lat="43.79399" lon="5.33095">
        <ele>348.2</ele>
        <time>2020-02-23T09:33:57Z</time>
      </trkpt>
      <trkpt lat="43.79392" lon="5.33117">
        <ele>347.9</ele>
        <time>2020-02-23T09:34:01Z</time>
      </trkpt>
      <trkpt lat="43.79389" lon="5.33166">
        <ele>344.2</ele>
        <time>2020-02-23T09:34:10Z</time>
      </trkpt>
      <trkpt lat="43.79394" lon="5.33209">
        <ele>340.8</ele>
        <time>2020-02-23T09:34:17Z</time>
      </trkpt>
      <trkpt lat="43.79405" lon="5.33245">
        <ele>338.7</ele>
        <time>2020-02-23T09:34:24Z</time>
      </trkpt>
      <trkpt lat="43.79383" lon="5.33235">
        <ele>334.2</ele>
        <time>2020-02-23T09:34:32Z</time>
      </trkpt>
      <trkpt lat="43.79377" lon="5.33238">
        <ele>331.4</ele>
        <time>2020-02-23T09:34:34Z</time>
      </trkpt>
      <trkpt lat="43.79375" lon="5.33246">
        <ele>328.9</ele>
        <time>2020-02-23T09:34:36Z</time>
      </trkpt>
      <trkpt lat="43.79402" lon="5.33352">
        <ele>318.8</ele>
        <time>2020-02-23T09:34:55Z</time>
      </trkpt>
      <trkpt lat="43.79416" lon="5.33457">
        <ele>307.4</ele>
        <time>2020-02-23T09:35:14Z</time>
      </trkpt>
      <trkpt lat="43.7942" lon="5.3352">
        <ele>304.3</ele>
        <time>2020-02-23T09:35:25Z</time>
      </trkpt>
      <trkpt lat="43.79434" lon="5.33553">
        <ele>302</ele>
        <time>2020-02-23T09:35:32Z</time>
      </trkpt>
      <trkpt lat="43.79402" lon="5.33578">
        <ele>296.1</ele>
        <time>2020-02-23T09:35:43Z</time>
      </trkpt>
      <trkpt lat="43.79356" lon="5.33637">
        <ele>289.3</ele>
        <time>2020-02-23T09:35:56Z</time>
      </trkpt>
      <trkpt lat="43.79344" lon="5.33664">
        <ele>288.2</ele>
        <time>2020-02-23T09:36:01Z</time>
      </trkpt>
      <trkpt lat="43.79341" lon="5.33665">
        <ele>287</ele>
        <time>2020-02-23T09:36:03Z</time>
      </trkpt>
      <trkpt lat="43.79345" lon="5.33637">
        <ele>283.8</ele>
        <time>2020-02-23T09:36:10Z</time>
      </trkpt>
      <trkpt lat="43.79362" lon="5.33608">
        <ele>283.1</ele>
        <time>2020-02-23T09:36:17Z</time>
      </trkpt>
      <trkpt lat="43.79371" lon="5.3357">
        <ele>282.9</ele>
        <time>2020-02-23T09:36:25Z</time>
      </trkpt>
      <trkpt lat="43.79364" lon="5.33548">
        <ele>280.9</ele>
        <time>2020-02-23T09:36:36Z</time>
      </trkpt>
      <trkpt lat="43.79349" lon="5.33545">
        <ele>283.8</ele>
        <time>2020-02-23T09:36:46Z</time>
      </trkpt>
      <trkpt lat="43.79345" lon="5.33566">
        <ele>283.6</ele>
        <time>2020-02-23T09:36:53Z</time>
      </trkpt>
      <trkpt lat="43.79296" lon="5.33671">
        <ele>277.6</ele>
        <time>2020-02-23T09:37:13Z</time>
      </trkpt>
      <trkpt lat="43.7928" lon="5.33692">
        <ele>277</ele>
        <time>2020-02-23T09:37:18Z</time>
      </trkpt>
      <trkpt lat="43.79271" lon="5.33717">
        <ele>275.1</ele>
        <time>2020-02-23T09:37:23Z</time>
      </trkpt>
      <trkpt lat="43.79276" lon="5.33747">
        <ele>273</ele>
        <time>2020-02-23T09:37:28Z</time>
      </trkpt>
      <trkpt lat="43.79299" lon="5.33789">
        <ele>270.5</ele>
        <time>2020-02-23T09:37:45Z</time>
      </trkpt>
      <trkpt lat="43.79301" lon="5.33855">
        <ele>268.9</ele>
        <time>2020-02-23T09:37:57Z</time>
      </trkpt>
      <trkpt lat="43.79305" lon="5.33874">
        <ele>269.6</ele>
        <time>2020-02-23T09:38:02Z</time>
      </trkpt>
      <trkpt lat="43.79325" lon="5.33886">
        <ele>266.1</ele>
        <time>2020-02-23T09:38:08Z</time>
      </trkpt>
      <trkpt lat="43.79338" lon="5.33908">
        <ele>266.8</ele>
        <time>2020-02-23T09:38:13Z</time>
      </trkpt>
      <trkpt lat="43.79364" lon="5.34">
        <ele>263.8</ele>
        <time>2020-02-23T09:38:26Z</time>
      </trkpt>
      <trkpt lat="43.79391" lon="5.34063">
        <ele>259.9</ele>
        <time>2020-02-23T09:38:38Z</time>
      </trkpt>
      <trkpt lat="43.79397" lon="5.34143">
        <ele>259.5</ele>
        <time>2020-02-23T09:38:53Z</time>
      </trkpt>
      <trkpt lat="43.7941" lon="5.34188">
        <ele>255.6</ele>
        <time>2020-02-23T09:39:00Z</time>
      </trkpt>
      <trkpt lat="43.79423" lon="5.34257">
        <ele>251.3</ele>
        <time>2020-02-23T09:39:11Z</time>
      </trkpt>
      <trkpt lat="43.79437" lon="5.34305">
        <ele>247.3</ele>
        <time>2020-02-23T09:39:21Z</time>
      </trkpt>
      <trkpt lat="43.79447" lon="5.34305">
        <ele>247.1</ele>
        <time>2020-02-23T09:39:26Z</time>
      </trkpt>
      <trkpt lat="43.79453" lon="5.34297">
        <ele>248.5</ele>
        <time>2020-02-23T09:39:31Z</time>
      </trkpt>
      <trkpt lat="43.79453" lon="5.34281">
        <ele>250.8</ele>
        <time>2020-02-23T09:39:37Z</time>
      </trkpt>
      <trkpt lat="43.79431" lon="5.34162">
        <ele>257.2</ele>
        <time>2020-02-23T09:40:16Z</time>
      </trkpt>
      <trkpt lat="43.79423" lon="5.34095">
        <ele>260.7</ele>
        <time>2020-02-23T09:40:43Z</time>
      </trkpt>
      <trkpt lat="43.7943" lon="5.3409">
        <ele>264.3</ele>
        <time>2020-02-23T09:40:48Z</time>
      </trkpt>
      <trkpt lat="43.7944" lon="5.34133">
        <ele>264.1</ele>
        <time>2020-02-23T09:41:09Z</time>
      </trkpt>
      <trkpt lat="43.79454" lon="5.34151">
        <ele>267.1</ele>
        <time>2020-02-23T09:41:20Z</time>
      </trkpt>
      <trkpt lat="43.79542" lon="5.34206">
        <ele>283</ele>
        <time>2020-02-23T09:42:25Z</time>
      </trkpt>
      <trkpt lat="43.7955" lon="5.34202">
        <ele>285.5</ele>
        <time>2020-02-23T09:42:34Z</time>
      </trkpt>
      <trkpt lat="43.79543" lon="5.34177">
        <ele>287.7</ele>
        <time>2020-02-23T09:42:46Z</time>
      </trkpt>
      <trkpt lat="43.79543" lon="5.34141">
        <ele>292.5</ele>
        <time>2020-02-23T09:43:02Z</time>
      </trkpt>
      <trkpt lat="43.79537" lon="5.34119">
        <ele>293.3</ele>
        <time>2020-02-23T09:43:12Z</time>
      </trkpt>
      <trkpt lat="43.79556" lon="5.34046">
        <ele>297.4</ele>
        <time>2020-02-23T09:43:40Z</time>
      </trkpt>
      <trkpt lat="43.79589" lon="5.33996">
        <ele>302</ele>
        <time>2020-02-23T09:44:04Z</time>
      </trkpt>
      <trkpt lat="43.79597" lon="5.33974">
        <ele>302.9</ele>
        <time>2020-02-23T09:44:13Z</time>
      </trkpt>
      <trkpt lat="43.79616" lon="5.33865">
        <ele>312.1</ele>
        <time>2020-02-23T09:44:57Z</time>
      </trkpt>
      <trkpt lat="43.79586" lon="5.33842">
        <ele>316.2</ele>
        <time>2020-02-23T09:45:17Z</time>
      </trkpt>
      <trkpt lat="43.79568" lon="5.33801">
        <ele>320.1</ele>
        <time>2020-02-23T09:45:35Z</time>
      </trkpt>
      <trkpt lat="43.79554" lon="5.33781">
        <ele>321.8</ele>
        <time>2020-02-23T09:45:45Z</time>
      </trkpt>
      <trkpt lat="43.79549" lon="5.33779">
        <ele>322.6</ele>
        <time>2020-02-23T09:45:48Z</time>
      </trkpt>
      <trkpt lat="43.79527" lon="5.33787">
        <ele>323.3</ele>
        <time>2020-02-23T09:45:59Z</time>
      </trkpt>
      <trkpt lat="43.79522" lon="5.33776">
        <ele>324.8</ele>
        <time>2020-02-23T09:46:04Z</time>
      </trkpt>
      <trkpt lat="43.79531" lon="5.3373">
        <ele>328.1</ele>
        <time>2020-02-23T09:46:21Z</time>
      </trkpt>
      <trkpt lat="43.79535" lon="5.33645">
        <ele>333.2</ele>
        <time>2020-02-23T09:46:52Z</time>
      </trkpt>
      <trkpt lat="43.7954" lon="5.33616">
        <ele>334.2</ele>
        <time>2020-02-23T09:47:01Z</time>
      </trkpt>
      <trkpt lat="43.79556" lon="5.33569">
        <ele>336.1</ele>
        <time>2020-02-23T09:47:14Z</time>
      </trkpt>
      <trkpt lat="43.79561" lon="5.33532">
        <ele>338.8</ele>
        <time>2020-02-23T09:47:25Z</time>
      </trkpt>
      <trkpt lat="43.79552" lon="5.33443">
        <ele>343.8</ele>
        <time>2020-02-23T09:47:55Z</time>
      </trkpt>
      <trkpt lat="43.79541" lon="5.33425">
        <ele>345</ele>
        <time>2020-02-23T09:48:04Z</time>
      </trkpt>
      <trkpt lat="43.79522" lon="5.33406">
        <ele>348</ele>
        <time>2020-02-23T09:48:19Z</time>
      </trkpt>
      <trkpt lat="43.79513" lon="5.33382">
        <ele>351.7</ele>
        <time>2020-02-23T09:48:34Z</time>
      </trkpt>
      <trkpt lat="43.79514" lon="5.33313">
        <ele>359.2</ele>
        <time>2020-02-23T09:49:08Z</time>
      </trkpt>
      <trkpt lat="43.79495" lon="5.33259">
        <ele>365.1</ele>
        <time>2020-02-23T09:49:35Z</time>
      </trkpt>
      <trkpt lat="43.79488" lon="5.33141">
        <ele>384.6</ele>
        <time>2020-02-23T09:50:44Z</time>
      </trkpt>
      <trkpt lat="43.79475" lon="5.33116">
        <ele>384.3</ele>
        <time>2020-02-23T09:50:55Z</time>
      </trkpt>
      <trkpt lat="43.79462" lon="5.33038">
        <ele>379.6</ele>
        <time>2020-02-23T09:51:06Z</time>
      </trkpt>
      <trkpt lat="43.79461" lon="5.33004">
        <ele>377.5</ele>
        <time>2020-02-23T09:51:10Z</time>
      </trkpt>
      <trkpt lat="43.79473" lon="5.32957">
        <ele>375.7</ele>
        <time>2020-02-23T09:51:16Z</time>
      </trkpt>
      <trkpt lat="43.79482" lon="5.32904">
        <ele>372.6</ele>
        <time>2020-02-23T09:51:22Z</time>
      </trkpt>
      <trkpt lat="43.79465" lon="5.32847">
        <ele>367.6</ele>
        <time>2020-02-23T09:51:29Z</time>
      </trkpt>
      <trkpt lat="43.79417" lon="5.32774">
        <ele>363.4</ele>
        <time>2020-02-23T09:51:39Z</time>
      </trkpt>
      <trkpt lat="43.79393" lon="5.32747">
        <ele>361.5</ele>
        <time>2020-02-23T09:51:45Z</time>
      </trkpt>
      <trkpt lat="43.79405" lon="5.32743">
        <ele>363.4</ele>
        <time>2020-02-23T09:51:56Z</time>
      </trkpt>
      <trkpt lat="43.79422" lon="5.32728">
        <ele>367</ele>
        <time>2020-02-23T09:52:07Z</time>
      </trkpt>
      <trkpt lat="43.79447" lon="5.32719">
        <ele>372.2</ele>
        <time>2020-02-23T09:52:30Z</time>
      </trkpt>
      <trkpt lat="43.79467" lon="5.32732">
        <ele>378.2</ele>
        <time>2020-02-23T09:53:01Z</time>
      </trkpt>
      <trkpt lat="43.7947" lon="5.32743">
        <ele>379.9</ele>
        <time>2020-02-23T09:53:12Z</time>
      </trkpt>
      <trkpt lat="43.79498" lon="5.32743">
        <ele>384.9</ele>
        <time>2020-02-23T09:53:43Z</time>
      </trkpt>
      <trkpt lat="43.79555" lon="5.32719">
        <ele>395.6</ele>
        <time>2020-02-23T09:54:40Z</time>
      </trkpt>
      <trkpt lat="43.7956" lon="5.32721">
        <ele>397.3</ele>
        <time>2020-02-23T09:54:50Z</time>
      </trkpt>
      <trkpt lat="43.79567" lon="5.32709">
        <ele>399.2</ele>
        <time>2020-02-23T09:55:04Z</time>
      </trkpt>
      <trkpt lat="43.79585" lon="5.32706">
        <ele>406</ele>
        <time>2020-02-23T09:55:42Z</time>
      </trkpt>
      <trkpt lat="43.79595" lon="5.32678">
        <ele>411.6</ele>
        <time>2020-02-23T09:56:13Z</time>
      </trkpt>
      <trkpt lat="43.79591" lon="5.32648">
        <ele>415.5</ele>
        <time>2020-02-23T09:56:31Z</time>
      </trkpt>
      <trkpt lat="43.79603" lon="5.32619">
        <ele>419.4</ele>
        <time>2020-02-23T09:56:53Z</time>
      </trkpt>
      <trkpt lat="43.79607" lon="5.32599">
        <ele>422</ele>
        <time>2020-02-23T09:57:06Z</time>
      </trkpt>
      <trkpt lat="43.79615" lon="5.32588">
        <ele>424.6</ele>
        <time>2020-02-23T09:57:15Z</time>
      </trkpt>
      <trkpt lat="43.79631" lon="5.3258">
        <ele>426.1</ele>
        <time>2020-02-23T09:57:29Z</time>
      </trkpt>
      <trkpt lat="43.79648" lon="5.32559">
        <ele>430.6</ele>
        <time>2020-02-23T09:57:47Z</time>
      </trkpt>
      <trkpt lat="43.7965" lon="5.32544">
        <ele>432.4</ele>
        <time>2020-02-23T09:57:56Z</time>
      </trkpt>
      <trkpt lat="43.7966" lon="5.32529">
        <ele>435.1</ele>
        <time>2020-02-23T09:58:09Z</time>
      </trkpt>
      <trkpt lat="43.79673" lon="5.32529">
        <ele>437</ele>
        <time>2020-02-23T09:58:21Z</time>
      </trkpt>
      <trkpt lat="43.79678" lon="5.32537">
        <ele>437.4</ele>
        <time>2020-02-23T09:58:28Z</time>
      </trkpt>
      <trkpt lat="43.79692" lon="5.32537">
        <ele>440.5</ele>
        <time>2020-02-23T09:58:40Z</time>
      </trkpt>
      <trkpt lat="43.79746" lon="5.32506">
        <ele>449.1</ele>
        <time>2020-02-23T09:59:26Z</time>
      </trkpt>
      <trkpt lat="43.79768" lon="5.32422">
        <ele>449</ele>
        <time>2020-02-23T09:59:49Z</time>
      </trkpt>
      <trkpt lat="43.79798" lon="5.32359">
        <ele>450.6</ele>
        <time>2020-02-23T10:00:02Z</time>
      </trkpt>
      <trkpt lat="43.7981" lon="5.323">
        <ele>452.1</ele>
        <time>2020-02-23T10:00:13Z</time>
      </trkpt>
      <trkpt lat="43.79817" lon="5.32283">
        <ele>453.5</ele>
        <time>2020-02-23T10:00:17Z</time>
      </trkpt>
      <trkpt lat="43.79849" lon="5.32242">
        <ele>455.7</ele>
        <time>2020-02-23T10:00:31Z</time>
      </trkpt>
      <trkpt lat="43.79861" lon="5.32173">
        <ele>453.3</ele>
        <time>2020-02-23T10:00:43Z</time>
      </trkpt>
      <trkpt lat="43.79883" lon="5.32133">
        <ele>454.9</ele>
        <time>2020-02-23T10:00:52Z</time>
      </trkpt>
      <trkpt lat="43.79902" lon="5.32073">
        <ele>457.5</ele>
        <time>2020-02-23T10:01:06Z</time>
      </trkpt>
      <trkpt lat="43.79907" lon="5.32046">
        <ele>459.3</ele>
        <time>2020-02-23T10:01:15Z</time>
      </trkpt>
      <trkpt lat="43.79904" lon="5.31964">
        <ele>464.3</ele>
        <time>2020-02-23T10:01:41Z</time>
      </trkpt>
      <trkpt lat="43.79909" lon="5.31949">
        <ele>466.3</ele>
        <time>2020-02-23T10:01:47Z</time>
      </trkpt>
      <trkpt lat="43.79937" lon="5.31922">
        <ele>470.6</ele>
        <time>2020-02-23T10:02:08Z</time>
      </trkpt>
      <trkpt lat="43.79958" lon="5.31895">
        <ele>473.6</ele>
        <time>2020-02-23T10:02:25Z</time>
      </trkpt>
      <trkpt lat="43.79973" lon="5.31855">
        <ele>477.7</ele>
        <time>2020-02-23T10:02:45Z</time>
      </trkpt>
      <trkpt lat="43.79976" lon="5.31775">
        <ele>484.2</ele>
        <time>2020-02-23T10:03:18Z</time>
      </trkpt>
      <trkpt lat="43.79986" lon="5.31754">
        <ele>485.8</ele>
        <time>2020-02-23T10:03:27Z</time>
      </trkpt>
      <trkpt lat="43.79997" lon="5.31742">
        <ele>486.9</ele>
        <time>2020-02-23T10:03:34Z</time>
      </trkpt>
      <trkpt lat="43.80035" lon="5.31721">
        <ele>486.5</ele>
        <time>2020-02-23T10:03:48Z</time>
      </trkpt>
      <trkpt lat="43.80053" lon="5.31702">
        <ele>486.3</ele>
        <time>2020-02-23T10:03:54Z</time>
      </trkpt>
      <trkpt lat="43.8006" lon="5.31681">
        <ele>486.9</ele>
        <time>2020-02-23T10:03:59Z</time>
      </trkpt>
      <trkpt lat="43.80074" lon="5.31601">
        <ele>491.1</ele>
        <time>2020-02-23T10:04:21Z</time>
      </trkpt>
      <trkpt lat="43.8009" lon="5.3154">
        <ele>495.1</ele>
        <time>2020-02-23T10:04:41Z</time>
      </trkpt>
      <trkpt lat="43.80104" lon="5.31513">
        <ele>497.1</ele>
        <time>2020-02-23T10:04:50Z</time>
      </trkpt>
      <trkpt lat="43.8012" lon="5.31491">
        <ele>498.2</ele>
        <time>2020-02-23T10:04:58Z</time>
      </trkpt>
      <trkpt lat="43.80139" lon="5.31478">
        <ele>498.6</ele>
        <time>2020-02-23T10:05:05Z</time>
      </trkpt>
      <trkpt lat="43.80158" lon="5.31473">
        <ele>499.2</ele>
        <time>2020-02-23T10:05:11Z</time>
      </trkpt>
      <trkpt lat="43.80188" lon="5.31476">
        <ele>501</ele>
        <time>2020-02-23T10:05:22Z</time>
      </trkpt>
      <trkpt lat="43.80251" lon="5.31493">
        <ele>508.3</ele>
        <time>2020-02-23T10:05:50Z</time>
      </trkpt>
      <trkpt lat="43.80268" lon="5.3149">
        <ele>510.6</ele>
        <time>2020-02-23T10:05:59Z</time>
      </trkpt>
      <trkpt lat="43.80286" lon="5.31477">
        <ele>511.1</ele>
        <time>2020-02-23T10:06:08Z</time>
      </trkpt>
      <trkpt lat="43.80309" lon="5.31451">
        <ele>513.8</ele>
        <time>2020-02-23T10:06:21Z</time>
      </trkpt>
      <trkpt lat="43.80333" lon="5.31407">
        <ele>517.9</ele>
        <time>2020-02-23T10:06:38Z</time>
      </trkpt>
      <trkpt lat="43.80343" lon="5.31396">
        <ele>519.1</ele>
        <time>2020-02-23T10:06:44Z</time>
      </trkpt>
      <trkpt lat="43.80341" lon="5.31386">
        <ele>518.9</ele>
        <time>2020-02-23T10:06:47Z</time>
      </trkpt>
      <trkpt lat="43.80322" lon="5.31371">
        <ele>517.2</ele>
        <time>2020-02-23T10:06:52Z</time>
      </trkpt>
      <trkpt lat="43.80284" lon="5.31362">
        <ele>513.2</ele>
        <time>2020-02-23T10:06:58Z</time>
      </trkpt>
      <trkpt lat="43.80271" lon="5.31351">
        <ele>512.6</ele>
        <time>2020-02-23T10:07:00Z</time>
      </trkpt>
      <trkpt lat="43.80218" lon="5.3129">
        <ele>510.2</ele>
        <time>2020-02-23T10:07:09Z</time>
      </trkpt>
      <trkpt lat="43.80172" lon="5.31219">
        <ele>509.4</ele>
        <time>2020-02-23T10:07:18Z</time>
      </trkpt>
      <trkpt lat="43.80149" lon="5.31198">
        <ele>509.1</ele>
        <time>2020-02-23T10:07:22Z</time>
      </trkpt>
      <trkpt lat="43.801" lon="5.31176">
        <ele>506.8</ele>
        <time>2020-02-23T10:07:29Z</time>
      </trkpt>
      <trkpt lat="43.80083" lon="5.31159">
        <ele>505.4</ele>
        <time>2020-02-23T10:07:32Z</time>
      </trkpt>
      <trkpt lat="43.80072" lon="5.31133">
        <ele>503.6</ele>
        <time>2020-02-23T10:07:35Z</time>
      </trkpt>
      <trkpt lat="43.80068" lon="5.31105">
        <ele>502.9</ele>
        <time>2020-02-23T10:07:39Z</time>
      </trkpt>
      <trkpt lat="43.80074" lon="5.31031">
        <ele>500.9</ele>
        <time>2020-02-23T10:07:48Z</time>
      </trkpt>
      <trkpt lat="43.8006" lon="5.30973">
        <ele>497.9</ele>
        <time>2020-02-23T10:07:54Z</time>
      </trkpt>
      <trkpt lat="43.80063" lon="5.30952">
        <ele>496.9</ele>
        <time>2020-02-23T10:07:56Z</time>
      </trkpt>
      <trkpt lat="43.80078" lon="5.30929">
        <ele>496.4</ele>
        <time>2020-02-23T10:07:59Z</time>
      </trkpt>
      <trkpt lat="43.80119" lon="5.30895">
        <ele>497.6</ele>
        <time>2020-02-23T10:08:08Z</time>
      </trkpt>
      <trkpt lat="43.80119" lon="5.30883">
        <ele>499</ele>
        <time>2020-02-23T10:08:12Z</time>
      </trkpt>
      <trkpt lat="43.8009" lon="5.30829">
        <ele>508.9</ele>
        <time>2020-02-23T10:09:05Z</time>
      </trkpt>
      <trkpt lat="43.80075" lon="5.30787">
        <ele>514</ele>
        <time>2020-02-23T10:09:38Z</time>
      </trkpt>
      <trkpt lat="43.80072" lon="5.30749">
        <ele>520.4</ele>
        <time>2020-02-23T10:10:05Z</time>
      </trkpt>
      <trkpt lat="43.80066" lon="5.30737">
        <ele>522.1</ele>
        <time>2020-02-23T10:10:13Z</time>
      </trkpt>
      <trkpt lat="43.80058" lon="5.30697">
        <ele>528.6</ele>
        <time>2020-02-23T10:10:40Z</time>
      </trkpt>
      <trkpt lat="43.80052" lon="5.30685">
        <ele>530.5</ele>
        <time>2020-02-23T10:10:49Z</time>
      </trkpt>
      <trkpt lat="43.80037" lon="5.30619">
        <ele>540.7</ele>
        <time>2020-02-23T10:11:32Z</time>
      </trkpt>
      <trkpt lat="43.80043" lon="5.306">
        <ele>543.9</ele>
        <time>2020-02-23T10:11:45Z</time>
      </trkpt>
      <trkpt lat="43.80023" lon="5.30565">
        <ele>549.8</ele>
        <time>2020-02-23T10:12:09Z</time>
      </trkpt>
      <trkpt lat="43.80025" lon="5.30537">
        <ele>553.2</ele>
        <time>2020-02-23T10:12:27Z</time>
      </trkpt>
      <trkpt lat="43.80002" lon="5.30515">
        <ele>558.6</ele>
        <time>2020-02-23T10:12:47Z</time>
      </trkpt>
      <trkpt lat="43.79969" lon="5.30518">
        <ele>562.4</ele>
        <time>2020-02-23T10:13:09Z</time>
      </trkpt>
      <trkpt lat="43.79959" lon="5.3051">
        <ele>564.5</ele>
        <time>2020-02-23T10:13:17Z</time>
      </trkpt>
      <trkpt lat="43.79939" lon="5.30509">
        <ele>566.2</ele>
        <time>2020-02-23T10:13:28Z</time>
      </trkpt>
      <trkpt lat="43.79934" lon="5.30505">
        <ele>566.8</ele>
        <time>2020-02-23T10:13:31Z</time>
      </trkpt>
      <trkpt lat="43.79934" lon="5.30459">
        <ele>570.5</ele>
        <time>2020-02-23T10:13:48Z</time>
      </trkpt>
      <trkpt lat="43.79947" lon="5.3044">
        <ele>571.2</ele>
        <time>2020-02-23T10:13:55Z</time>
      </trkpt>
      <trkpt lat="43.79966" lon="5.30381">
        <ele>571.7</ele>
        <time>2020-02-23T10:14:09Z</time>
      </trkpt>
      <trkpt lat="43.80007" lon="5.30283">
        <ele>570.8</ele>
        <time>2020-02-23T10:14:31Z</time>
      </trkpt>
      <trkpt lat="43.80003" lon="5.30267">
        <ele>570.1</ele>
        <time>2020-02-23T10:14:50Z</time>
      </trkpt>
      <trkpt lat="43.80006" lon="5.30263">
        <ele>569.8</ele>
        <time>2020-02-23T10:19:45Z</time>
      </trkpt>
      <trkpt lat="43.80034" lon="5.30291">
        <ele>570.8</ele>
        <time>2020-02-23T10:20:02Z</time>
      </trkpt>
      <trkpt lat="43.80105" lon="5.30321">
        <ele>579.5</ele>
        <time>2020-02-23T10:20:45Z</time>
      </trkpt>
      <trkpt lat="43.80141" lon="5.30379">
        <ele>577.8</ele>
        <time>2020-02-23T10:21:02Z</time>
      </trkpt>
      <trkpt lat="43.80163" lon="5.30396">
        <ele>575.7</ele>
        <time>2020-02-23T10:21:07Z</time>
      </trkpt>
      <trkpt lat="43.80179" lon="5.30401">
        <ele>575.2</ele>
        <time>2020-02-23T10:21:10Z</time>
      </trkpt>
      <trkpt lat="43.80225" lon="5.30443">
        <ele>571.2</ele>
        <time>2020-02-23T10:21:19Z</time>
      </trkpt>
      <trkpt lat="43.80252" lon="5.30433">
        <ele>571.7</ele>
        <time>2020-02-23T10:21:24Z</time>
      </trkpt>
      <trkpt lat="43.80345" lon="5.30354">
        <ele>573.4</ele>
        <time>2020-02-23T10:21:49Z</time>
      </trkpt>
      <trkpt lat="43.80351" lon="5.30317">
        <ele>576.9</ele>
        <time>2020-02-23T10:22:04Z</time>
      </trkpt>
      <trkpt lat="43.80361" lon="5.3029">
        <ele>580.2</ele>
        <time>2020-02-23T10:22:21Z</time>
      </trkpt>
      <trkpt lat="43.80423" lon="5.30256">
        <ele>582.3</ele>
        <time>2020-02-23T10:22:53Z</time>
      </trkpt>
      <trkpt lat="43.80443" lon="5.30252">
        <ele>582.6</ele>
        <time>2020-02-23T10:23:01Z</time>
      </trkpt>
      <trkpt lat="43.8048" lon="5.30254">
        <ele>579.9</ele>
        <time>2020-02-23T10:23:15Z</time>
      </trkpt>
      <trkpt lat="43.805" lon="5.3024">
        <ele>581.8</ele>
        <time>2020-02-23T10:23:29Z</time>
      </trkpt>
      <trkpt lat="43.80506" lon="5.30221">
        <ele>584.7</ele>
        <time>2020-02-23T10:23:49Z</time>
      </trkpt>
      <trkpt lat="43.80549" lon="5.30164">
        <ele>590</ele>
        <time>2020-02-23T10:24:24Z</time>
      </trkpt>
      <trkpt lat="43.80548" lon="5.3015">
        <ele>592.1</ele>
        <time>2020-02-23T10:24:33Z</time>
      </trkpt>
      <trkpt lat="43.80556" lon="5.30132">
        <ele>593.7</ele>
        <time>2020-02-23T10:24:44Z</time>
      </trkpt>
      <trkpt lat="43.80548" lon="5.30125">
        <ele>594.9</ele>
        <time>2020-02-23T10:24:52Z</time>
      </trkpt>
      <trkpt lat="43.80548" lon="5.30114">
        <ele>596</ele>
        <time>2020-02-23T10:24:58Z</time>
      </trkpt>
      <trkpt lat="43.80577" lon="5.3008">
        <ele>596</ele>
        <time>2020-02-23T10:25:17Z</time>
      </trkpt>
      <trkpt lat="43.8059" lon="5.30074">
        <ele>595.9</ele>
        <time>2020-02-23T10:25:22Z</time>
      </trkpt>
      <trkpt lat="43.80605" lon="5.30057">
        <ele>597.3</ele>
        <time>2020-02-23T10:25:31Z</time>
      </trkpt>
      <trkpt lat="43.80614" lon="5.30059">
        <ele>597.7</ele>
        <time>2020-02-23T10:25:37Z</time>
      </trkpt>
      <trkpt lat="43.80622" lon="5.30068">
        <ele>596.2</ele>
        <time>2020-02-23T10:25:42Z</time>
      </trkpt>
      <trkpt lat="43.80621" lon="5.30119">
        <ele>589.1</ele>
        <time>2020-02-23T10:25:53Z</time>
      </trkpt>
      <trkpt lat="43.80647" lon="5.30122">
        <ele>584.4</ele>
        <time>2020-02-23T10:25:58Z</time>
      </trkpt>
      <trkpt lat="43.80657" lon="5.30117">
        <ele>583.7</ele>
        <time>2020-02-23T10:26:00Z</time>
      </trkpt>
      <trkpt lat="43.80712" lon="5.30033">
        <ele>582.5</ele>
        <time>2020-02-23T10:26:20Z</time>
      </trkpt>
      <trkpt lat="43.80789" lon="5.29946">
        <ele>570.6</ele>
        <time>2020-02-23T10:26:39Z</time>
      </trkpt>
      <trkpt lat="43.80799" lon="5.29926">
        <ele>567.3</ele>
        <time>2020-02-23T10:26:43Z</time>
      </trkpt>
      <trkpt lat="43.80804" lon="5.29901">
        <ele>565.7</ele>
        <time>2020-02-23T10:26:46Z</time>
      </trkpt>
      <trkpt lat="43.80808" lon="5.2984">
        <ele>558.4</ele>
        <time>2020-02-23T10:26:54Z</time>
      </trkpt>
      <trkpt lat="43.80805" lon="5.29717">
        <ele>550.3</ele>
        <time>2020-02-23T10:27:09Z</time>
      </trkpt>
      <trkpt lat="43.80797" lon="5.2967">
        <ele>556.2</ele>
        <time>2020-02-23T10:27:27Z</time>
      </trkpt>
      <trkpt lat="43.80803" lon="5.29647">
        <ele>556.7</ele>
        <time>2020-02-23T10:27:36Z</time>
      </trkpt>
      <trkpt lat="43.80811" lon="5.29635">
        <ele>555</ele>
        <time>2020-02-23T10:27:42Z</time>
      </trkpt>
      <trkpt lat="43.80815" lon="5.29609">
        <ele>556.6</ele>
        <time>2020-02-23T10:27:52Z</time>
      </trkpt>
      <trkpt lat="43.80836" lon="5.29548">
        <ele>552.7</ele>
        <time>2020-02-23T10:28:10Z</time>
      </trkpt>
      <trkpt lat="43.80867" lon="5.29365">
        <ele>541.3</ele>
        <time>2020-02-23T10:28:53Z</time>
      </trkpt>
      <trkpt lat="43.80886" lon="5.29281">
        <ele>536.4</ele>
        <time>2020-02-23T10:29:16Z</time>
      </trkpt>
      <trkpt lat="43.80933" lon="5.29217">
        <ele>517.9</ele>
        <time>2020-02-23T10:29:33Z</time>
      </trkpt>
      <trkpt lat="43.80948" lon="5.29187">
        <ele>511.7</ele>
        <time>2020-02-23T10:29:41Z</time>
      </trkpt>
      <trkpt lat="43.80958" lon="5.29153">
        <ele>507.1</ele>
        <time>2020-02-23T10:29:47Z</time>
      </trkpt>
      <trkpt lat="43.80955" lon="5.29127">
        <ele>506.8</ele>
        <time>2020-02-23T10:29:51Z</time>
      </trkpt>
      <trkpt lat="43.80942" lon="5.29086">
        <ele>507.2</ele>
        <time>2020-02-23T10:30:02Z</time>
      </trkpt>
      <trkpt lat="43.80929" lon="5.29063">
        <ele>512.9</ele>
        <time>2020-02-23T10:30:15Z</time>
      </trkpt>
      <trkpt lat="43.80924" lon="5.29002">
        <ele>521</ele>
        <time>2020-02-23T10:30:54Z</time>
      </trkpt>
      <trkpt lat="43.8092" lon="5.28996">
        <ele>523.7</ele>
        <time>2020-02-23T10:31:00Z</time>
      </trkpt>
      <trkpt lat="43.80914" lon="5.28955">
        <ele>526</ele>
        <time>2020-02-23T10:31:27Z</time>
      </trkpt>
      <trkpt lat="43.80898" lon="5.28921">
        <ele>525.8</ele>
        <time>2020-02-23T10:31:38Z</time>
      </trkpt>
      <trkpt lat="43.80888" lon="5.28912">
        <ele>526.8</ele>
        <time>2020-02-23T10:31:46Z</time>
      </trkpt>
      <trkpt lat="43.80869" lon="5.28905">
        <ele>527.1</ele>
        <time>2020-02-23T10:31:54Z</time>
      </trkpt>
      <trkpt lat="43.80827" lon="5.28911">
        <ele>536.3</ele>
        <time>2020-02-23T10:32:22Z</time>
      </trkpt>
      <trkpt lat="43.80774" lon="5.28894">
        <ele>546.8</ele>
        <time>2020-02-23T10:33:17Z</time>
      </trkpt>
      <trkpt lat="43.80739" lon="5.28871">
        <ele>556.7</ele>
        <time>2020-02-23T10:34:07Z</time>
      </trkpt>
      <trkpt lat="43.80699" lon="5.28828">
        <ele>565.8</ele>
        <time>2020-02-23T10:35:03Z</time>
      </trkpt>
      <trkpt lat="43.80686" lon="5.28825">
        <ele>570.7</ele>
        <time>2020-02-23T10:35:26Z</time>
      </trkpt>
      <trkpt lat="43.80649" lon="5.28794">
        <ele>578.3</ele>
        <time>2020-02-23T10:36:13Z</time>
      </trkpt>
      <trkpt lat="43.80615" lon="5.28774">
        <ele>588.3</ele>
        <time>2020-02-23T10:36:46Z</time>
      </trkpt>
      <trkpt lat="43.80597" lon="5.28751">
        <ele>592</ele>
        <time>2020-02-23T10:37:09Z</time>
      </trkpt>
      <trkpt lat="43.80553" lon="5.28669">
        <ele>606.3</ele>
        <time>2020-02-23T10:38:23Z</time>
      </trkpt>
      <trkpt lat="43.80543" lon="5.28643">
        <ele>608.2</ele>
        <time>2020-02-23T10:38:41Z</time>
      </trkpt>
      <trkpt lat="43.80514" lon="5.28623">
        <ele>618.4</ele>
        <time>2020-02-23T10:39:31Z</time>
      </trkpt>
      <trkpt lat="43.80497" lon="5.28606">
        <ele>623.2</ele>
        <time>2020-02-23T10:40:05Z</time>
      </trkpt>
      <trkpt lat="43.80473" lon="5.28571">
        <ele>630.1</ele>
        <time>2020-02-23T10:40:33Z</time>
      </trkpt>
      <trkpt lat="43.80466" lon="5.28565">
        <ele>632.6</ele>
        <time>2020-02-23T10:40:40Z</time>
      </trkpt>
      <trkpt lat="43.80456" lon="5.28549">
        <ele>634.6</ele>
        <time>2020-02-23T10:40:56Z</time>
      </trkpt>
      <trkpt lat="43.80423" lon="5.2852">
        <ele>640.6</ele>
        <time>2020-02-23T10:41:24Z</time>
      </trkpt>
      <trkpt lat="43.80387" lon="5.28509">
        <ele>647.4</ele>
        <time>2020-02-23T10:41:52Z</time>
      </trkpt>
      <trkpt lat="43.80361" lon="5.28482">
        <ele>651</ele>
        <time>2020-02-23T10:42:26Z</time>
      </trkpt>
      <trkpt lat="43.80336" lon="5.28464">
        <ele>655.5</ele>
        <time>2020-02-23T10:42:45Z</time>
      </trkpt>
      <trkpt lat="43.80331" lon="5.28452">
        <ele>655.8</ele>
        <time>2020-02-23T10:42:53Z</time>
      </trkpt>
      <trkpt lat="43.80332" lon="5.28431">
        <ele>656.5</ele>
        <time>2020-02-23T10:43:03Z</time>
      </trkpt>
      <trkpt lat="43.80327" lon="5.28412">
        <ele>657.6</ele>
        <time>2020-02-23T10:43:13Z</time>
      </trkpt>
      <trkpt lat="43.80309" lon="5.28388">
        <ele>661.5</ele>
        <time>2020-02-23T10:43:30Z</time>
      </trkpt>
      <trkpt lat="43.8031" lon="5.2837">
        <ele>662.5</ele>
        <time>2020-02-23T10:43:38Z</time>
      </trkpt>
      <trkpt lat="43.80298" lon="5.2834">
        <ele>665.7</ele>
        <time>2020-02-23T10:43:54Z</time>
      </trkpt>
      <trkpt lat="43.80334" lon="5.28263">
        <ele>668.6</ele>
        <time>2020-02-23T10:44:34Z</time>
      </trkpt>
      <trkpt lat="43.80342" lon="5.2823">
        <ele>673.6</ele>
        <time>2020-02-23T10:44:54Z</time>
      </trkpt>
      <trkpt lat="43.80353" lon="5.282">
        <ele>676.7</ele>
        <time>2020-02-23T10:45:21Z</time>
      </trkpt>
      <trkpt lat="43.80355" lon="5.28186">
        <ele>678</ele>
        <time>2020-02-23T10:45:26Z</time>
      </trkpt>
      <trkpt lat="43.80351" lon="5.28146">
        <ele>680.4</ele>
        <time>2020-02-23T10:45:40Z</time>
      </trkpt>
      <trkpt lat="43.80355" lon="5.28074">
        <ele>681.5</ele>
        <time>2020-02-23T10:45:59Z</time>
      </trkpt>
      <trkpt lat="43.80353" lon="5.28037">
        <ele>680</ele>
        <time>2020-02-23T10:46:07Z</time>
      </trkpt>
      <trkpt lat="43.80335" lon="5.27997">
        <ele>680.8</ele>
        <time>2020-02-23T10:46:20Z</time>
      </trkpt>
      <trkpt lat="43.80331" lon="5.27997">
        <ele>680.9</ele>
        <time>2020-02-23T10:46:24Z</time>
      </trkpt>
      <trkpt lat="43.80307" lon="5.27947">
        <ele>679.2</ele>
        <time>2020-02-23T10:46:38Z</time>
      </trkpt>
      <trkpt lat="43.80291" lon="5.2793">
        <ele>676.9</ele>
        <time>2020-02-23T10:46:42Z</time>
      </trkpt>
      <trkpt lat="43.80284" lon="5.27891">
        <ele>676.2</ele>
        <time>2020-02-23T10:46:48Z</time>
      </trkpt>
      <trkpt lat="43.80267" lon="5.27854">
        <ele>680.2</ele>
        <time>2020-02-23T10:47:01Z</time>
      </trkpt>
      <trkpt lat="43.8025" lon="5.2784">
        <ele>682.9</ele>
        <time>2020-02-23T10:47:14Z</time>
      </trkpt>
      <trkpt lat="43.80247" lon="5.27831">
        <ele>684.3</ele>
        <time>2020-02-23T10:47:19Z</time>
      </trkpt>
      <trkpt lat="43.80215" lon="5.27819">
        <ele>685.4</ele>
        <time>2020-02-23T10:47:39Z</time>
      </trkpt>
      <trkpt lat="43.80178" lon="5.27771">
        <ele>686.9</ele>
        <time>2020-02-23T10:48:02Z</time>
      </trkpt>
      <trkpt lat="43.80171" lon="5.27772">
        <ele>686</ele>
        <time>2020-02-23T10:48:05Z</time>
      </trkpt>
      <trkpt lat="43.80157" lon="5.27765">
        <ele>685.6</ele>
        <time>2020-02-23T10:48:10Z</time>
      </trkpt>
      <trkpt lat="43.80147" lon="5.27737">
        <ele>688.7</ele>
        <time>2020-02-23T10:48:26Z</time>
      </trkpt>
      <trkpt lat="43.80126" lon="5.27718">
        <ele>691</ele>
        <time>2020-02-23T10:48:40Z</time>
      </trkpt>
      <trkpt lat="43.80116" lon="5.27715">
        <ele>691.6</ele>
        <time>2020-02-23T10:48:46Z</time>
      </trkpt>
      <trkpt lat="43.801" lon="5.27698">
        <ele>694</ele>
        <time>2020-02-23T10:48:59Z</time>
      </trkpt>
      <trkpt lat="43.80086" lon="5.27691">
        <ele>695</ele>
        <time>2020-02-23T10:49:07Z</time>
      </trkpt>
      <trkpt lat="43.80086" lon="5.27675">
        <ele>695.7</ele>
        <time>2020-02-23T10:49:13Z</time>
      </trkpt>
      <trkpt lat="43.80079" lon="5.27656">
        <ele>696.7</ele>
        <time>2020-02-23T10:49:21Z</time>
      </trkpt>
      <trkpt lat="43.80085" lon="5.2764">
        <ele>697.9</ele>
        <time>2020-02-23T10:49:27Z</time>
      </trkpt>
      <trkpt lat="43.80034" lon="5.2751">
        <ele>700.1</ele>
        <time>2020-02-23T10:50:05Z</time>
      </trkpt>
      <trkpt lat="43.79996" lon="5.27358">
        <ele>701.7</ele>
        <time>2020-02-23T10:50:38Z</time>
      </trkpt>
      <trkpt lat="43.79998" lon="5.27339">
        <ele>702</ele>
        <time>2020-02-23T10:50:42Z</time>
      </trkpt>
      <trkpt lat="43.8001" lon="5.27329">
        <ele>702.1</ele>
        <time>2020-02-23T10:50:47Z</time>
      </trkpt>
      <trkpt lat="43.80012" lon="5.27315">
        <ele>702.4</ele>
        <time>2020-02-23T10:50:52Z</time>
      </trkpt>
      <trkpt lat="43.80001" lon="5.27299">
        <ele>703.2</ele>
        <time>2020-02-23T10:51:02Z</time>
      </trkpt>
      <trkpt lat="43.79981" lon="5.2729">
        <ele>703.6</ele>
        <time>2020-02-23T10:51:10Z</time>
      </trkpt>
      <trkpt lat="43.79973" lon="5.27224">
        <ele>705</ele>
        <time>2020-02-23T10:51:28Z</time>
      </trkpt>
      <trkpt lat="43.79971" lon="5.27071">
        <ele>703.3</ele>
        <time>2020-02-23T10:52:02Z</time>
      </trkpt>
      <trkpt lat="43.79974" lon="5.27059">
        <ele>703.3</ele>
        <time>2020-02-23T10:52:07Z</time>
      </trkpt>
      <trkpt lat="43.79985" lon="5.2705">
        <ele>704</ele>
        <time>2020-02-23T10:52:16Z</time>
      </trkpt>
      <trkpt lat="43.80021" lon="5.27044">
        <ele>707.4</ele>
        <time>2020-02-23T10:52:41Z</time>
      </trkpt>
      <trkpt lat="43.80059" lon="5.27007">
        <ele>709.1</ele>
        <time>2020-02-23T10:53:01Z</time>
      </trkpt>
      <trkpt lat="43.80072" lon="5.26979">
        <ele>709.6</ele>
        <time>2020-02-23T10:53:10Z</time>
      </trkpt>
      <trkpt lat="43.80085" lon="5.26916">
        <ele>710</ele>
        <time>2020-02-23T10:53:27Z</time>
      </trkpt>
      <trkpt lat="43.80095" lon="5.26894">
        <ele>710</ele>
        <time>2020-02-23T10:53:34Z</time>
      </trkpt>
      <trkpt lat="43.80101" lon="5.26871">
        <ele>710.2</ele>
        <time>2020-02-23T10:53:40Z</time>
      </trkpt>
      <trkpt lat="43.8011" lon="5.26855">
        <ele>710.9</ele>
        <time>2020-02-23T10:53:45Z</time>
      </trkpt>
      <trkpt lat="43.80111" lon="5.26823">
        <ele>710.6</ele>
        <time>2020-02-23T10:53:54Z</time>
      </trkpt>
      <trkpt lat="43.80102" lon="5.26789">
        <ele>709.5</ele>
        <time>2020-02-23T10:54:02Z</time>
      </trkpt>
      <trkpt lat="43.80085" lon="5.26761">
        <ele>709.1</ele>
        <time>2020-02-23T10:54:10Z</time>
      </trkpt>
      <trkpt lat="43.80066" lon="5.26747">
        <ele>708.5</ele>
        <time>2020-02-23T10:54:15Z</time>
      </trkpt>
      <trkpt lat="43.80038" lon="5.26739">
        <ele>708.1</ele>
        <time>2020-02-23T10:54:21Z</time>
      </trkpt>
      <trkpt lat="43.79925" lon="5.26726">
        <ele>706</ele>
        <time>2020-02-23T10:54:45Z</time>
      </trkpt>
      <trkpt lat="43.79884" lon="5.26708">
        <ele>704.7</ele>
        <time>2020-02-23T10:54:53Z</time>
      </trkpt>
      <trkpt lat="43.79729" lon="5.26658">
        <ele>698.5</ele>
        <time>2020-02-23T10:55:20Z</time>
      </trkpt>
      <trkpt lat="43.79713" lon="5.26656">
        <ele>697.4</ele>
        <time>2020-02-23T10:55:23Z</time>
      </trkpt>
      <trkpt lat="43.79678" lon="5.26663">
        <ele>695.5</ele>
        <time>2020-02-23T10:55:29Z</time>
      </trkpt>
      <trkpt lat="43.796" lon="5.26661">
        <ele>693.3</ele>
        <time>2020-02-23T10:55:42Z</time>
      </trkpt>
      <trkpt lat="43.79539" lon="5.26673">
        <ele>692.5</ele>
        <time>2020-02-23T10:56:04Z</time>
      </trkpt>
      <trkpt lat="43.79521" lon="5.26694">
        <ele>691.3</ele>
        <time>2020-02-23T10:56:10Z</time>
      </trkpt>
      <trkpt lat="43.79413" lon="5.26767">
        <ele>687</ele>
        <time>2020-02-23T10:56:37Z</time>
      </trkpt>
      <trkpt lat="43.79392" lon="5.26795">
        <ele>687.3</ele>
        <time>2020-02-23T10:56:52Z</time>
      </trkpt>
      <trkpt lat="43.79385" lon="5.26827">
        <ele>685.7</ele>
        <time>2020-02-23T10:57:03Z</time>
      </trkpt>
      <trkpt lat="43.79376" lon="5.26848">
        <ele>686.1</ele>
        <time>2020-02-23T10:57:08Z</time>
      </trkpt>
      <trkpt lat="43.79371" lon="5.26874">
        <ele>684.3</ele>
        <time>2020-02-23T10:57:16Z</time>
      </trkpt>
      <trkpt lat="43.7935" lon="5.26903">
        <ele>682.9</ele>
        <time>2020-02-23T10:57:43Z</time>
      </trkpt>
      <trkpt lat="43.79343" lon="5.26927">
        <ele>680.2</ele>
        <time>2020-02-23T10:57:49Z</time>
      </trkpt>
      <trkpt lat="43.79345" lon="5.26973">
        <ele>674</ele>
        <time>2020-02-23T10:58:02Z</time>
      </trkpt>
      <trkpt lat="43.79353" lon="5.27015">
        <ele>674</ele>
        <time>2020-02-23T10:58:11Z</time>
      </trkpt>
      <trkpt lat="43.79376" lon="5.27074">
        <ele>671.2</ele>
        <time>2020-02-23T10:58:28Z</time>
      </trkpt>
      <trkpt lat="43.79374" lon="5.27111">
        <ele>670.5</ele>
        <time>2020-02-23T10:58:40Z</time>
      </trkpt>
      <trkpt lat="43.79357" lon="5.27148">
        <ele>666.8</ele>
        <time>2020-02-23T10:58:48Z</time>
      </trkpt>
      <trkpt lat="43.79329" lon="5.27181">
        <ele>662.9</ele>
        <time>2020-02-23T10:59:03Z</time>
      </trkpt>
      <trkpt lat="43.79318" lon="5.27217">
        <ele>657.5</ele>
        <time>2020-02-23T10:59:11Z</time>
      </trkpt>
      <trkpt lat="43.79323" lon="5.27229">
        <ele>656.8</ele>
        <time>2020-02-23T10:59:17Z</time>
      </trkpt>
      <trkpt lat="43.79316" lon="5.27291">
        <ele>654</ele>
        <time>2020-02-23T10:59:32Z</time>
      </trkpt>
      <trkpt lat="43.79324" lon="5.2732">
        <ele>651.1</ele>
        <time>2020-02-23T10:59:38Z</time>
      </trkpt>
      <trkpt lat="43.79317" lon="5.27351">
        <ele>647.5</ele>
        <time>2020-02-23T10:59:44Z</time>
      </trkpt>
      <trkpt lat="43.7931" lon="5.27363">
        <ele>646.5</ele>
        <time>2020-02-23T10:59:47Z</time>
      </trkpt>
      <trkpt lat="43.79294" lon="5.27455">
        <ele>637.1</ele>
        <time>2020-02-23T11:00:05Z</time>
      </trkpt>
      <trkpt lat="43.79287" lon="5.27478">
        <ele>636.3</ele>
        <time>2020-02-23T11:00:11Z</time>
      </trkpt>
      <trkpt lat="43.79244" lon="5.27542">
        <ele>631.3</ele>
        <time>2020-02-23T11:00:31Z</time>
      </trkpt>
      <trkpt lat="43.79234" lon="5.27568">
        <ele>629.5</ele>
        <time>2020-02-23T11:00:40Z</time>
      </trkpt>
      <trkpt lat="43.7922" lon="5.2758">
        <ele>625.8</ele>
        <time>2020-02-23T11:00:47Z</time>
      </trkpt>
      <trkpt lat="43.79214" lon="5.27593">
        <ele>624.1</ele>
        <time>2020-02-23T11:00:57Z</time>
      </trkpt>
      <trkpt lat="43.79199" lon="5.27605">
        <ele>618.1</ele>
        <time>2020-02-23T11:01:04Z</time>
      </trkpt>
      <trkpt lat="43.79194" lon="5.27623">
        <ele>614</ele>
        <time>2020-02-23T11:01:17Z</time>
      </trkpt>
      <trkpt lat="43.79169" lon="5.27611">
        <ele>607.8</ele>
        <time>2020-02-23T11:01:37Z</time>
      </trkpt>
      <trkpt lat="43.79125" lon="5.27634">
        <ele>590.9</ele>
        <time>2020-02-23T11:01:54Z</time>
      </trkpt>
      <trkpt lat="43.79111" lon="5.27629">
        <ele>587.3</ele>
        <time>2020-02-23T11:01:59Z</time>
      </trkpt>
      <trkpt lat="43.79096" lon="5.27636">
        <ele>583.8</ele>
        <time>2020-02-23T11:02:04Z</time>
      </trkpt>
      <trkpt lat="43.79067" lon="5.27633">
        <ele>577.9</ele>
        <time>2020-02-23T11:02:11Z</time>
      </trkpt>
      <trkpt lat="43.79014" lon="5.27642">
        <ele>570.7</ele>
        <time>2020-02-23T11:02:21Z</time>
      </trkpt>
      <trkpt lat="43.79002" lon="5.27637">
        <ele>569.8</ele>
        <time>2020-02-23T11:02:23Z</time>
      </trkpt>
      <trkpt lat="43.78942" lon="5.27566">
        <ele>577.2</ele>
        <time>2020-02-23T11:02:54Z</time>
      </trkpt>
      <trkpt lat="43.78941" lon="5.27554">
        <ele>575.9</ele>
        <time>2020-02-23T11:02:58Z</time>
      </trkpt>
      <trkpt lat="43.78931" lon="5.27535">
        <ele>576.5</ele>
        <time>2020-02-23T11:03:06Z</time>
      </trkpt>
      <trkpt lat="43.78924" lon="5.2751">
        <ele>575.1</ele>
        <time>2020-02-23T11:03:15Z</time>
      </trkpt>
      <trkpt lat="43.78908" lon="5.27489">
        <ele>575.8</ele>
        <time>2020-02-23T11:03:25Z</time>
      </trkpt>
      <trkpt lat="43.78867" lon="5.27483">
        <ele>573.7</ele>
        <time>2020-02-23T11:03:39Z</time>
      </trkpt>
      <trkpt lat="43.78855" lon="5.27488">
        <ele>574.1</ele>
        <time>2020-02-23T11:03:42Z</time>
      </trkpt>
      <trkpt lat="43.78835" lon="5.27485">
        <ele>572</ele>
        <time>2020-02-23T11:03:46Z</time>
      </trkpt>
      <trkpt lat="43.78797" lon="5.27471">
        <ele>572.5</ele>
        <time>2020-02-23T11:03:58Z</time>
      </trkpt>
      <trkpt lat="43.78756" lon="5.27445">
        <ele>574.7</ele>
        <time>2020-02-23T11:04:18Z</time>
      </trkpt>
      <trkpt lat="43.7875" lon="5.27434">
        <ele>576.1</ele>
        <time>2020-02-23T11:04:23Z</time>
      </trkpt>
      <trkpt lat="43.78724" lon="5.27418">
        <ele>578.7</ele>
        <time>2020-02-23T11:04:39Z</time>
      </trkpt>
      <trkpt lat="43.7871" lon="5.27414">
        <ele>578.6</ele>
        <time>2020-02-23T11:04:46Z</time>
      </trkpt>
      <trkpt lat="43.78694" lon="5.27397">
        <ele>580.4</ele>
        <time>2020-02-23T11:04:56Z</time>
      </trkpt>
      <trkpt lat="43.78661" lon="5.27377">
        <ele>578.8</ele>
        <time>2020-02-23T11:05:11Z</time>
      </trkpt>
      <trkpt lat="43.78639" lon="5.27371">
        <ele>574.8</ele>
        <time>2020-02-23T11:05:19Z</time>
      </trkpt>
      <trkpt lat="43.7859" lon="5.27399">
        <ele>576.3</ele>
        <time>2020-02-23T11:05:42Z</time>
      </trkpt>
      <trkpt lat="43.78578" lon="5.274">
        <ele>577.2</ele>
        <time>2020-02-23T11:05:48Z</time>
      </trkpt>
      <trkpt lat="43.78553" lon="5.27387">
        <ele>579.2</ele>
        <time>2020-02-23T11:06:01Z</time>
      </trkpt>
      <trkpt lat="43.78536" lon="5.27364">
        <ele>580.5</ele>
        <time>2020-02-23T11:06:13Z</time>
      </trkpt>
      <trkpt lat="43.7851" lon="5.27302">
        <ele>574.7</ele>
        <time>2020-02-23T11:06:29Z</time>
      </trkpt>
      <trkpt lat="43.78484" lon="5.27263">
        <ele>571.5</ele>
        <time>2020-02-23T11:06:39Z</time>
      </trkpt>
      <trkpt lat="43.78457" lon="5.27241">
        <ele>563.8</ele>
        <time>2020-02-23T11:06:53Z</time>
      </trkpt>
      <trkpt lat="43.78448" lon="5.27245">
        <ele>562.1</ele>
        <time>2020-02-23T11:06:57Z</time>
      </trkpt>
      <trkpt lat="43.78382" lon="5.27236">
        <ele>548.9</ele>
        <time>2020-02-23T11:07:22Z</time>
      </trkpt>
      <trkpt lat="43.7836" lon="5.27214">
        <ele>548.2</ele>
        <time>2020-02-23T11:07:32Z</time>
      </trkpt>
      <trkpt lat="43.78347" lon="5.27217">
        <ele>547</ele>
        <time>2020-02-23T11:07:37Z</time>
      </trkpt>
      <trkpt lat="43.78342" lon="5.27203">
        <ele>545.5</ele>
        <time>2020-02-23T11:07:45Z</time>
      </trkpt>
      <trkpt lat="43.78349" lon="5.2718">
        <ele>543.9</ele>
        <time>2020-02-23T11:07:56Z</time>
      </trkpt>
      <trkpt lat="43.78341" lon="5.27151">
        <ele>538.9</ele>
        <time>2020-02-23T11:08:04Z</time>
      </trkpt>
      <trkpt lat="43.78335" lon="5.27107">
        <ele>532.4</ele>
        <time>2020-02-23T11:08:16Z</time>
      </trkpt>
      <trkpt lat="43.78301" lon="5.27054">
        <ele>528.9</ele>
        <time>2020-02-23T11:08:34Z</time>
      </trkpt>
      <trkpt lat="43.78298" lon="5.27031">
        <ele>528.4</ele>
        <time>2020-02-23T11:08:41Z</time>
      </trkpt>
      <trkpt lat="43.78292" lon="5.2702">
        <ele>528</ele>
        <time>2020-02-23T11:08:46Z</time>
      </trkpt>
      <trkpt lat="43.78295" lon="5.27015">
        <ele>528</ele>
        <time>2020-02-23T11:08:49Z</time>
      </trkpt>
      <trkpt lat="43.78293" lon="5.2701">
        <ele>528</ele>
        <time>2020-02-23T11:08:52Z</time>
      </trkpt>
      <trkpt lat="43.78295" lon="5.27003">
        <ele>527.8</ele>
        <time>2020-02-23T11:08:55Z</time>
      </trkpt>
      <trkpt lat="43.78294" lon="5.26977">
        <ele>526.9</ele>
        <time>2020-02-23T11:09:02Z</time>
      </trkpt>
      <trkpt lat="43.78276" lon="5.26946">
        <ele>527.1</ele>
        <time>2020-02-23T11:09:13Z</time>
      </trkpt>
      <trkpt lat="43.78261" lon="5.26935">
        <ele>526.1</ele>
        <time>2020-02-23T11:09:19Z</time>
      </trkpt>
      <trkpt lat="43.78257" lon="5.26916">
        <ele>525.6</ele>
        <time>2020-02-23T11:09:26Z</time>
      </trkpt>
      <trkpt lat="43.78244" lon="5.26902">
        <ele>523.2</ele>
        <time>2020-02-23T11:09:32Z</time>
      </trkpt>
      <trkpt lat="43.78237" lon="5.26877">
        <ele>519.8</ele>
        <time>2020-02-23T11:09:39Z</time>
      </trkpt>
      <trkpt lat="43.78238" lon="5.26864">
        <ele>518.4</ele>
        <time>2020-02-23T11:09:42Z</time>
      </trkpt>
      <trkpt lat="43.7823" lon="5.26846">
        <ele>517.1</ele>
        <time>2020-02-23T11:09:49Z</time>
      </trkpt>
      <trkpt lat="43.7822" lon="5.26836">
        <ele>516.6</ele>
        <time>2020-02-23T11:09:54Z</time>
      </trkpt>
      <trkpt lat="43.78215" lon="5.26815">
        <ele>516.3</ele>
        <time>2020-02-23T11:10:01Z</time>
      </trkpt>
      <trkpt lat="43.78192" lon="5.26791">
        <ele>514.1</ele>
        <time>2020-02-23T11:10:09Z</time>
      </trkpt>
      <trkpt lat="43.7818" lon="5.26787">
        <ele>512.2</ele>
        <time>2020-02-23T11:10:14Z</time>
      </trkpt>
      <trkpt lat="43.78171" lon="5.26774">
        <ele>511.2</ele>
        <time>2020-02-23T11:10:18Z</time>
      </trkpt>
      <trkpt lat="43.78155" lon="5.26764">
        <ele>508.9</ele>
        <time>2020-02-23T11:10:23Z</time>
      </trkpt>
      <trkpt lat="43.78149" lon="5.26751">
        <ele>508.7</ele>
        <time>2020-02-23T11:10:27Z</time>
      </trkpt>
      <trkpt lat="43.78126" lon="5.26723">
        <ele>507.5</ele>
        <time>2020-02-23T11:10:37Z</time>
      </trkpt>
      <trkpt lat="43.78098" lon="5.26711">
        <ele>505.5</ele>
        <time>2020-02-23T11:10:51Z</time>
      </trkpt>
      <trkpt lat="43.78093" lon="5.26714">
        <ele>505.6</ele>
        <time>2020-02-23T11:11:02Z</time>
      </trkpt>
      <trkpt lat="43.7808" lon="5.26699">
        <ele>506.1</ele>
        <time>2020-02-23T11:11:16Z</time>
      </trkpt>
      <trkpt lat="43.78039" lon="5.26676">
        <ele>507.3</ele>
        <time>2020-02-23T11:11:37Z</time>
      </trkpt>
      <trkpt lat="43.78036" lon="5.26668">
        <ele>507.7</ele>
        <time>2020-02-23T11:11:41Z</time>
      </trkpt>
      <trkpt lat="43.78026" lon="5.2666">
        <ele>506.9</ele>
        <time>2020-02-23T11:11:45Z</time>
      </trkpt>
      <trkpt lat="43.78014" lon="5.26641">
        <ele>505</ele>
        <time>2020-02-23T11:11:51Z</time>
      </trkpt>
      <trkpt lat="43.77999" lon="5.26631">
        <ele>504</ele>
        <time>2020-02-23T11:11:59Z</time>
      </trkpt>
      <trkpt lat="43.77981" lon="5.26608">
        <ele>500.7</ele>
        <time>2020-02-23T11:12:08Z</time>
      </trkpt>
      <trkpt lat="43.77961" lon="5.26598">
        <ele>498.4</ele>
        <time>2020-02-23T11:12:16Z</time>
      </trkpt>
      <trkpt lat="43.77916" lon="5.26552">
        <ele>494</ele>
        <time>2020-02-23T11:12:39Z</time>
      </trkpt>
      <trkpt lat="43.77905" lon="5.26554">
        <ele>491.7</ele>
        <time>2020-02-23T11:12:44Z</time>
      </trkpt>
      <trkpt lat="43.77893" lon="5.26545">
        <ele>488.3</ele>
        <time>2020-02-23T11:12:49Z</time>
      </trkpt>
      <trkpt lat="43.77886" lon="5.26554">
        <ele>486.9</ele>
        <time>2020-02-23T11:12:53Z</time>
      </trkpt>
      <trkpt lat="43.77877" lon="5.26555">
        <ele>484.1</ele>
        <time>2020-02-23T11:12:57Z</time>
      </trkpt>
      <trkpt lat="43.77866" lon="5.26576">
        <ele>478.4</ele>
        <time>2020-02-23T11:13:06Z</time>
      </trkpt>
      <trkpt lat="43.77851" lon="5.2659">
        <ele>471</ele>
        <time>2020-02-23T11:13:16Z</time>
      </trkpt>
      <trkpt lat="43.77848" lon="5.26598">
        <ele>468.6</ele>
        <time>2020-02-23T11:13:20Z</time>
      </trkpt>
      <trkpt lat="43.77841" lon="5.26597">
        <ele>465.5</ele>
        <time>2020-02-23T11:13:25Z</time>
      </trkpt>
      <trkpt lat="43.77827" lon="5.26606">
        <ele>458.2</ele>
        <time>2020-02-23T11:13:34Z</time>
      </trkpt>
      <trkpt lat="43.77821" lon="5.26621">
        <ele>452.7</ele>
        <time>2020-02-23T11:13:40Z</time>
      </trkpt>
      <trkpt lat="43.77813" lon="5.2668">
        <ele>435.6</ele>
        <time>2020-02-23T11:14:09Z</time>
      </trkpt>
      <trkpt lat="43.778" lon="5.26686">
        <ele>428.4</ele>
        <time>2020-02-23T11:14:33Z</time>
      </trkpt>
      <trkpt lat="43.77783" lon="5.26676">
        <ele>422.4</ele>
        <time>2020-02-23T11:14:43Z</time>
      </trkpt>
      <trkpt lat="43.77762" lon="5.26652">
        <ele>416</ele>
        <time>2020-02-23T11:14:50Z</time>
      </trkpt>
      <trkpt lat="43.77736" lon="5.26609">
        <ele>408</ele>
        <time>2020-02-23T11:15:02Z</time>
      </trkpt>
      <trkpt lat="43.77718" lon="5.26591">
        <ele>401.1</ele>
        <time>2020-02-23T11:15:10Z</time>
      </trkpt>
      <trkpt lat="43.77705" lon="5.26584">
        <ele>395.7</ele>
        <time>2020-02-23T11:15:15Z</time>
      </trkpt>
      <trkpt lat="43.77697" lon="5.26605">
        <ele>389.6</ele>
        <time>2020-02-23T11:15:22Z</time>
      </trkpt>
      <trkpt lat="43.77681" lon="5.26631">
        <ele>381.9</ele>
        <time>2020-02-23T11:15:29Z</time>
      </trkpt>
      <trkpt lat="43.77651" lon="5.26649">
        <ele>375.6</ele>
        <time>2020-02-23T11:15:35Z</time>
      </trkpt>
      <trkpt lat="43.77627" lon="5.26645">
        <ele>377</ele>
        <time>2020-02-23T11:15:39Z</time>
      </trkpt>
      <trkpt lat="43.77592" lon="5.26631">
        <ele>381.1</ele>
        <time>2020-02-23T11:15:53Z</time>
      </trkpt>
      <trkpt lat="43.7757" lon="5.26632">
        <ele>384.1</ele>
        <time>2020-02-23T11:16:07Z</time>
      </trkpt>
      <trkpt lat="43.7755" lon="5.2664">
        <ele>386.3</ele>
        <time>2020-02-23T11:16:23Z</time>
      </trkpt>
      <trkpt lat="43.77523" lon="5.26639">
        <ele>389.2</ele>
        <time>2020-02-23T11:16:41Z</time>
      </trkpt>
      <trkpt lat="43.77489" lon="5.26608">
        <ele>384.2</ele>
        <time>2020-02-23T11:16:53Z</time>
      </trkpt>
      <trkpt lat="43.77484" lon="5.26595">
        <ele>384.1</ele>
        <time>2020-02-23T11:16:56Z</time>
      </trkpt>
      <trkpt lat="43.77457" lon="5.26603">
        <ele>379.5</ele>
        <time>2020-02-23T11:17:03Z</time>
      </trkpt>
      <trkpt lat="43.77424" lon="5.26604">
        <ele>373.5</ele>
        <time>2020-02-23T11:17:10Z</time>
      </trkpt>
      <trkpt lat="43.77389" lon="5.26593">
        <ele>365.7</ele>
        <time>2020-02-23T11:17:18Z</time>
      </trkpt>
      <trkpt lat="43.77313" lon="5.26588">
        <ele>349.9</ele>
        <time>2020-02-23T11:17:33Z</time>
      </trkpt>
      <trkpt lat="43.77301" lon="5.26592">
        <ele>348.7</ele>
        <time>2020-02-23T11:17:36Z</time>
      </trkpt>
      <trkpt lat="43.77285" lon="5.26607">
        <ele>345.1</ele>
        <time>2020-02-23T11:17:41Z</time>
      </trkpt>
      <trkpt lat="43.77234" lon="5.26625">
        <ele>336.3</ele>
        <time>2020-02-23T11:17:56Z</time>
      </trkpt>
      <trkpt lat="43.77194" lon="5.26629">
        <ele>329.6</ele>
        <time>2020-02-23T11:18:05Z</time>
      </trkpt>
      <trkpt lat="43.77175" lon="5.26642">
        <ele>323.6</ele>
        <time>2020-02-23T11:18:14Z</time>
      </trkpt>
      <trkpt lat="43.77149" lon="5.26648">
        <ele>318.9</ele>
        <time>2020-02-23T11:18:23Z</time>
      </trkpt>
      <trkpt lat="43.77123" lon="5.26641">
        <ele>311.7</ele>
        <time>2020-02-23T11:18:32Z</time>
      </trkpt>
      <trkpt lat="43.77084" lon="5.26666">
        <ele>303.3</ele>
        <time>2020-02-23T11:18:46Z</time>
      </trkpt>
      <trkpt lat="43.77058" lon="5.26662">
        <ele>300.8</ele>
        <time>2020-02-23T11:18:53Z</time>
      </trkpt>
      <trkpt lat="43.7704" lon="5.26649">
        <ele>298.9</ele>
        <time>2020-02-23T11:18:56Z</time>
      </trkpt>
      <trkpt lat="43.76964" lon="5.26522">
        <ele>295.3</ele>
        <time>2020-02-23T11:19:29Z</time>
      </trkpt>
      <trkpt lat="43.76935" lon="5.26483">
        <ele>294.9</ele>
        <time>2020-02-23T11:19:41Z</time>
      </trkpt>
      <trkpt lat="43.76918" lon="5.26448">
        <ele>293.2</ele>
        <time>2020-02-23T11:19:50Z</time>
      </trkpt>
      <trkpt lat="43.76896" lon="5.26418">
        <ele>288</ele>
        <time>2020-02-23T11:19:56Z</time>
      </trkpt>
      <trkpt lat="43.76896" lon="5.26407">
        <ele>286.4</ele>
        <time>2020-02-23T11:19:58Z</time>
      </trkpt>
      <trkpt lat="43.76909" lon="5.2638">
        <ele>288.1</ele>
        <time>2020-02-23T11:20:12Z</time>
      </trkpt>
      <trkpt lat="43.76895" lon="5.26356">
        <ele>288.3</ele>
        <time>2020-02-23T11:20:40Z</time>
      </trkpt>
      <trkpt lat="43.76906" lon="5.26272">
        <ele>294.7</ele>
        <time>2020-02-23T11:21:06Z</time>
      </trkpt>
      <trkpt lat="43.76901" lon="5.26202">
        <ele>290.8</ele>
        <time>2020-02-23T11:21:28Z</time>
      </trkpt>
      <trkpt lat="43.76903" lon="5.26197">
        <ele>290.8</ele>
        <time>2020-02-23T11:21:32Z</time>
      </trkpt>
      <trkpt lat="43.76936" lon="5.26196">
        <ele>294.7</ele>
        <time>2020-02-23T11:22:14Z</time>
      </trkpt>
      <trkpt lat="43.76948" lon="5.26205">
        <ele>297</ele>
        <time>2020-02-23T11:22:20Z</time>
      </trkpt>
      <trkpt lat="43.7698" lon="5.26218">
        <ele>298.8</ele>
        <time>2020-02-23T11:22:32Z</time>
      </trkpt>
      <trkpt lat="43.77013" lon="5.26222">
        <ele>298.5</ele>
        <time>2020-02-23T11:22:43Z</time>
      </trkpt>
      <trkpt lat="43.77026" lon="5.26215">
        <ele>298.2</ele>
        <time>2020-02-23T11:22:46Z</time>
      </trkpt>
      <trkpt lat="43.77023" lon="5.26189">
        <ele>299.7</ele>
        <time>2020-02-23T11:22:59Z</time>
      </trkpt>
      <trkpt lat="43.77001" lon="5.26154">
        <ele>303.9</ele>
        <time>2020-02-23T11:23:28Z</time>
      </trkpt>
      <trkpt lat="43.76991" lon="5.26146">
        <ele>302.1</ele>
        <time>2020-02-23T11:23:32Z</time>
      </trkpt>
      <trkpt lat="43.76983" lon="5.2609">
        <ele>307.1</ele>
        <time>2020-02-23T11:24:06Z</time>
      </trkpt>
      <trkpt lat="43.76993" lon="5.26049">
        <ele>309</ele>
        <time>2020-02-23T11:24:46Z</time>
      </trkpt>
      <trkpt lat="43.76994" lon="5.26027">
        <ele>305.1</ele>
        <time>2020-02-23T11:24:53Z</time>
      </trkpt>
      <trkpt lat="43.77002" lon="5.26003">
        <ele>300.5</ele>
        <time>2020-02-23T11:25:02Z</time>
      </trkpt>
      <trkpt lat="43.77046" lon="5.25971">
        <ele>300.7</ele>
        <time>2020-02-23T11:25:22Z</time>
      </trkpt>
      <trkpt lat="43.77048" lon="5.25966">
        <ele>299</ele>
        <time>2020-02-23T11:25:25Z</time>
      </trkpt>
      <trkpt lat="43.77067" lon="5.25955">
        <ele>295.6</ele>
        <time>2020-02-23T11:25:36Z</time>
      </trkpt>
      <trkpt lat="43.77086" lon="5.25962">
        <ele>297.4</ele>
        <time>2020-02-23T11:25:47Z</time>
      </trkpt>
      <trkpt lat="43.77092" lon="5.25955">
        <ele>296.1</ele>
        <time>2020-02-23T11:25:52Z</time>
      </trkpt>
      <trkpt lat="43.77064" lon="5.25908">
        <ele>280.6</ele>
        <time>2020-02-23T11:26:08Z</time>
      </trkpt>
      <trkpt lat="43.77055" lon="5.25907">
        <ele>278.6</ele>
        <time>2020-02-23T11:26:12Z</time>
      </trkpt>
      <trkpt lat="43.77046" lon="5.25892">
        <ele>274</ele>
        <time>2020-02-23T11:26:17Z</time>
      </trkpt>
      <trkpt lat="43.7702" lon="5.25894">
        <ele>270.3</ele>
        <time>2020-02-23T11:26:24Z</time>
      </trkpt>
      <trkpt lat="43.76979" lon="5.25911">
        <ele>263.6</ele>
        <time>2020-02-23T11:26:34Z</time>
      </trkpt>
      <trkpt lat="43.7694" lon="5.25912">
        <ele>255.6</ele>
        <time>2020-02-23T11:26:44Z</time>
      </trkpt>
      <trkpt lat="43.76932" lon="5.25907">
        <ele>254.2</ele>
        <time>2020-02-23T11:26:46Z</time>
      </trkpt>
      <trkpt lat="43.76915" lon="5.25865">
        <ele>254</ele>
        <time>2020-02-23T11:26:57Z</time>
      </trkpt>
      <trkpt lat="43.7691" lon="5.25828">
        <ele>259.1</ele>
        <time>2020-02-23T11:27:10Z</time>
      </trkpt>
      <trkpt lat="43.76919" lon="5.25782">
        <ele>257.1</ele>
        <time>2020-02-23T11:27:22Z</time>
      </trkpt>
      <trkpt lat="43.76938" lon="5.25756">
        <ele>257.6</ele>
        <time>2020-02-23T11:27:30Z</time>
      </trkpt>
      <trkpt lat="43.76963" lon="5.25732">
        <ele>260.5</ele>
        <time>2020-02-23T11:27:42Z</time>
      </trkpt>
      <trkpt lat="43.7697" lon="5.2571">
        <ele>259.2</ele>
        <time>2020-02-23T11:27:50Z</time>
      </trkpt>
      <trkpt lat="43.7699" lon="5.25667">
        <ele>261.3</ele>
        <time>2020-02-23T11:28:07Z</time>
      </trkpt>
      <trkpt lat="43.77022" lon="5.25629">
        <ele>266</ele>
        <time>2020-02-23T11:28:28Z</time>
      </trkpt>
      <trkpt lat="43.77026" lon="5.25608">
        <ele>267.3</ele>
        <time>2020-02-23T11:28:39Z</time>
      </trkpt>
      <trkpt lat="43.77027" lon="5.2556">
        <ele>266.9</ele>
        <time>2020-02-23T11:28:57Z</time>
      </trkpt>
      <trkpt lat="43.76986" lon="5.2553">
        <ele>261.6</ele>
        <time>2020-02-23T11:29:10Z</time>
      </trkpt>
      <trkpt lat="43.76978" lon="5.25508">
        <ele>259.5</ele>
        <time>2020-02-23T11:29:15Z</time>
      </trkpt>
      <trkpt lat="43.76976" lon="5.25479">
        <ele>255.7</ele>
        <time>2020-02-23T11:29:18Z</time>
      </trkpt>
      <trkpt lat="43.76983" lon="5.25449">
        <ele>253.7</ele>
        <time>2020-02-23T11:29:23Z</time>
      </trkpt>
      <trkpt lat="43.7698" lon="5.25399">
        <ele>250.8</ele>
        <time>2020-02-23T11:29:32Z</time>
      </trkpt>
      <trkpt lat="43.77013" lon="5.25344">
        <ele>255.8</ele>
        <time>2020-02-23T11:29:56Z</time>
      </trkpt>
      <trkpt lat="43.77014" lon="5.25317">
        <ele>254</ele>
        <time>2020-02-23T11:30:02Z</time>
      </trkpt>
      <trkpt lat="43.7701" lon="5.25301">
        <ele>252.1</ele>
        <time>2020-02-23T11:30:05Z</time>
      </trkpt>
      <trkpt lat="43.77012" lon="5.2529">
        <ele>250.5</ele>
        <time>2020-02-23T11:30:08Z</time>
      </trkpt>
      <trkpt lat="43.77028" lon="5.25281">
        <ele>248</ele>
        <time>2020-02-23T11:30:18Z</time>
      </trkpt>
      <trkpt lat="43.77051" lon="5.25243">
        <ele>241.7</ele>
        <time>2020-02-23T11:30:33Z</time>
      </trkpt>
      <trkpt lat="43.7705" lon="5.25236">
        <ele>238.9</ele>
        <time>2020-02-23T11:30:41Z</time>
      </trkpt>
      <trkpt lat="43.77031" lon="5.25239">
        <ele>232.1</ele>
        <time>2020-02-23T11:31:00Z</time>
      </trkpt>
      <trkpt lat="43.77032" lon="5.2521">
        <ele>225.3</ele>
        <time>2020-02-23T11:31:12Z</time>
      </trkpt>
      <trkpt lat="43.77042" lon="5.25187">
        <ele>224.2</ele>
        <time>2020-02-23T11:31:16Z</time>
      </trkpt>
      <trkpt lat="43.77079" lon="5.25182">
        <ele>227.2</ele>
        <time>2020-02-23T11:31:29Z</time>
      </trkpt>
      <trkpt lat="43.77086" lon="5.25187">
        <ele>229.2</ele>
        <time>2020-02-23T11:31:34Z</time>
      </trkpt>
      <trkpt lat="43.77095" lon="5.25177">
        <ele>225.8</ele>
        <time>2020-02-23T11:31:40Z</time>
      </trkpt>
      <trkpt lat="43.77127" lon="5.25184">
        <ele>228.7</ele>
        <time>2020-02-23T11:32:00Z</time>
      </trkpt>
      <trkpt lat="43.77146" lon="5.25179">
        <ele>230.4</ele>
        <time>2020-02-23T11:32:12Z</time>
      </trkpt>
      <trkpt lat="43.7715" lon="5.25164">
        <ele>226.8</ele>
        <time>2020-02-23T11:32:16Z</time>
      </trkpt>
      <trkpt lat="43.77122" lon="5.25144">
        <ele>228.4</ele>
        <time>2020-02-23T11:32:30Z</time>
      </trkpt>
      <trkpt lat="43.77097" lon="5.25114">
        <ele>231.9</ele>
        <time>2020-02-23T11:32:51Z</time>
      </trkpt>
      <trkpt lat="43.77081" lon="5.25104">
        <ele>232.7</ele>
        <time>2020-02-23T11:33:01Z</time>
      </trkpt>
      <trkpt lat="43.77051" lon="5.25096">
        <ele>234.9</ele>
        <time>2020-02-23T11:33:18Z</time>
      </trkpt>
      <trkpt lat="43.77029" lon="5.25098">
        <ele>235.4</ele>
        <time>2020-02-23T11:33:30Z</time>
      </trkpt>
      <trkpt lat="43.76993" lon="5.25115">
        <ele>239.1</ele>
        <time>2020-02-23T11:33:52Z</time>
      </trkpt>
      <trkpt lat="43.7698" lon="5.25113">
        <ele>241.3</ele>
        <time>2020-02-23T11:33:58Z</time>
      </trkpt>
      <trkpt lat="43.76957" lon="5.251">
        <ele>248.2</ele>
        <time>2020-02-23T11:34:10Z</time>
      </trkpt>
      <trkpt lat="43.76942" lon="5.25098">
        <ele>248.8</ele>
        <time>2020-02-23T11:34:19Z</time>
      </trkpt>
      <trkpt lat="43.76919" lon="5.25077">
        <ele>252.7</ele>
        <time>2020-02-23T11:34:34Z</time>
      </trkpt>
      <trkpt lat="43.76924" lon="5.25061">
        <ele>254.8</ele>
        <time>2020-02-23T11:34:42Z</time>
      </trkpt>
      <trkpt lat="43.76923" lon="5.25052">
        <ele>255.6</ele>
        <time>2020-02-23T11:34:46Z</time>
      </trkpt>
      <trkpt lat="43.76927" lon="5.25037">
        <ele>256.4</ele>
        <time>2020-02-23T11:34:52Z</time>
      </trkpt>
      <trkpt lat="43.76928" lon="5.24962">
        <ele>256.2</ele>
        <time>2020-02-23T11:35:10Z</time>
      </trkpt>
      <trkpt lat="43.76959" lon="5.24917">
        <ele>258.1</ele>
        <time>2020-02-23T11:35:25Z</time>
      </trkpt>
      <trkpt lat="43.76967" lon="5.24876">
        <ele>258.6</ele>
        <time>2020-02-23T11:35:37Z</time>
      </trkpt>
      <trkpt lat="43.76959" lon="5.24867">
        <ele>257.6</ele>
        <time>2020-02-23T11:35:40Z</time>
      </trkpt>
      <trkpt lat="43.76961" lon="5.24852">
        <ele>257.8</ele>
        <time>2020-02-23T11:35:44Z</time>
      </trkpt>
      <trkpt lat="43.7697" lon="5.24838">
        <ele>258.7</ele>
        <time>2020-02-23T11:35:49Z</time>
      </trkpt>
      <trkpt lat="43.76951" lon="5.24773">
        <ele>254.3</ele>
        <time>2020-02-23T11:36:00Z</time>
      </trkpt>
      <trkpt lat="43.76935" lon="5.24739">
        <ele>251.5</ele>
        <time>2020-02-23T11:36:07Z</time>
      </trkpt>
      <trkpt lat="43.76924" lon="5.24699">
        <ele>248</ele>
        <time>2020-02-23T11:36:14Z</time>
      </trkpt>
      <trkpt lat="43.76932" lon="5.24687">
        <ele>248.4</ele>
        <time>2020-02-23T11:36:18Z</time>
      </trkpt>
      <trkpt lat="43.7693" lon="5.24649">
        <ele>246.8</ele>
        <time>2020-02-23T11:36:27Z</time>
      </trkpt>
      <trkpt lat="43.76935" lon="5.24634">
        <ele>246.9</ele>
        <time>2020-02-23T11:36:31Z</time>
      </trkpt>
      <trkpt lat="43.76946" lon="5.24629">
        <ele>248.1</ele>
        <time>2020-02-23T11:36:43Z</time>
      </trkpt>
      <trkpt lat="43.76892" lon="5.24573">
        <ele>243</ele>
        <time>2020-02-23T11:44:05Z</time>
      </trkpt>
      <trkpt lat="43.76869" lon="5.24556">
        <ele>240.6</ele>
        <time>2020-02-23T11:44:11Z</time>
      </trkpt>
      <trkpt lat="43.76846" lon="5.24513">
        <ele>237.6</ele>
        <time>2020-02-23T11:44:19Z</time>
      </trkpt>
      <trkpt lat="43.76837" lon="5.24481">
        <ele>235.7</ele>
        <time>2020-02-23T11:44:24Z</time>
      </trkpt>
      <trkpt lat="43.76836" lon="5.2446">
        <ele>234.8</ele>
        <time>2020-02-23T11:44:27Z</time>
      </trkpt>
      <trkpt lat="43.76847" lon="5.24432">
        <ele>234.5</ele>
        <time>2020-02-23T11:44:33Z</time>
      </trkpt>
      <trkpt lat="43.76847" lon="5.2441">
        <ele>233.7</ele>
        <time>2020-02-23T11:44:37Z</time>
      </trkpt>
      <trkpt lat="43.76828" lon="5.24374">
        <ele>230.5</ele>
        <time>2020-02-23T11:44:46Z</time>
      </trkpt>
      <trkpt lat="43.7682" lon="5.24331">
        <ele>228.1</ele>
        <time>2020-02-23T11:44:53Z</time>
      </trkpt>
      <trkpt lat="43.76773" lon="5.24247">
        <ele>221.6</ele>
        <time>2020-02-23T11:45:13Z</time>
      </trkpt>
      <trkpt lat="43.76763" lon="5.24252">
        <ele>218.8</ele>
        <time>2020-02-23T11:45:18Z</time>
      </trkpt>
      <trkpt lat="43.76739" lon="5.24277">
        <ele>216.2</ele>
        <time>2020-02-23T11:45:28Z</time>
      </trkpt>
      <trkpt lat="43.76734" lon="5.24269">
        <ele>215.5</ele>
        <time>2020-02-23T11:45:31Z</time>
      </trkpt>
      <trkpt lat="43.76742" lon="5.24248">
        <ele>215</ele>
        <time>2020-02-23T11:45:36Z</time>
      </trkpt>
      <trkpt lat="43.76737" lon="5.24234">
        <ele>213.9</ele>
        <time>2020-02-23T11:45:39Z</time>
      </trkpt>
      <trkpt lat="43.7673" lon="5.24229">
        <ele>212.2</ele>
        <time>2020-02-23T11:45:41Z</time>
      </trkpt>
      <trkpt lat="43.76714" lon="5.24231">
        <ele>210.6</ele>
        <time>2020-02-23T11:45:45Z</time>
      </trkpt>
      <trkpt lat="43.76667" lon="5.24209">
        <ele>208</ele>
        <time>2020-02-23T11:45:58Z</time>
      </trkpt>
      <trkpt lat="43.76649" lon="5.24175">
        <ele>207.5</ele>
        <time>2020-02-23T11:46:09Z</time>
      </trkpt>
      <trkpt lat="43.76638" lon="5.24135">
        <ele>199.8</ele>
        <time>2020-02-23T11:46:19Z</time>
      </trkpt>
      <trkpt lat="43.76626" lon="5.24124">
        <ele>200.4</ele>
        <time>2020-02-23T11:46:26Z</time>
      </trkpt>
      <trkpt lat="43.76605" lon="5.2409">
        <ele>190.8</ele>
        <time>2020-02-23T11:46:35Z</time>
      </trkpt>
      <trkpt lat="43.76599" lon="5.24067">
        <ele>188.4</ele>
        <time>2020-02-23T11:46:40Z</time>
      </trkpt>
      <trkpt lat="43.76603" lon="5.24063">
        <ele>187.5</ele>
        <time>2020-02-23T11:46:42Z</time>
      </trkpt>
      <trkpt lat="43.76639" lon="5.24069">
        <ele>190.5</ele>
        <time>2020-02-23T11:46:57Z</time>
      </trkpt>
      <trkpt lat="43.76728" lon="5.24066">
        <ele>194.5</ele>
        <time>2020-02-23T11:47:32Z</time>
      </trkpt>
      <trkpt lat="43.76756" lon="5.24074">
        <ele>197.2</ele>
        <time>2020-02-23T11:47:43Z</time>
      </trkpt>
      <trkpt lat="43.76815" lon="5.24142">
        <ele>199.3</ele>
        <time>2020-02-23T11:48:13Z</time>
      </trkpt>
      <trkpt lat="43.76902" lon="5.24189">
        <ele>206.2</ele>
        <time>2020-02-23T11:48:50Z</time>
      </trkpt>
      <trkpt lat="43.76947" lon="5.2419">
        <ele>210.2</ele>
        <time>2020-02-23T11:49:09Z</time>
      </trkpt>
      <trkpt lat="43.77022" lon="5.24169">
        <ele>212.9</ele>
        <time>2020-02-23T11:49:40Z</time>
      </trkpt>
      <trkpt lat="43.77037" lon="5.24156">
        <ele>216.2</ele>
        <time>2020-02-23T11:49:47Z</time>
      </trkpt>
      <trkpt lat="43.77038" lon="5.2414">
        <ele>215.1</ele>
        <time>2020-02-23T11:49:52Z</time>
      </trkpt>
      <trkpt lat="43.77032" lon="5.24131">
        <ele>216.5</ele>
        <time>2020-02-23T11:49:57Z</time>
      </trkpt>
      <trkpt lat="43.77017" lon="5.24125">
        <ele>218.1</ele>
        <time>2020-02-23T11:50:06Z</time>
      </trkpt>
      <trkpt lat="43.76985" lon="5.24124">
        <ele>222</ele>
        <time>2020-02-23T11:50:30Z</time>
      </trkpt>
      <trkpt lat="43.76962" lon="5.24113">
        <ele>228.6</ele>
        <time>2020-02-23T11:50:52Z</time>
      </trkpt>
      <trkpt lat="43.76953" lon="5.24096">
        <ele>230.9</ele>
        <time>2020-02-23T11:51:05Z</time>
      </trkpt>
      <trkpt lat="43.76977" lon="5.24073">
        <ele>232.9</ele>
        <time>2020-02-23T11:51:20Z</time>
      </trkpt>
      <trkpt lat="43.76984" lon="5.24058">
        <ele>233.3</ele>
        <time>2020-02-23T11:51:26Z</time>
      </trkpt>
      <trkpt lat="43.77014" lon="5.24022">
        <ele>236.6</ele>
        <time>2020-02-23T11:51:47Z</time>
      </trkpt>
      <trkpt lat="43.77017" lon="5.23996">
        <ele>239.6</ele>
        <time>2020-02-23T11:51:59Z</time>
      </trkpt>
      <trkpt lat="43.77009" lon="5.23947">
        <ele>243</ele>
        <time>2020-02-23T11:52:21Z</time>
      </trkpt>
      <trkpt lat="43.76982" lon="5.23891">
        <ele>240.1</ele>
        <time>2020-02-23T11:52:34Z</time>
      </trkpt>
      <trkpt lat="43.76989" lon="5.23819">
        <ele>245.8</ele>
        <time>2020-02-23T11:52:55Z</time>
      </trkpt>
      <trkpt lat="43.76989" lon="5.23781">
        <ele>247.3</ele>
        <time>2020-02-23T11:53:07Z</time>
      </trkpt>
      <trkpt lat="43.77005" lon="5.23731">
        <ele>245.9</ele>
        <time>2020-02-23T11:53:18Z</time>
      </trkpt>
      <trkpt lat="43.77012" lon="5.23722">
        <ele>245.4</ele>
        <time>2020-02-23T11:53:21Z</time>
      </trkpt>
      <trkpt lat="43.77018" lon="5.23671">
        <ele>246.1</ele>
        <time>2020-02-23T11:53:32Z</time>
      </trkpt>
      <trkpt lat="43.77015" lon="5.23658">
        <ele>246.7</ele>
        <time>2020-02-23T11:53:36Z</time>
      </trkpt>
      <trkpt lat="43.77017" lon="5.23643">
        <ele>247.9</ele>
        <time>2020-02-23T11:53:41Z</time>
      </trkpt>
      <trkpt lat="43.77011" lon="5.23626">
        <ele>248.7</ele>
        <time>2020-02-23T11:53:47Z</time>
      </trkpt>
      <trkpt lat="43.77014" lon="5.2359">
        <ele>250.4</ele>
        <time>2020-02-23T11:53:59Z</time>
      </trkpt>
      <trkpt lat="43.77007" lon="5.23557">
        <ele>247.9</ele>
        <time>2020-02-23T11:54:06Z</time>
      </trkpt>
      <trkpt lat="43.77008" lon="5.23541">
        <ele>246.2</ele>
        <time>2020-02-23T11:54:09Z</time>
      </trkpt>
      <trkpt lat="43.77002" lon="5.23525">
        <ele>243.8</ele>
        <time>2020-02-23T11:54:12Z</time>
      </trkpt>
      <trkpt lat="43.77003" lon="5.235">
        <ele>241.4</ele>
        <time>2020-02-23T11:54:16Z</time>
      </trkpt>
      <trkpt lat="43.76995" lon="5.23469">
        <ele>244.7</ele>
        <time>2020-02-23T11:54:26Z</time>
      </trkpt>
      <trkpt lat="43.76994" lon="5.23447">
        <ele>248.6</ele>
        <time>2020-02-23T11:54:38Z</time>
      </trkpt>
      <trkpt lat="43.76982" lon="5.23411">
        <ele>255.1</ele>
        <time>2020-02-23T11:55:08Z</time>
      </trkpt>
      <trkpt lat="43.76975" lon="5.23401">
        <ele>255.9</ele>
        <time>2020-02-23T11:55:16Z</time>
      </trkpt>
      <trkpt lat="43.76973" lon="5.23385">
        <ele>257.1</ele>
        <time>2020-02-23T11:55:22Z</time>
      </trkpt>
      <trkpt lat="43.76976" lon="5.23366">
        <ele>257.9</ele>
        <time>2020-02-23T11:55:29Z</time>
      </trkpt>
      <trkpt lat="43.76955" lon="5.23346">
        <ele>254.7</ele>
        <time>2020-02-23T11:55:35Z</time>
      </trkpt>
      <trkpt lat="43.76954" lon="5.23299">
        <ele>255</ele>
        <time>2020-02-23T11:55:46Z</time>
      </trkpt>
      <trkpt lat="43.76947" lon="5.23274">
        <ele>253.6</ele>
        <time>2020-02-23T11:55:51Z</time>
      </trkpt>
      <trkpt lat="43.76924" lon="5.23237">
        <ele>251.4</ele>
        <time>2020-02-23T11:55:58Z</time>
      </trkpt>
      <trkpt lat="43.76919" lon="5.23213">
        <ele>251.2</ele>
      </trkpt>
      <trkpt lat="43.7691" lon="5.23195">
        <ele>250.3</ele>
        <time>2020-02-23T11:56:05Z</time>
      </trkpt>
      <trkpt lat="43.76892" lon="5.23169">
        <ele>246.4</ele>
        <time>2020-02-23T11:56:15Z</time>
      </trkpt>
      <trkpt lat="43.76894" lon="5.23148">
        <ele>242.7</ele>
        <time>2020-02-23T11:56:21Z</time>
      </trkpt>
      <trkpt lat="43.76899" lon="5.23141">
        <ele>241.8</ele>
        <time>2020-02-23T11:56:24Z</time>
      </trkpt>
      <trkpt lat="43.76899" lon="5.23123">
        <ele>238.2</ele>
        <time>2020-02-23T11:56:29Z</time>
      </trkpt>
      <trkpt lat="43.76907" lon="5.23117">
        <ele>237.8</ele>
        <time>2020-02-23T11:56:33Z</time>
      </trkpt>
      <trkpt lat="43.76913" lon="5.231">
        <ele>234.6</ele>
        <time>2020-02-23T11:56:40Z</time>
      </trkpt>
      <trkpt lat="43.76933" lon="5.2307">
        <ele>225.7</ele>
        <time>2020-02-23T11:56:58Z</time>
      </trkpt>
      <trkpt lat="43.76953" lon="5.23011">
        <ele>214.7</ele>
        <time>2020-02-23T11:57:12Z</time>
        <extensions>
          <visugpx:TrkExtension xmlns:visugpx="https://www.visugpx.com/editgpx/">
            <visugpx:node>1</visugpx:node>
            </visugpx:TrkExtension>
        </extensions>
      </trkpt>
      <trkpt lat="43.76939" lon="5.23016">
        <ele>213.8</ele>
      </trkpt>
      <trkpt lat="43.76915" lon="5.23022">
        <ele>212.8</ele>
      </trkpt>
      <trkpt lat="43.76884" lon="5.23028">
        <ele>211.1</ele>
      </trkpt>
      <trkpt lat="43.76874" lon="5.23028">
        <ele>211.1</ele>
      </trkpt>
      <trkpt lat="43.76866" lon="5.23033">
        <ele>212</ele>
      </trkpt>
      <trkpt lat="43.76859" lon="5.23037">
        <ele>212.2</ele>
      </trkpt>
      <trkpt lat="43.76865" lon="5.23039">
        <ele>212.9</ele>
        <time>2020-02-23T06:59:35Z</time>
      </trkpt>
      <trkpt lat="43.76873" lon="5.23047">
        <ele>215.4</ele>
        <time>2020-02-23T06:59:47Z</time>
      </trkpt>
      <trkpt lat="43.76871" lon="5.23056">
        <ele>217.3</ele>
        <time>2020-02-23T07:00:05Z</time>
      </trkpt>
      <trkpt lat="43.76842" lon="5.23069">
        <ele>219.7</ele>
        <time>2020-02-23T07:00:58Z</time>
      </trkpt>
      <trkpt lat="43.76838" lon="5.23076">
        <ele>222.4</ele>
        <time>2020-02-23T07:01:05Z</time>
      </trkpt>
      <trkpt lat="43.76843" lon="5.23085">
        <ele>225.4</ele>
        <time>2020-02-23T07:01:16Z</time>
      </trkpt>
      <trkpt lat="43.76825" lon="5.23092">
        <ele>227.9</ele>
        <time>2020-02-23T07:01:37Z</time>
      </trkpt>
      <trkpt lat="43.7681" lon="5.23112">
        <ele>232.6</ele>
        <time>2020-02-23T07:01:50Z</time>
      </trkpt>
      <trkpt lat="43.76798" lon="5.23118">
        <ele>232.7</ele>
        <time>2020-02-23T07:01:58Z</time>
      </trkpt>
      <trkpt lat="43.76793" lon="5.2313">
        <ele>234.2</ele>
        <time>2020-02-23T07:02:04Z</time>
      </trkpt>
      <trkpt lat="43.76779" lon="5.23138">
        <ele>234.1</ele>
        <time>2020-02-23T07:02:12Z</time>
      </trkpt>
      <trkpt lat="43.76738" lon="5.23135">
        <ele>238.3</ele>
        <time>2020-02-23T07:02:31Z</time>
      </trkpt>
      <trkpt lat="43.76696" lon="5.23162">
        <ele>242.4</ele>
        <time>2020-02-23T07:02:57Z</time>
      </trkpt>
      <trkpt lat="43.76685" lon="5.23179">
        <ele>243.1</ele>
        <time>2020-02-23T07:03:05Z</time>
      </trkpt>
      <trkpt lat="43.76672" lon="5.23182">
        <ele>243.7</ele>
        <time>2020-02-23T07:03:11Z</time>
      </trkpt>
      <trkpt lat="43.76668" lon="5.23189">
        <ele>243.9</ele>
        <time>2020-02-23T07:03:14Z</time>
      </trkpt>
      <trkpt lat="43.76665" lon="5.23211">
        <ele>242.9</ele>
        <time>2020-02-23T07:03:19Z</time>
      </trkpt>
      <trkpt lat="43.76636" lon="5.23264">
        <ele>241</ele>
        <time>2020-02-23T07:03:31Z</time>
      </trkpt>
      <trkpt lat="43.7661" lon="5.23293">
        <ele>239.5</ele>
        <time>2020-02-23T07:03:38Z</time>
      </trkpt>
      <trkpt lat="43.76599" lon="5.23328">
        <ele>238.3</ele>
        <time>2020-02-23T07:03:44Z</time>
      </trkpt>
      <trkpt lat="43.76587" lon="5.23347">
        <ele>237.5</ele>
        <time>2020-02-23T07:03:48Z</time>
      </trkpt>
      <trkpt lat="43.76568" lon="5.23387">
        <ele>236.2</ele>
        <time>2020-02-23T07:03:56Z</time>
      </trkpt>
      <trkpt lat="43.76559" lon="5.23398">
        <ele>236.1</ele>
        <time>2020-02-23T07:03:59Z</time>
      </trkpt>
      <trkpt lat="43.76555" lon="5.23432">
        <ele>234</ele>
        <time>2020-02-23T07:04:05Z</time>
      </trkpt>
      <trkpt lat="43.76565" lon="5.23458">
        <ele>231.7</ele>
        <time>2020-02-23T07:04:10Z</time>
      </trkpt>
      <trkpt lat="43.76559" lon="5.23482">
        <ele>230.9</ele>
        <time>2020-02-23T07:04:15Z</time>
      </trkpt>
      <trkpt lat="43.76563" lon="5.23488">
        <ele>230.1</ele>
        <time>2020-02-23T07:04:17Z</time>
      </trkpt>
      <trkpt lat="43.76572" lon="5.23491">
        <ele>228.9</ele>
        <time>2020-02-23T07:04:20Z</time>
      </trkpt>
      <trkpt lat="43.76584" lon="5.23515">
        <ele>225.9</ele>
        <time>2020-02-23T07:04:26Z</time>
      </trkpt>
      <trkpt lat="43.76584" lon="5.23531">
        <ele>225</ele>
        <time>2020-02-23T07:04:29Z</time>
      </trkpt>
      <trkpt lat="43.766" lon="5.23591">
        <ele>224.3</ele>
        <time>2020-02-23T07:04:40Z</time>
      </trkpt>
      <trkpt lat="43.76607" lon="5.23602">
        <ele>224.2</ele>
        <time>2020-02-23T07:04:43Z</time>
      </trkpt>
      <trkpt lat="43.76616" lon="5.23601">
        <ele>224.6</ele>
        <time>2020-02-23T07:04:46Z</time>
      </trkpt>
      <trkpt lat="43.76623" lon="5.2363">
        <ele>223.5</ele>
        <time>2020-02-23T07:04:53Z</time>
      </trkpt>
      <trkpt lat="43.76641" lon="5.23667">
        <ele>222</ele>
        <time>2020-02-23T07:05:00Z</time>
      </trkpt>
      <trkpt lat="43.76658" lon="5.23679">
        <ele>221.1</ele>
        <time>2020-02-23T07:05:04Z</time>
      </trkpt>
      <trkpt lat="43.7667" lon="5.237">
        <ele>219.2</ele>
        <time>2020-02-23T07:05:08Z</time>
      </trkpt>
      <trkpt lat="43.76677" lon="5.23703">
        <ele>218.2</ele>
        <time>2020-02-23T07:05:10Z</time>
      </trkpt>
      <trkpt lat="43.76702" lon="5.23692">
        <ele>217</ele>
        <time>2020-02-23T07:05:18Z</time>
      </trkpt>
      <trkpt lat="43.76703" lon="5.23703">
        <ele>217.1</ele>
        <time>2020-02-23T07:05:21Z</time>
      </trkpt>
      <trkpt lat="43.76676" lon="5.23744">
        <ele>214</ele>
        <time>2020-02-23T07:05:33Z</time>
      </trkpt>
      <trkpt lat="43.76665" lon="5.23749">
        <ele>211.8</ele>
        <time>2020-02-23T07:05:38Z</time>
      </trkpt>
      <trkpt lat="43.76648" lon="5.2383">
        <ele>205</ele>
        <time>2020-02-23T07:06:03Z</time>
      </trkpt>
      <trkpt lat="43.7664" lon="5.23843">
        <ele>199.7</ele>
        <time>2020-02-23T07:06:08Z</time>
      </trkpt>
      <trkpt lat="43.76633" lon="5.23871">
        <ele>200.3</ele>
        <time>2020-02-23T07:06:15Z</time>
      </trkpt>
      <trkpt lat="43.7662" lon="5.23884">
        <ele>198.6</ele>
        <time>2020-02-23T07:06:22Z</time>
      </trkpt>
      <trkpt lat="43.76608" lon="5.23884">
        <ele>197.1</ele>
        <time>2020-02-23T07:06:26Z</time>
      </trkpt>
      <trkpt lat="43.76583" lon="5.23901">
        <ele>195.5</ele>
        <time>2020-02-23T07:06:35Z</time>
      </trkpt>
      <trkpt lat="43.76568" lon="5.23898">
        <ele>194.6</ele>
        <time>2020-02-23T07:06:39Z</time>
      </trkpt>
      <trkpt lat="43.76553" lon="5.23908">
        <ele>191.2</ele>
        <time>2020-02-23T07:06:43Z</time>
      </trkpt>
      <trkpt lat="43.76545" lon="5.23922">
        <ele>189.6</ele>
        <time>2020-02-23T07:06:46Z</time>
      </trkpt>
      <trkpt lat="43.76537" lon="5.23955">
        <ele>188.2</ele>
        <time>2020-02-23T07:06:51Z</time>
      </trkpt>
      <trkpt lat="43.76522" lon="5.23987">
        <ele>184.3</ele>
        <time>2020-02-23T07:06:57Z</time>
      </trkpt>
      <trkpt lat="43.76492" lon="5.24">
        <ele>183.1</ele>
        <time>2020-02-23T07:07:04Z</time>
      </trkpt>
      <trkpt lat="43.76479" lon="5.24018">
        <ele>181.9</ele>
        <time>2020-02-23T07:07:11Z</time>
      </trkpt>
      <trkpt lat="43.76461" lon="5.24027">
        <ele>180.2</ele>
        <time>2020-02-23T07:07:20Z</time>
      </trkpt>
      <trkpt lat="43.76469" lon="5.2406">
        <ele>187.9</ele>
        <time>2020-02-23T07:07:39Z</time>
      </trkpt>
      <trkpt lat="43.76477" lon="5.24073">
        <ele>190.1</ele>
        <time>2020-02-23T07:07:51Z</time>
      </trkpt>
      <trkpt lat="43.76516" lon="5.24101">
        <ele>202.6</ele>
        <time>2020-02-23T07:08:49Z</time>
      </trkpt>
      <trkpt lat="43.76518" lon="5.24125">
        <ele>206.4</ele>
        <time>2020-02-23T07:09:12Z</time>
      </trkpt>
      <trkpt lat="43.76505" lon="5.242">
        <ele>210.9</ele>
        <time>2020-02-23T07:09:51Z</time>
      </trkpt>
      <trkpt lat="43.76525" lon="5.24275">
        <ele>217.4</ele>
        <time>2020-02-23T07:10:29Z</time>
      </trkpt>
      <trkpt lat="43.76523" lon="5.24301">
        <ele>219.9</ele>
        <time>2020-02-23T07:10:42Z</time>
      </trkpt>
      <trkpt lat="43.76528" lon="5.24319">
        <ele>221.9</ele>
        <time>2020-02-23T07:10:54Z</time>
      </trkpt>
      <trkpt lat="43.76528" lon="5.24338">
        <ele>224.6</ele>
        <time>2020-02-23T07:11:05Z</time>
      </trkpt>
      <trkpt lat="43.76541" lon="5.24386">
        <ele>232.7</ele>
        <time>2020-02-23T07:11:36Z</time>
      </trkpt>
      <trkpt lat="43.76539" lon="5.24422">
        <ele>236.6</ele>
        <time>2020-02-23T07:11:59Z</time>
      </trkpt>
      <trkpt lat="43.76549" lon="5.24428">
        <ele>236.1</ele>
        <time>2020-02-23T07:12:06Z</time>
      </trkpt>
      <trkpt lat="43.76558" lon="5.24471">
        <ele>240.2</ele>
        <time>2020-02-23T07:12:30Z</time>
      </trkpt>
      <trkpt lat="43.76584" lon="5.24516">
        <ele>247.1</ele>
        <time>2020-02-23T07:13:01Z</time>
      </trkpt>
      <trkpt lat="43.76605" lon="5.24562">
        <ele>249.6</ele>
        <time>2020-02-23T07:13:24Z</time>
      </trkpt>
      <trkpt lat="43.76606" lon="5.24576">
        <ele>250.5</ele>
        <time>2020-02-23T07:13:30Z</time>
      </trkpt>
      <trkpt lat="43.76617" lon="5.24605">
        <ele>251.6</ele>
        <time>2020-02-23T07:13:42Z</time>
      </trkpt>
      <trkpt lat="43.76636" lon="5.24588">
        <ele>250.3</ele>
        <time>2020-02-23T07:13:51Z</time>
      </trkpt>
      <trkpt lat="43.76668" lon="5.24573">
        <ele>245.6</ele>
        <time>2020-02-23T07:14:02Z</time>
      </trkpt>
      <trkpt lat="43.76697" lon="5.24587">
        <ele>245.2</ele>
        <time>2020-02-23T07:14:16Z</time>
      </trkpt>
      <trkpt lat="43.76713" lon="5.2458">
        <ele>243.4</ele>
        <time>2020-02-23T07:14:22Z</time>
      </trkpt>
      <trkpt lat="43.76734" lon="5.24583">
        <ele>241.7</ele>
        <time>2020-02-23T07:14:30Z</time>
      </trkpt>
      <trkpt lat="43.76747" lon="5.24606">
        <ele>241.2</ele>
        <time>2020-02-23T07:14:37Z</time>
      </trkpt>
      <trkpt lat="43.76786" lon="5.24628">
        <ele>238.3</ele>
        <time>2020-02-23T07:14:48Z</time>
      </trkpt>
      <trkpt lat="43.76807" lon="5.24625">
        <ele>239</ele>
        <time>2020-02-23T07:14:57Z</time>
      </trkpt>
      <trkpt lat="43.76813" lon="5.24607">
        <ele>237.7</ele>
        <time>2020-02-23T07:15:03Z</time>
      </trkpt>
      <trkpt lat="43.76829" lon="5.24601">
        <ele>237.8</ele>
        <time>2020-02-23T07:15:09Z</time>
      </trkpt>
      <trkpt lat="43.76834" lon="5.24605">
        <ele>238.1</ele>
        <time>2020-02-23T07:15:12Z</time>
      </trkpt>
      <trkpt lat="43.7684" lon="5.24597">
        <ele>238.5</ele>
        <time>2020-02-23T07:15:17Z</time>
      </trkpt>
      <trkpt lat="43.76836" lon="5.24565">
        <ele>238.2</ele>
        <time>2020-02-23T07:15:26Z</time>
      </trkpt>
      <trkpt lat="43.76843" lon="5.24557">
        <ele>238.7</ele>
        <time>2020-02-23T07:15:30Z</time>
      </trkpt>
      <trkpt lat="43.76867" lon="5.24575">
        <ele>240.6</ele>
        <time>2020-02-23T07:15:43Z</time>
      </trkpt>
      <trkpt lat="43.76871" lon="5.24586">
        <ele>241</ele>
        <time>2020-02-23T07:15:47Z</time>
      </trkpt>
      <trkpt lat="43.76882" lon="5.246">
        <ele>241.8</ele>
        <time>2020-02-23T07:15:54Z</time>
      </trkpt>
      <trkpt lat="43.76897" lon="5.24602">
        <ele>243.2</ele>
        <time>2020-02-23T07:16:01Z</time>
      </trkpt>
      <trkpt lat="43.7691" lon="5.24614">
        <ele>244.3</ele>
        <time>2020-02-23T07:16:08Z</time>
      </trkpt>
      <trkpt lat="43.76924" lon="5.24615">
        <ele>245.8</ele>
        <time>2020-02-23T07:16:16Z</time>
      </trkpt>
      <trkpt lat="43.76935" lon="5.24624">
        <ele>247</ele>
        <time>2020-02-23T07:16:23Z</time>
      </trkpt>
      <trkpt lat="43.76935" lon="5.24628">
        <ele>247</ele>
        <time>2020-02-23T07:18:04Z</time>
      </trkpt>
      <trkpt lat="43.7691" lon="5.24637">
        <ele>244.3</ele>
        <time>2020-02-23T07:18:12Z</time>
      </trkpt>
      <trkpt lat="43.76889" lon="5.24635">
        <ele>242</ele>
        <time>2020-02-23T07:18:20Z</time>
      </trkpt>
      <trkpt lat="43.76886" lon="5.24666">
        <ele>243</ele>
        <time>2020-02-23T07:18:29Z</time>
      </trkpt>
      <trkpt lat="43.76881" lon="5.24685">
        <ele>244.8</ele>
        <time>2020-02-23T07:18:40Z</time>
      </trkpt>
      <trkpt lat="43.76865" lon="5.24711">
        <ele>247.4</ele>
        <time>2020-02-23T07:18:55Z</time>
      </trkpt>
      <trkpt lat="43.76862" lon="5.24731">
        <ele>248.6</ele>
        <time>2020-02-23T07:19:03Z</time>
      </trkpt>
      <trkpt lat="43.76838" lon="5.24778">
        <ele>251.8</ele>
        <time>2020-02-23T07:19:24Z</time>
      </trkpt>
      <trkpt lat="43.76812" lon="5.24841">
        <ele>257</ele>
        <time>2020-02-23T07:19:53Z</time>
      </trkpt>
      <trkpt lat="43.76797" lon="5.24859">
        <ele>258.5</ele>
        <time>2020-02-23T07:20:05Z</time>
      </trkpt>
      <trkpt lat="43.76805" lon="5.24891">
        <ele>260</ele>
        <time>2020-02-23T07:20:17Z</time>
      </trkpt>
      <trkpt lat="43.76813" lon="5.24891">
        <ele>259.5</ele>
        <time>2020-02-23T07:20:21Z</time>
      </trkpt>
      <trkpt lat="43.76817" lon="5.24906">
        <ele>259.2</ele>
        <time>2020-02-23T07:20:27Z</time>
      </trkpt>
      <trkpt lat="43.76813" lon="5.24931">
        <ele>259.5</ele>
        <time>2020-02-23T07:20:36Z</time>
      </trkpt>
      <trkpt lat="43.76827" lon="5.24951">
        <ele>258.5</ele>
        <time>2020-02-23T07:20:43Z</time>
      </trkpt>
      <trkpt lat="43.76831" lon="5.24977">
        <ele>258.2</ele>
        <time>2020-02-23T07:20:50Z</time>
      </trkpt>
      <trkpt lat="43.76822" lon="5.24992">
        <ele>258.5</ele>
        <time>2020-02-23T07:20:55Z</time>
      </trkpt>
      <trkpt lat="43.76809" lon="5.25002">
        <ele>258.9</ele>
        <time>2020-02-23T07:21:01Z</time>
      </trkpt>
      <trkpt lat="43.76799" lon="5.25039">
        <ele>258</ele>
        <time>2020-02-23T07:21:12Z</time>
      </trkpt>
      <trkpt lat="43.76781" lon="5.25052">
        <ele>256.4</ele>
        <time>2020-02-23T07:21:18Z</time>
      </trkpt>
      <trkpt lat="43.76774" lon="5.25064">
        <ele>255.5</ele>
        <time>2020-02-23T07:21:21Z</time>
      </trkpt>
      <trkpt lat="43.76758" lon="5.25071">
        <ele>256.1</ele>
        <time>2020-02-23T07:21:27Z</time>
      </trkpt>
      <trkpt lat="43.76743" lon="5.25093">
        <ele>254.6</ele>
        <time>2020-02-23T07:21:34Z</time>
      </trkpt>
      <trkpt lat="43.76729" lon="5.25103">
        <ele>254.7</ele>
        <time>2020-02-23T07:21:39Z</time>
      </trkpt>
      <trkpt lat="43.76717" lon="5.25124">
        <ele>252.6</ele>
        <time>2020-02-23T07:21:44Z</time>
      </trkpt>
      <trkpt lat="43.76717" lon="5.25138">
        <ele>250.5</ele>
        <time>2020-02-23T07:21:47Z</time>
      </trkpt>
      <trkpt lat="43.76724" lon="5.2515">
        <ele>248.7</ele>
        <time>2020-02-23T07:21:51Z</time>
      </trkpt>
      <trkpt lat="43.76722" lon="5.25169">
        <ele>246.6</ele>
        <time>2020-02-23T07:21:55Z</time>
      </trkpt>
      <trkpt lat="43.76725" lon="5.25185">
        <ele>243.5</ele>
        <time>2020-02-23T07:21:58Z</time>
      </trkpt>
      <trkpt lat="43.76722" lon="5.252">
        <ele>241.1</ele>
        <time>2020-02-23T07:22:01Z</time>
      </trkpt>
      <trkpt lat="43.76708" lon="5.25222">
        <ele>237.6</ele>
        <time>2020-02-23T07:22:11Z</time>
      </trkpt>
      <trkpt lat="43.76711" lon="5.25247">
        <ele>232.3</ele>
        <time>2020-02-23T07:22:19Z</time>
      </trkpt>
      <trkpt lat="43.76704" lon="5.2531">
        <ele>215.7</ele>
        <time>2020-02-23T07:22:34Z</time>
      </trkpt>
      <trkpt lat="43.76686" lon="5.25345">
        <ele>209.4</ele>
        <time>2020-02-23T07:22:48Z</time>
      </trkpt>
      <trkpt lat="43.767" lon="5.25349">
        <ele>206.3</ele>
        <time>2020-02-23T07:22:53Z</time>
      </trkpt>
      <trkpt lat="43.76706" lon="5.25362">
        <ele>202.8</ele>
        <time>2020-02-23T07:22:58Z</time>
      </trkpt>
      <trkpt lat="43.76704" lon="5.25372">
        <ele>202.4</ele>
        <time>2020-02-23T07:23:00Z</time>
      </trkpt>
      <trkpt lat="43.76691" lon="5.25394">
        <ele>201.2</ele>
        <time>2020-02-23T07:23:05Z</time>
      </trkpt>
      <trkpt lat="43.76664" lon="5.25412">
        <ele>200</ele>
        <time>2020-02-23T07:23:13Z</time>
      </trkpt>
      <trkpt lat="43.76617" lon="5.25499">
        <ele>195.6</ele>
        <time>2020-02-23T07:23:29Z</time>
      </trkpt>
      <trkpt lat="43.7659" lon="5.25581">
        <ele>193.8</ele>
        <time>2020-02-23T07:23:39Z</time>
      </trkpt>
      <trkpt lat="43.76573" lon="5.25601">
        <ele>192.4</ele>
        <time>2020-02-23T07:23:43Z</time>
      </trkpt>
      <trkpt lat="43.76468" lon="5.25626">
        <ele>188.1</ele>
        <time>2020-02-23T07:24:06Z</time>
      </trkpt>
      <trkpt lat="43.76444" lon="5.25624">
        <ele>186.6</ele>
        <time>2020-02-23T07:24:11Z</time>
      </trkpt>
      <trkpt lat="43.76424" lon="5.25629">
        <ele>184.8</ele>
        <time>2020-02-23T07:24:15Z</time>
      </trkpt>
      <trkpt lat="43.76341" lon="5.25627">
        <ele>182</ele>
        <time>2020-02-23T07:24:31Z</time>
      </trkpt>
      <trkpt lat="43.76275" lon="5.25614">
        <ele>180.1</ele>
        <time>2020-02-23T07:24:42Z</time>
      </trkpt>
      <trkpt lat="43.76264" lon="5.25608">
        <ele>180</ele>
        <time>2020-02-23T07:24:44Z</time>
      </trkpt>
      <trkpt lat="43.76236" lon="5.25605">
        <ele>178.3</ele>
        <time>2020-02-23T07:24:51Z</time>
        <extensions>
          <visugpx:TrkExtension xmlns:visugpx="https://www.visugpx.com/editgpx/">
            <visugpx:node>3</visugpx:node>
            </visugpx:TrkExtension>
        </extensions>
      </trkpt>
      <trkpt lat="43.76228" lon="5.25658">
        <ele>179.7</ele>
        <time>2020-02-23T07:25:10Z</time>
      </trkpt>
      <trkpt lat="43.76226" lon="5.25706">
        <ele>182.8</ele>
        <time>2020-02-23T07:25:26Z</time>
      </trkpt>
      <trkpt lat="43.76218" lon="5.25738">
        <ele>186.4</ele>
        <time>2020-02-23T07:25:41Z</time>
      </trkpt>
      <trkpt lat="43.76195" lon="5.25805">
        <ele>196</ele>
        <time>2020-02-23T07:26:26Z</time>
      </trkpt>
      <trkpt lat="43.76171" lon="5.25847">
        <ele>203.1</ele>
        <time>2020-02-23T07:26:58Z</time>
      </trkpt>
      <trkpt lat="43.76168" lon="5.25862">
        <ele>205.1</ele>
        <time>2020-02-23T07:27:07Z</time>
        <extensions>
          <visugpx:TrkExtension xmlns:visugpx="https://www.visugpx.com/editgpx/">
            <visugpx:node>4</visugpx:node>
            </visugpx:TrkExtension>
        </extensions>
      </trkpt>
    </trkseg>
  </trk>
</gpx>